<?xml version="1.0" encoding="UTF-8" standalone="no" ?>
<gpx xmlns="http://www.topografix.com/GPX/1/1" xmlns:xsi="http://www.w3.org/2001/XMLSchema-instance" xsi:schemaLocation="http://www.topografix.com/GPX/1/1 http://www.topografix.com/GPX/1/1/gpx.xsd" version="1.1" creator="VisuGPX - https://www.visugpx.com">
  <metadata>
    <name>6dec2014</name>
    <desc><![CDATA[club vtt des rochers]]></desc>
  </metadata>
  <trk>
    <name><![CDATA[06-DEC-14 16-49-03]]></name>
    <trkseg>
      <trkpt lat="44.47204" lon="0.93415">
        <ele>60.22</ele>
        <time>2014-12-06T13:10:37Z</time>
      </trkpt>
      <trkpt lat="44.47205" lon="0.93413">
        <ele>64.07</ele>
        <time>2014-12-06T13:11:10Z</time>
      </trkpt>
      <trkpt lat="44.47205" lon="0.93417">
        <ele>64.55</ele>
        <time>2014-12-06T13:11:24Z</time>
      </trkpt>
      <trkpt lat="44.47203" lon="0.93418">
        <ele>64.55</ele>
        <time>2014-12-06T13:11:26Z</time>
      </trkpt>
      <trkpt lat="44.47201" lon="0.9342">
        <ele>65.03</ele>
        <time>2014-12-06T13:11:29Z</time>
      </trkpt>
      <trkpt lat="44.47199" lon="0.93429">
        <ele>64.07</ele>
        <time>2014-12-06T13:11:42Z</time>
      </trkpt>
      <trkpt lat="44.47199" lon="0.9343">
        <ele>63.1</ele>
        <time>2014-12-06T13:11:59Z</time>
      </trkpt>
      <trkpt lat="44.47199" lon="0.93431">
        <ele>62.14</ele>
        <time>2014-12-06T13:12:20Z</time>
      </trkpt>
      <trkpt lat="44.47199" lon="0.93431">
        <ele>62.14</ele>
        <time>2014-12-06T13:12:37Z</time>
      </trkpt>
      <trkpt lat="44.47198" lon="0.9343">
        <ele>61.66</ele>
        <time>2014-12-06T13:12:51Z</time>
      </trkpt>
      <trkpt lat="44.47198" lon="0.9343">
        <ele>61.66</ele>
        <time>2014-12-06T13:13:08Z</time>
      </trkpt>
      <trkpt lat="44.47197" lon="0.93429">
        <ele>61.66</ele>
        <time>2014-12-06T13:13:32Z</time>
      </trkpt>
      <trkpt lat="44.47196" lon="0.93428">
        <ele>61.66</ele>
        <time>2014-12-06T13:13:54Z</time>
      </trkpt>
      <trkpt lat="44.47196" lon="0.93428">
        <ele>63.1</ele>
        <time>2014-12-06T13:14:16Z</time>
      </trkpt>
      <trkpt lat="44.47197" lon="0.9343">
        <ele>63.58</ele>
        <time>2014-12-06T13:14:46Z</time>
      </trkpt>
      <trkpt lat="44.47196" lon="0.9343">
        <ele>63.58</ele>
        <time>2014-12-06T13:15:16Z</time>
      </trkpt>
      <trkpt lat="44.47195" lon="0.93433">
        <ele>64.07</ele>
        <time>2014-12-06T13:15:27Z</time>
      </trkpt>
      <trkpt lat="44.47194" lon="0.93434">
        <ele>64.55</ele>
        <time>2014-12-06T13:15:43Z</time>
      </trkpt>
      <trkpt lat="44.47192" lon="0.93437">
        <ele>65.03</ele>
        <time>2014-12-06T13:15:56Z</time>
      </trkpt>
      <trkpt lat="44.47192" lon="0.93438">
        <ele>65.99</ele>
        <time>2014-12-06T13:16:17Z</time>
      </trkpt>
      <trkpt lat="44.47193" lon="0.9344">
        <ele>65.51</ele>
        <time>2014-12-06T13:16:31Z</time>
      </trkpt>
      <trkpt lat="44.47194" lon="0.93439">
        <ele>65.51</ele>
        <time>2014-12-06T13:16:59Z</time>
      </trkpt>
      <trkpt lat="44.47212" lon="0.9347">
        <ele>66.47</ele>
        <time>2014-12-06T13:17:12Z</time>
      </trkpt>
      <trkpt lat="44.47224" lon="0.93516">
        <ele>65.99</ele>
        <time>2014-12-06T13:17:22Z</time>
      </trkpt>
      <trkpt lat="44.47229" lon="0.93542">
        <ele>65.99</ele>
        <time>2014-12-06T13:17:27Z</time>
      </trkpt>
      <trkpt lat="44.47229" lon="0.93548">
        <ele>65.99</ele>
        <time>2014-12-06T13:17:28Z</time>
      </trkpt>
      <trkpt lat="44.47231" lon="0.93569">
        <ele>65.03</ele>
        <time>2014-12-06T13:17:32Z</time>
      </trkpt>
      <trkpt lat="44.47253" lon="0.93622">
        <ele>65.03</ele>
        <time>2014-12-06T13:17:42Z</time>
      </trkpt>
      <trkpt lat="44.47257" lon="0.93626">
        <ele>65.03</ele>
        <time>2014-12-06T13:17:43Z</time>
      </trkpt>
      <trkpt lat="44.47278" lon="0.93646">
        <ele>65.99</ele>
        <time>2014-12-06T13:17:49Z</time>
      </trkpt>
      <trkpt lat="44.4728" lon="0.93651">
        <ele>65.99</ele>
        <time>2014-12-06T13:17:50Z</time>
      </trkpt>
      <trkpt lat="44.47281" lon="0.93656">
        <ele>65.99</ele>
        <time>2014-12-06T13:17:51Z</time>
      </trkpt>
      <trkpt lat="44.47283" lon="0.93662">
        <ele>65.99</ele>
        <time>2014-12-06T13:17:52Z</time>
      </trkpt>
      <trkpt lat="44.47285" lon="0.93667">
        <ele>65.99</ele>
        <time>2014-12-06T13:17:53Z</time>
      </trkpt>
      <trkpt lat="44.47287" lon="0.93671">
        <ele>65.51</ele>
        <time>2014-12-06T13:17:54Z</time>
      </trkpt>
      <trkpt lat="44.4729" lon="0.93674">
        <ele>65.51</ele>
        <time>2014-12-06T13:17:55Z</time>
      </trkpt>
      <trkpt lat="44.47293" lon="0.93677">
        <ele>65.51</ele>
        <time>2014-12-06T13:17:56Z</time>
      </trkpt>
      <trkpt lat="44.47296" lon="0.93682">
        <ele>65.51</ele>
        <time>2014-12-06T13:17:57Z</time>
      </trkpt>
      <trkpt lat="44.47297" lon="0.93688">
        <ele>65.51</ele>
        <time>2014-12-06T13:17:58Z</time>
      </trkpt>
      <trkpt lat="44.4732" lon="0.93737">
        <ele>68.39</ele>
        <time>2014-12-06T13:18:09Z</time>
      </trkpt>
      <trkpt lat="44.47323" lon="0.93741">
        <ele>68.39</ele>
        <time>2014-12-06T13:18:10Z</time>
      </trkpt>
      <trkpt lat="44.47336" lon="0.93765">
        <ele>68.87</ele>
        <time>2014-12-06T13:18:15Z</time>
      </trkpt>
      <trkpt lat="44.4734" lon="0.93782">
        <ele>68.39</ele>
        <time>2014-12-06T13:18:18Z</time>
      </trkpt>
      <trkpt lat="44.47345" lon="0.938">
        <ele>67.91</ele>
        <time>2014-12-06T13:18:21Z</time>
      </trkpt>
      <trkpt lat="44.47346" lon="0.93805">
        <ele>67.91</ele>
        <time>2014-12-06T13:18:22Z</time>
      </trkpt>
      <trkpt lat="44.47361" lon="0.93828">
        <ele>68.39</ele>
        <time>2014-12-06T13:18:28Z</time>
      </trkpt>
      <trkpt lat="44.47368" lon="0.9384">
        <ele>68.39</ele>
        <time>2014-12-06T13:18:30Z</time>
      </trkpt>
      <trkpt lat="44.4737" lon="0.93847">
        <ele>68.87</ele>
        <time>2014-12-06T13:18:31Z</time>
      </trkpt>
      <trkpt lat="44.47371" lon="0.93854">
        <ele>68.87</ele>
        <time>2014-12-06T13:18:32Z</time>
      </trkpt>
      <trkpt lat="44.47385" lon="0.93927">
        <ele>70.31</ele>
        <time>2014-12-06T13:18:46Z</time>
      </trkpt>
      <trkpt lat="44.47393" lon="0.93953">
        <ele>69.83</ele>
        <time>2014-12-06T13:18:54Z</time>
      </trkpt>
      <trkpt lat="44.47395" lon="0.93953">
        <ele>69.35</ele>
        <time>2014-12-06T13:18:55Z</time>
      </trkpt>
      <trkpt lat="44.47397" lon="0.93952">
        <ele>69.35</ele>
        <time>2014-12-06T13:18:56Z</time>
      </trkpt>
      <trkpt lat="44.474" lon="0.93951">
        <ele>68.87</ele>
        <time>2014-12-06T13:18:57Z</time>
      </trkpt>
      <trkpt lat="44.47403" lon="0.9395">
        <ele>68.87</ele>
        <time>2014-12-06T13:18:58Z</time>
      </trkpt>
      <trkpt lat="44.47426" lon="0.93934">
        <ele>67.43</ele>
        <time>2014-12-06T13:19:04Z</time>
      </trkpt>
      <trkpt lat="44.47478" lon="0.93897">
        <ele>63.58</ele>
        <time>2014-12-06T13:19:14Z</time>
      </trkpt>
      <trkpt lat="44.47483" lon="0.93896">
        <ele>63.58</ele>
        <time>2014-12-06T13:19:15Z</time>
      </trkpt>
      <trkpt lat="44.47487" lon="0.93896">
        <ele>63.58</ele>
        <time>2014-12-06T13:19:16Z</time>
      </trkpt>
      <trkpt lat="44.47491" lon="0.93899">
        <ele>63.1</ele>
        <time>2014-12-06T13:19:17Z</time>
      </trkpt>
      <trkpt lat="44.47493" lon="0.93903">
        <ele>62.62</ele>
        <time>2014-12-06T13:19:18Z</time>
      </trkpt>
      <trkpt lat="44.47495" lon="0.93908">
        <ele>62.62</ele>
        <time>2014-12-06T13:19:19Z</time>
      </trkpt>
      <trkpt lat="44.47497" lon="0.93912">
        <ele>62.62</ele>
        <time>2014-12-06T13:19:20Z</time>
      </trkpt>
      <trkpt lat="44.475" lon="0.93917">
        <ele>62.14</ele>
        <time>2014-12-06T13:19:21Z</time>
      </trkpt>
      <trkpt lat="44.47524" lon="0.93958">
        <ele>59.26</ele>
        <time>2014-12-06T13:19:33Z</time>
      </trkpt>
      <trkpt lat="44.47538" lon="0.93961">
        <ele>58.78</ele>
        <time>2014-12-06T13:19:37Z</time>
      </trkpt>
      <trkpt lat="44.47551" lon="0.93965">
        <ele>58.78</ele>
        <time>2014-12-06T13:19:40Z</time>
      </trkpt>
      <trkpt lat="44.47555" lon="0.93968">
        <ele>58.78</ele>
        <time>2014-12-06T13:19:41Z</time>
      </trkpt>
      <trkpt lat="44.47559" lon="0.93972">
        <ele>58.78</ele>
        <time>2014-12-06T13:19:42Z</time>
      </trkpt>
      <trkpt lat="44.47563" lon="0.93976">
        <ele>58.3</ele>
        <time>2014-12-06T13:19:43Z</time>
      </trkpt>
      <trkpt lat="44.47567" lon="0.93979">
        <ele>58.3</ele>
        <time>2014-12-06T13:19:44Z</time>
      </trkpt>
      <trkpt lat="44.47571" lon="0.93983">
        <ele>58.3</ele>
        <time>2014-12-06T13:19:45Z</time>
      </trkpt>
      <trkpt lat="44.47601" lon="0.9401">
        <ele>57.82</ele>
        <time>2014-12-06T13:19:56Z</time>
      </trkpt>
      <trkpt lat="44.47627" lon="0.94032">
        <ele>58.3</ele>
        <time>2014-12-06T13:20:04Z</time>
      </trkpt>
      <trkpt lat="44.47677" lon="0.94061">
        <ele>59.74</ele>
        <time>2014-12-06T13:20:15Z</time>
      </trkpt>
      <trkpt lat="44.47694" lon="0.94075">
        <ele>59.74</ele>
        <time>2014-12-06T13:20:19Z</time>
      </trkpt>
      <trkpt lat="44.47701" lon="0.94082">
        <ele>60.22</ele>
        <time>2014-12-06T13:20:21Z</time>
      </trkpt>
      <trkpt lat="44.47751" lon="0.94125">
        <ele>59.74</ele>
        <time>2014-12-06T13:20:35Z</time>
      </trkpt>
      <trkpt lat="44.47788" lon="0.94172">
        <ele>58.78</ele>
        <time>2014-12-06T13:20:49Z</time>
      </trkpt>
      <trkpt lat="44.47803" lon="0.94208">
        <ele>60.22</ele>
        <time>2014-12-06T13:20:59Z</time>
      </trkpt>
      <trkpt lat="44.47805" lon="0.94212">
        <ele>60.22</ele>
        <time>2014-12-06T13:21:00Z</time>
      </trkpt>
      <trkpt lat="44.47814" lon="0.94221">
        <ele>60.7</ele>
        <time>2014-12-06T13:21:03Z</time>
      </trkpt>
      <trkpt lat="44.47822" lon="0.9423">
        <ele>60.7</ele>
        <time>2014-12-06T13:21:05Z</time>
      </trkpt>
      <trkpt lat="44.47837" lon="0.94261">
        <ele>60.22</ele>
        <time>2014-12-06T13:21:10Z</time>
      </trkpt>
      <trkpt lat="44.47841" lon="0.94274">
        <ele>60.22</ele>
        <time>2014-12-06T13:21:12Z</time>
      </trkpt>
      <trkpt lat="44.47857" lon="0.94311">
        <ele>61.18</ele>
        <time>2014-12-06T13:21:19Z</time>
      </trkpt>
      <trkpt lat="44.47881" lon="0.9438">
        <ele>62.14</ele>
        <time>2014-12-06T13:21:32Z</time>
      </trkpt>
      <trkpt lat="44.47901" lon="0.94439">
        <ele>63.1</ele>
        <time>2014-12-06T13:21:43Z</time>
      </trkpt>
      <trkpt lat="44.47922" lon="0.94506">
        <ele>63.1</ele>
        <time>2014-12-06T13:21:56Z</time>
      </trkpt>
      <trkpt lat="44.47931" lon="0.94531">
        <ele>62.62</ele>
        <time>2014-12-06T13:22:01Z</time>
      </trkpt>
      <trkpt lat="44.47934" lon="0.94542">
        <ele>62.62</ele>
        <time>2014-12-06T13:22:03Z</time>
      </trkpt>
      <trkpt lat="44.47936" lon="0.94547">
        <ele>62.62</ele>
        <time>2014-12-06T13:22:04Z</time>
      </trkpt>
      <trkpt lat="44.47937" lon="0.94553">
        <ele>62.62</ele>
        <time>2014-12-06T13:22:05Z</time>
      </trkpt>
      <trkpt lat="44.47939" lon="0.94559">
        <ele>62.62</ele>
        <time>2014-12-06T13:22:06Z</time>
      </trkpt>
      <trkpt lat="44.4794" lon="0.94565">
        <ele>62.62</ele>
        <time>2014-12-06T13:22:07Z</time>
      </trkpt>
      <trkpt lat="44.47941" lon="0.94571">
        <ele>62.62</ele>
        <time>2014-12-06T13:22:08Z</time>
      </trkpt>
      <trkpt lat="44.47943" lon="0.94577">
        <ele>62.14</ele>
        <time>2014-12-06T13:22:09Z</time>
      </trkpt>
      <trkpt lat="44.47952" lon="0.94606">
        <ele>61.66</ele>
        <time>2014-12-06T13:22:14Z</time>
      </trkpt>
      <trkpt lat="44.47955" lon="0.94618">
        <ele>61.18</ele>
        <time>2014-12-06T13:22:16Z</time>
      </trkpt>
      <trkpt lat="44.47958" lon="0.94624">
        <ele>61.18</ele>
        <time>2014-12-06T13:22:17Z</time>
      </trkpt>
      <trkpt lat="44.47959" lon="0.9463">
        <ele>61.18</ele>
        <time>2014-12-06T13:22:18Z</time>
      </trkpt>
      <trkpt lat="44.47992" lon="0.94719">
        <ele>61.18</ele>
        <time>2014-12-06T13:22:32Z</time>
      </trkpt>
      <trkpt lat="44.48002" lon="0.94747">
        <ele>60.7</ele>
        <time>2014-12-06T13:22:36Z</time>
      </trkpt>
      <trkpt lat="44.48006" lon="0.94753">
        <ele>60.22</ele>
        <time>2014-12-06T13:22:37Z</time>
      </trkpt>
      <trkpt lat="44.48009" lon="0.94757">
        <ele>60.22</ele>
        <time>2014-12-06T13:22:38Z</time>
      </trkpt>
      <trkpt lat="44.48027" lon="0.94776">
        <ele>59.26</ele>
        <time>2014-12-06T13:22:43Z</time>
      </trkpt>
      <trkpt lat="44.48027" lon="0.94782">
        <ele>59.26</ele>
        <time>2014-12-06T13:22:44Z</time>
      </trkpt>
      <trkpt lat="44.48027" lon="0.94787">
        <ele>59.74</ele>
        <time>2014-12-06T13:22:45Z</time>
      </trkpt>
      <trkpt lat="44.48027" lon="0.94792">
        <ele>59.74</ele>
        <time>2014-12-06T13:22:46Z</time>
      </trkpt>
      <trkpt lat="44.48028" lon="0.94796">
        <ele>59.74</ele>
        <time>2014-12-06T13:22:47Z</time>
      </trkpt>
      <trkpt lat="44.48029" lon="0.948">
        <ele>60.22</ele>
        <time>2014-12-06T13:22:48Z</time>
      </trkpt>
      <trkpt lat="44.4803" lon="0.94806">
        <ele>60.22</ele>
        <time>2014-12-06T13:22:49Z</time>
      </trkpt>
      <trkpt lat="44.48046" lon="0.9486">
        <ele>65.51</ele>
        <time>2014-12-06T13:23:01Z</time>
      </trkpt>
      <trkpt lat="44.48066" lon="0.94901">
        <ele>70.79</ele>
        <time>2014-12-06T13:23:11Z</time>
      </trkpt>
      <trkpt lat="44.48082" lon="0.94944">
        <ele>68.87</ele>
        <time>2014-12-06T13:23:21Z</time>
      </trkpt>
      <trkpt lat="44.48084" lon="0.94952">
        <ele>68.39</ele>
        <time>2014-12-06T13:23:23Z</time>
      </trkpt>
      <trkpt lat="44.48101" lon="0.94996">
        <ele>68.87</ele>
        <time>2014-12-06T13:23:34Z</time>
      </trkpt>
      <trkpt lat="44.48132" lon="0.95065">
        <ele>65.03</ele>
        <time>2014-12-06T13:23:49Z</time>
      </trkpt>
      <trkpt lat="44.48159" lon="0.95111">
        <ele>64.07</ele>
        <time>2014-12-06T13:24:01Z</time>
      </trkpt>
      <trkpt lat="44.48186" lon="0.95165">
        <ele>64.55</ele>
        <time>2014-12-06T13:24:13Z</time>
      </trkpt>
      <trkpt lat="44.48209" lon="0.952">
        <ele>65.99</ele>
        <time>2014-12-06T13:24:22Z</time>
      </trkpt>
      <trkpt lat="44.48241" lon="0.95249">
        <ele>67.91</ele>
        <time>2014-12-06T13:24:34Z</time>
      </trkpt>
      <trkpt lat="44.48282" lon="0.95312">
        <ele>70.31</ele>
        <time>2014-12-06T13:24:50Z</time>
      </trkpt>
      <trkpt lat="44.48306" lon="0.95335">
        <ele>69.35</ele>
        <time>2014-12-06T13:24:58Z</time>
      </trkpt>
      <trkpt lat="44.48314" lon="0.95344">
        <ele>67.91</ele>
        <time>2014-12-06T13:25:05Z</time>
      </trkpt>
      <trkpt lat="44.48322" lon="0.95351">
        <ele>68.87</ele>
        <time>2014-12-06T13:25:09Z</time>
      </trkpt>
      <trkpt lat="44.48333" lon="0.95365">
        <ele>68.39</ele>
        <time>2014-12-06T13:25:21Z</time>
      </trkpt>
      <trkpt lat="44.48334" lon="0.95367">
        <ele>68.39</ele>
        <time>2014-12-06T13:25:46Z</time>
      </trkpt>
      <trkpt lat="44.48336" lon="0.95368">
        <ele>67.43</ele>
        <time>2014-12-06T13:26:09Z</time>
      </trkpt>
      <trkpt lat="44.48346" lon="0.95384">
        <ele>67.43</ele>
        <time>2014-12-06T13:26:20Z</time>
      </trkpt>
      <trkpt lat="44.4836" lon="0.9542">
        <ele>68.39</ele>
        <time>2014-12-06T13:26:30Z</time>
      </trkpt>
      <trkpt lat="44.48377" lon="0.95469">
        <ele>71.27</ele>
        <time>2014-12-06T13:26:41Z</time>
      </trkpt>
      <trkpt lat="44.48379" lon="0.95475">
        <ele>71.27</ele>
        <time>2014-12-06T13:26:42Z</time>
      </trkpt>
      <trkpt lat="44.48386" lon="0.95499">
        <ele>71.27</ele>
        <time>2014-12-06T13:26:47Z</time>
      </trkpt>
      <trkpt lat="44.48398" lon="0.95538">
        <ele>71.27</ele>
        <time>2014-12-06T13:26:54Z</time>
      </trkpt>
      <trkpt lat="44.48408" lon="0.9558">
        <ele>71.27</ele>
        <time>2014-12-06T13:27:01Z</time>
      </trkpt>
      <trkpt lat="44.48427" lon="0.95627">
        <ele>71.76</ele>
        <time>2014-12-06T13:27:09Z</time>
      </trkpt>
      <trkpt lat="44.48435" lon="0.95648">
        <ele>73.2</ele>
        <time>2014-12-06T13:27:13Z</time>
      </trkpt>
      <trkpt lat="44.48466" lon="0.95707">
        <ele>78</ele>
        <time>2014-12-06T13:27:26Z</time>
      </trkpt>
      <trkpt lat="44.48484" lon="0.95743">
        <ele>78.97</ele>
        <time>2014-12-06T13:27:35Z</time>
      </trkpt>
      <trkpt lat="44.48492" lon="0.95757">
        <ele>78.48</ele>
        <time>2014-12-06T13:27:38Z</time>
      </trkpt>
      <trkpt lat="44.4852" lon="0.95795">
        <ele>76.08</ele>
        <time>2014-12-06T13:27:46Z</time>
      </trkpt>
      <trkpt lat="44.48526" lon="0.95804">
        <ele>74.16</ele>
        <time>2014-12-06T13:27:56Z</time>
      </trkpt>
      <trkpt lat="44.48526" lon="0.95806">
        <ele>73.2</ele>
        <time>2014-12-06T13:28:19Z</time>
      </trkpt>
      <trkpt lat="44.48526" lon="0.95806">
        <ele>73.2</ele>
        <time>2014-12-06T13:28:20Z</time>
      </trkpt>
      <trkpt lat="44.48536" lon="0.95823">
        <ele>72.24</ele>
        <time>2014-12-06T13:28:27Z</time>
      </trkpt>
      <trkpt lat="44.48559" lon="0.95845">
        <ele>71.76</ele>
        <time>2014-12-06T13:28:33Z</time>
      </trkpt>
      <trkpt lat="44.48591" lon="0.95887">
        <ele>72.24</ele>
        <time>2014-12-06T13:28:45Z</time>
      </trkpt>
      <trkpt lat="44.48611" lon="0.95918">
        <ele>73.2</ele>
        <time>2014-12-06T13:28:53Z</time>
      </trkpt>
      <trkpt lat="44.48626" lon="0.95933">
        <ele>73.2</ele>
        <time>2014-12-06T13:28:57Z</time>
      </trkpt>
      <trkpt lat="44.48647" lon="0.95954">
        <ele>73.2</ele>
        <time>2014-12-06T13:29:03Z</time>
      </trkpt>
      <trkpt lat="44.48659" lon="0.95967">
        <ele>73.68</ele>
        <time>2014-12-06T13:29:07Z</time>
      </trkpt>
      <trkpt lat="44.48669" lon="0.95979">
        <ele>74.16</ele>
        <time>2014-12-06T13:29:10Z</time>
      </trkpt>
      <trkpt lat="44.48681" lon="0.95994">
        <ele>74.64</ele>
        <time>2014-12-06T13:29:14Z</time>
      </trkpt>
      <trkpt lat="44.48714" lon="0.96044">
        <ele>74.64</ele>
        <time>2014-12-06T13:29:26Z</time>
      </trkpt>
      <trkpt lat="44.48715" lon="0.96067">
        <ele>73.68</ele>
        <time>2014-12-06T13:29:33Z</time>
      </trkpt>
      <trkpt lat="44.48738" lon="0.96099">
        <ele>73.68</ele>
        <time>2014-12-06T13:29:44Z</time>
      </trkpt>
      <trkpt lat="44.48756" lon="0.96104">
        <ele>72.24</ele>
        <time>2014-12-06T13:29:50Z</time>
      </trkpt>
      <trkpt lat="44.48774" lon="0.96124">
        <ele>71.27</ele>
        <time>2014-12-06T13:29:56Z</time>
      </trkpt>
      <trkpt lat="44.488" lon="0.96148">
        <ele>69.35</ele>
        <time>2014-12-06T13:30:03Z</time>
      </trkpt>
      <trkpt lat="44.48816" lon="0.9617">
        <ele>68.39</ele>
        <time>2014-12-06T13:30:09Z</time>
      </trkpt>
      <trkpt lat="44.48844" lon="0.9621">
        <ele>66.47</ele>
        <time>2014-12-06T13:30:20Z</time>
      </trkpt>
      <trkpt lat="44.48876" lon="0.96221">
        <ele>65.03</ele>
        <time>2014-12-06T13:30:30Z</time>
      </trkpt>
      <trkpt lat="44.48883" lon="0.96224">
        <ele>64.55</ele>
        <time>2014-12-06T13:30:32Z</time>
      </trkpt>
      <trkpt lat="44.48904" lon="0.96245">
        <ele>61.66</ele>
        <time>2014-12-06T13:30:38Z</time>
      </trkpt>
      <trkpt lat="44.48921" lon="0.9626">
        <ele>61.66</ele>
        <time>2014-12-06T13:30:43Z</time>
      </trkpt>
      <trkpt lat="44.48943" lon="0.96292">
        <ele>61.18</ele>
        <time>2014-12-06T13:30:51Z</time>
      </trkpt>
      <trkpt lat="44.48947" lon="0.96292">
        <ele>60.7</ele>
        <time>2014-12-06T13:30:52Z</time>
      </trkpt>
      <trkpt lat="44.48975" lon="0.96312">
        <ele>59.74</ele>
        <time>2014-12-06T13:30:59Z</time>
      </trkpt>
      <trkpt lat="44.48971" lon="0.9634">
        <ele>60.7</ele>
        <time>2014-12-06T13:31:05Z</time>
      </trkpt>
      <trkpt lat="44.48965" lon="0.9635">
        <ele>61.66</ele>
        <time>2014-12-06T13:31:07Z</time>
      </trkpt>
      <trkpt lat="44.48958" lon="0.96359">
        <ele>62.14</ele>
        <time>2014-12-06T13:31:09Z</time>
      </trkpt>
      <trkpt lat="44.48955" lon="0.96363">
        <ele>62.14</ele>
        <time>2014-12-06T13:31:10Z</time>
      </trkpt>
      <trkpt lat="44.48951" lon="0.96366">
        <ele>62.62</ele>
        <time>2014-12-06T13:31:11Z</time>
      </trkpt>
      <trkpt lat="44.48943" lon="0.96374">
        <ele>62.62</ele>
        <time>2014-12-06T13:31:13Z</time>
      </trkpt>
      <trkpt lat="44.48921" lon="0.96402">
        <ele>63.58</ele>
        <time>2014-12-06T13:31:19Z</time>
      </trkpt>
      <trkpt lat="44.48918" lon="0.96406">
        <ele>63.58</ele>
        <time>2014-12-06T13:31:20Z</time>
      </trkpt>
      <trkpt lat="44.48894" lon="0.96444">
        <ele>66.47</ele>
        <time>2014-12-06T13:31:32Z</time>
      </trkpt>
      <trkpt lat="44.48895" lon="0.96444">
        <ele>67.43</ele>
        <time>2014-12-06T13:31:46Z</time>
      </trkpt>
      <trkpt lat="44.48895" lon="0.96451">
        <ele>67.43</ele>
        <time>2014-12-06T13:31:50Z</time>
      </trkpt>
      <trkpt lat="44.48896" lon="0.96453">
        <ele>67.43</ele>
        <time>2014-12-06T13:31:51Z</time>
      </trkpt>
      <trkpt lat="44.48916" lon="0.96493">
        <ele>69.35</ele>
        <time>2014-12-06T13:32:03Z</time>
      </trkpt>
      <trkpt lat="44.48949" lon="0.96545">
        <ele>70.31</ele>
        <time>2014-12-06T13:32:17Z</time>
      </trkpt>
      <trkpt lat="44.4898" lon="0.96597">
        <ele>70.79</ele>
        <time>2014-12-06T13:32:28Z</time>
      </trkpt>
      <trkpt lat="44.48982" lon="0.96602">
        <ele>70.79</ele>
        <time>2014-12-06T13:32:29Z</time>
      </trkpt>
      <trkpt lat="44.49004" lon="0.96647">
        <ele>70.79</ele>
        <time>2014-12-06T13:32:37Z</time>
      </trkpt>
      <trkpt lat="44.49006" lon="0.96653">
        <ele>70.79</ele>
        <time>2014-12-06T13:32:38Z</time>
      </trkpt>
      <trkpt lat="44.49013" lon="0.9667">
        <ele>70.79</ele>
        <time>2014-12-06T13:32:41Z</time>
      </trkpt>
      <trkpt lat="44.49018" lon="0.96689">
        <ele>70.31</ele>
        <time>2014-12-06T13:32:44Z</time>
      </trkpt>
      <trkpt lat="44.49034" lon="0.96753">
        <ele>70.31</ele>
        <time>2014-12-06T13:32:57Z</time>
      </trkpt>
      <trkpt lat="44.49034" lon="0.96754">
        <ele>69.83</ele>
        <time>2014-12-06T13:33:08Z</time>
      </trkpt>
      <trkpt lat="44.49036" lon="0.96775">
        <ele>69.83</ele>
        <time>2014-12-06T13:33:14Z</time>
      </trkpt>
      <trkpt lat="44.49039" lon="0.96779">
        <ele>69.83</ele>
        <time>2014-12-06T13:33:15Z</time>
      </trkpt>
      <trkpt lat="44.49043" lon="0.96782">
        <ele>69.35</ele>
        <time>2014-12-06T13:33:16Z</time>
      </trkpt>
      <trkpt lat="44.49048" lon="0.96783">
        <ele>69.35</ele>
        <time>2014-12-06T13:33:17Z</time>
      </trkpt>
      <trkpt lat="44.49052" lon="0.96781">
        <ele>69.35</ele>
        <time>2014-12-06T13:33:18Z</time>
      </trkpt>
      <trkpt lat="44.49055" lon="0.96777">
        <ele>68.87</ele>
        <time>2014-12-06T13:33:19Z</time>
      </trkpt>
      <trkpt lat="44.49057" lon="0.9677">
        <ele>68.87</ele>
        <time>2014-12-06T13:33:20Z</time>
      </trkpt>
      <trkpt lat="44.49058" lon="0.96763">
        <ele>68.39</ele>
        <time>2014-12-06T13:33:21Z</time>
      </trkpt>
      <trkpt lat="44.49058" lon="0.96755">
        <ele>67.91</ele>
        <time>2014-12-06T13:33:22Z</time>
      </trkpt>
      <trkpt lat="44.49057" lon="0.96747">
        <ele>67.91</ele>
        <time>2014-12-06T13:33:23Z</time>
      </trkpt>
      <trkpt lat="44.49057" lon="0.96739">
        <ele>67.43</ele>
        <time>2014-12-06T13:33:24Z</time>
      </trkpt>
      <trkpt lat="44.49062" lon="0.96725">
        <ele>66.95</ele>
        <time>2014-12-06T13:33:26Z</time>
      </trkpt>
      <trkpt lat="44.49124" lon="0.96632">
        <ele>64.55</ele>
        <time>2014-12-06T13:33:41Z</time>
      </trkpt>
      <trkpt lat="44.49212" lon="0.96526">
        <ele>64.07</ele>
        <time>2014-12-06T13:33:59Z</time>
      </trkpt>
      <trkpt lat="44.49293" lon="0.96429">
        <ele>68.39</ele>
        <time>2014-12-06T13:34:18Z</time>
      </trkpt>
      <trkpt lat="44.49337" lon="0.96377">
        <ele>70.79</ele>
        <time>2014-12-06T13:34:32Z</time>
      </trkpt>
      <trkpt lat="44.49352" lon="0.96367">
        <ele>71.76</ele>
        <time>2014-12-06T13:34:37Z</time>
      </trkpt>
      <trkpt lat="44.49356" lon="0.96367">
        <ele>71.76</ele>
        <time>2014-12-06T13:34:38Z</time>
      </trkpt>
      <trkpt lat="44.49361" lon="0.96367">
        <ele>71.76</ele>
        <time>2014-12-06T13:34:39Z</time>
      </trkpt>
      <trkpt lat="44.49365" lon="0.9637">
        <ele>71.76</ele>
        <time>2014-12-06T13:34:40Z</time>
      </trkpt>
      <trkpt lat="44.4937" lon="0.96374">
        <ele>71.27</ele>
        <time>2014-12-06T13:34:41Z</time>
      </trkpt>
      <trkpt lat="44.49374" lon="0.96379">
        <ele>70.79</ele>
        <time>2014-12-06T13:34:42Z</time>
      </trkpt>
      <trkpt lat="44.49378" lon="0.96385">
        <ele>70.79</ele>
        <time>2014-12-06T13:34:43Z</time>
      </trkpt>
      <trkpt lat="44.49407" lon="0.96429">
        <ele>68.39</ele>
        <time>2014-12-06T13:34:49Z</time>
      </trkpt>
      <trkpt lat="44.4941" lon="0.96437">
        <ele>68.39</ele>
        <time>2014-12-06T13:34:50Z</time>
      </trkpt>
      <trkpt lat="44.49411" lon="0.96445">
        <ele>68.39</ele>
        <time>2014-12-06T13:34:51Z</time>
      </trkpt>
      <trkpt lat="44.49409" lon="0.96452">
        <ele>68.39</ele>
        <time>2014-12-06T13:34:52Z</time>
      </trkpt>
      <trkpt lat="44.49406" lon="0.96457">
        <ele>68.39</ele>
        <time>2014-12-06T13:34:53Z</time>
      </trkpt>
      <trkpt lat="44.49403" lon="0.96461">
        <ele>68.39</ele>
        <time>2014-12-06T13:34:54Z</time>
      </trkpt>
      <trkpt lat="44.494" lon="0.96466">
        <ele>67.91</ele>
        <time>2014-12-06T13:34:55Z</time>
      </trkpt>
      <trkpt lat="44.49398" lon="0.96471">
        <ele>67.91</ele>
        <time>2014-12-06T13:34:56Z</time>
      </trkpt>
      <trkpt lat="44.49399" lon="0.96477">
        <ele>67.91</ele>
        <time>2014-12-06T13:34:57Z</time>
      </trkpt>
      <trkpt lat="44.49401" lon="0.96483">
        <ele>67.43</ele>
        <time>2014-12-06T13:34:58Z</time>
      </trkpt>
      <trkpt lat="44.49404" lon="0.96489">
        <ele>67.43</ele>
        <time>2014-12-06T13:34:59Z</time>
      </trkpt>
      <trkpt lat="44.49446" lon="0.96583">
        <ele>66.95</ele>
        <time>2014-12-06T13:35:14Z</time>
      </trkpt>
      <trkpt lat="44.49466" lon="0.9663">
        <ele>66.95</ele>
        <time>2014-12-06T13:35:21Z</time>
      </trkpt>
      <trkpt lat="44.49477" lon="0.96655">
        <ele>66.95</ele>
        <time>2014-12-06T13:35:25Z</time>
      </trkpt>
      <trkpt lat="44.49482" lon="0.96667">
        <ele>66.95</ele>
        <time>2014-12-06T13:35:27Z</time>
      </trkpt>
      <trkpt lat="44.49491" lon="0.96686">
        <ele>66.95</ele>
        <time>2014-12-06T13:35:31Z</time>
      </trkpt>
      <trkpt lat="44.49499" lon="0.96682">
        <ele>67.43</ele>
        <time>2014-12-06T13:35:35Z</time>
      </trkpt>
      <trkpt lat="44.49499" lon="0.96679">
        <ele>67.91</ele>
        <time>2014-12-06T13:35:36Z</time>
      </trkpt>
      <trkpt lat="44.495" lon="0.96675">
        <ele>67.91</ele>
        <time>2014-12-06T13:35:37Z</time>
      </trkpt>
      <trkpt lat="44.49501" lon="0.96672">
        <ele>68.39</ele>
        <time>2014-12-06T13:35:38Z</time>
      </trkpt>
      <trkpt lat="44.49505" lon="0.9667">
        <ele>69.83</ele>
        <time>2014-12-06T13:35:41Z</time>
      </trkpt>
      <trkpt lat="44.49522" lon="0.96702">
        <ele>71.27</ele>
        <time>2014-12-06T13:35:53Z</time>
      </trkpt>
      <trkpt lat="44.49539" lon="0.96745">
        <ele>72.72</ele>
        <time>2014-12-06T13:36:03Z</time>
      </trkpt>
      <trkpt lat="44.49543" lon="0.96756">
        <ele>73.2</ele>
        <time>2014-12-06T13:36:05Z</time>
      </trkpt>
      <trkpt lat="44.49552" lon="0.96776">
        <ele>72.72</ele>
        <time>2014-12-06T13:36:09Z</time>
      </trkpt>
      <trkpt lat="44.49576" lon="0.96837">
        <ele>74.64</ele>
        <time>2014-12-06T13:36:22Z</time>
      </trkpt>
      <trkpt lat="44.49601" lon="0.96902">
        <ele>78.48</ele>
        <time>2014-12-06T13:36:36Z</time>
      </trkpt>
      <trkpt lat="44.49625" lon="0.96949">
        <ele>80.41</ele>
        <time>2014-12-06T13:36:49Z</time>
      </trkpt>
      <trkpt lat="44.49636" lon="0.96994">
        <ele>82.81</ele>
        <time>2014-12-06T13:37:02Z</time>
      </trkpt>
      <trkpt lat="44.49652" lon="0.97041">
        <ele>83.77</ele>
        <time>2014-12-06T13:37:13Z</time>
      </trkpt>
      <trkpt lat="44.49668" lon="0.97086">
        <ele>86.66</ele>
        <time>2014-12-06T13:37:25Z</time>
      </trkpt>
      <trkpt lat="44.49675" lon="0.97118">
        <ele>87.14</ele>
        <time>2014-12-06T13:37:33Z</time>
      </trkpt>
      <trkpt lat="44.49679" lon="0.97136">
        <ele>86.18</ele>
        <time>2014-12-06T13:37:36Z</time>
      </trkpt>
      <trkpt lat="44.49682" lon="0.97149">
        <ele>85.69</ele>
        <time>2014-12-06T13:37:38Z</time>
      </trkpt>
      <trkpt lat="44.49698" lon="0.97161">
        <ele>83.29</ele>
        <time>2014-12-06T13:37:43Z</time>
      </trkpt>
      <trkpt lat="44.49731" lon="0.97156">
        <ele>81.85</ele>
        <time>2014-12-06T13:37:54Z</time>
      </trkpt>
      <trkpt lat="44.49756" lon="0.97147">
        <ele>82.81</ele>
        <time>2014-12-06T13:38:07Z</time>
      </trkpt>
      <trkpt lat="44.49779" lon="0.97142">
        <ele>81.37</ele>
        <time>2014-12-06T13:38:19Z</time>
      </trkpt>
      <trkpt lat="44.4978" lon="0.97141">
        <ele>81.37</ele>
        <time>2014-12-06T13:38:20Z</time>
      </trkpt>
      <trkpt lat="44.49797" lon="0.97141">
        <ele>85.69</ele>
        <time>2014-12-06T13:38:33Z</time>
      </trkpt>
      <trkpt lat="44.49788" lon="0.97127">
        <ele>94.35</ele>
        <time>2014-12-06T13:38:46Z</time>
      </trkpt>
      <trkpt lat="44.49788" lon="0.97129">
        <ele>98.19</ele>
        <time>2014-12-06T13:39:10Z</time>
      </trkpt>
      <trkpt lat="44.49788" lon="0.97134">
        <ele>102.04</ele>
        <time>2014-12-06T13:39:36Z</time>
      </trkpt>
      <trkpt lat="44.49788" lon="0.97135">
        <ele>105.88</ele>
        <time>2014-12-06T13:39:55Z</time>
      </trkpt>
      <trkpt lat="44.49787" lon="0.97132">
        <ele>106.36</ele>
        <time>2014-12-06T13:40:14Z</time>
      </trkpt>
      <trkpt lat="44.49787" lon="0.97129">
        <ele>106.36</ele>
        <time>2014-12-06T13:40:34Z</time>
      </trkpt>
      <trkpt lat="44.49786" lon="0.97126">
        <ele>106.36</ele>
        <time>2014-12-06T13:41:03Z</time>
      </trkpt>
      <trkpt lat="44.49787" lon="0.97125">
        <ele>106.36</ele>
        <time>2014-12-06T13:41:21Z</time>
      </trkpt>
      <trkpt lat="44.49787" lon="0.97123">
        <ele>105.4</ele>
        <time>2014-12-06T13:41:47Z</time>
      </trkpt>
      <trkpt lat="44.49787" lon="0.97123">
        <ele>105.88</ele>
        <time>2014-12-06T13:42:06Z</time>
      </trkpt>
      <trkpt lat="44.49787" lon="0.97121">
        <ele>106.36</ele>
        <time>2014-12-06T13:42:37Z</time>
      </trkpt>
      <trkpt lat="44.49776" lon="0.97121">
        <ele>106.84</ele>
        <time>2014-12-06T13:42:49Z</time>
      </trkpt>
      <trkpt lat="44.49763" lon="0.97121">
        <ele>110.21</ele>
        <time>2014-12-06T13:42:54Z</time>
      </trkpt>
      <trkpt lat="44.49717" lon="0.97125">
        <ele>117.42</ele>
        <time>2014-12-06T13:43:09Z</time>
      </trkpt>
      <trkpt lat="44.49689" lon="0.97106">
        <ele>118.38</ele>
        <time>2014-12-06T13:43:19Z</time>
      </trkpt>
      <trkpt lat="44.49671" lon="0.97057">
        <ele>118.38</ele>
        <time>2014-12-06T13:43:31Z</time>
      </trkpt>
      <trkpt lat="44.4969" lon="0.97031">
        <ele>114.53</ele>
        <time>2014-12-06T13:43:39Z</time>
      </trkpt>
      <trkpt lat="44.49694" lon="0.9703">
        <ele>114.05</ele>
        <time>2014-12-06T13:43:40Z</time>
      </trkpt>
      <trkpt lat="44.49727" lon="0.97021">
        <ele>111.65</ele>
        <time>2014-12-06T13:43:51Z</time>
      </trkpt>
      <trkpt lat="44.49729" lon="0.97023">
        <ele>112.13</ele>
        <time>2014-12-06T13:43:52Z</time>
      </trkpt>
      <trkpt lat="44.49731" lon="0.97024">
        <ele>112.13</ele>
        <time>2014-12-06T13:43:53Z</time>
      </trkpt>
      <trkpt lat="44.49738" lon="0.97031">
        <ele>113.09</ele>
        <time>2014-12-06T13:43:58Z</time>
      </trkpt>
      <trkpt lat="44.4974" lon="0.97031">
        <ele>113.57</ele>
        <time>2014-12-06T13:43:59Z</time>
      </trkpt>
      <trkpt lat="44.49742" lon="0.9703">
        <ele>113.57</ele>
        <time>2014-12-06T13:44:00Z</time>
      </trkpt>
      <trkpt lat="44.49744" lon="0.97029">
        <ele>114.05</ele>
        <time>2014-12-06T13:44:01Z</time>
      </trkpt>
      <trkpt lat="44.49746" lon="0.97028">
        <ele>114.05</ele>
        <time>2014-12-06T13:44:02Z</time>
      </trkpt>
      <trkpt lat="44.49748" lon="0.97028">
        <ele>114.53</ele>
        <time>2014-12-06T13:44:03Z</time>
      </trkpt>
      <trkpt lat="44.4975" lon="0.97028">
        <ele>114.53</ele>
        <time>2014-12-06T13:44:04Z</time>
      </trkpt>
      <trkpt lat="44.49792" lon="0.97019">
        <ele>112.61</ele>
        <time>2014-12-06T13:44:17Z</time>
      </trkpt>
      <trkpt lat="44.49793" lon="0.97017">
        <ele>112.61</ele>
        <time>2014-12-06T13:44:18Z</time>
      </trkpt>
      <trkpt lat="44.49793" lon="0.97013">
        <ele>112.61</ele>
        <time>2014-12-06T13:44:19Z</time>
      </trkpt>
      <trkpt lat="44.49791" lon="0.9701">
        <ele>112.61</ele>
        <time>2014-12-06T13:44:20Z</time>
      </trkpt>
      <trkpt lat="44.4979" lon="0.97006">
        <ele>112.61</ele>
        <time>2014-12-06T13:44:21Z</time>
      </trkpt>
      <trkpt lat="44.4979" lon="0.97003">
        <ele>112.61</ele>
        <time>2014-12-06T13:44:22Z</time>
      </trkpt>
      <trkpt lat="44.49791" lon="0.96999">
        <ele>112.13</ele>
        <time>2014-12-06T13:44:23Z</time>
      </trkpt>
      <trkpt lat="44.49793" lon="0.96995">
        <ele>111.65</ele>
        <time>2014-12-06T13:44:24Z</time>
      </trkpt>
      <trkpt lat="44.49812" lon="0.96973">
        <ele>111.17</ele>
        <time>2014-12-06T13:44:30Z</time>
      </trkpt>
      <trkpt lat="44.49817" lon="0.96968">
        <ele>110.69</ele>
        <time>2014-12-06T13:44:32Z</time>
      </trkpt>
      <trkpt lat="44.49822" lon="0.9697">
        <ele>110.69</ele>
        <time>2014-12-06T13:44:34Z</time>
      </trkpt>
      <trkpt lat="44.49824" lon="0.96972">
        <ele>111.17</ele>
        <time>2014-12-06T13:44:35Z</time>
      </trkpt>
      <trkpt lat="44.49827" lon="0.96972">
        <ele>111.17</ele>
        <time>2014-12-06T13:44:36Z</time>
      </trkpt>
      <trkpt lat="44.49829" lon="0.9697">
        <ele>111.17</ele>
        <time>2014-12-06T13:44:37Z</time>
      </trkpt>
      <trkpt lat="44.49831" lon="0.96968">
        <ele>111.17</ele>
        <time>2014-12-06T13:44:38Z</time>
      </trkpt>
      <trkpt lat="44.49834" lon="0.96965">
        <ele>111.17</ele>
        <time>2014-12-06T13:44:50Z</time>
      </trkpt>
      <trkpt lat="44.49854" lon="0.96944">
        <ele>110.69</ele>
        <time>2014-12-06T13:45:00Z</time>
      </trkpt>
      <trkpt lat="44.49858" lon="0.96941">
        <ele>111.17</ele>
        <time>2014-12-06T13:45:02Z</time>
      </trkpt>
      <trkpt lat="44.49861" lon="0.96941">
        <ele>111.17</ele>
        <time>2014-12-06T13:45:03Z</time>
      </trkpt>
      <trkpt lat="44.49864" lon="0.96943">
        <ele>111.17</ele>
        <time>2014-12-06T13:45:04Z</time>
      </trkpt>
      <trkpt lat="44.49866" lon="0.96945">
        <ele>111.17</ele>
        <time>2014-12-06T13:45:05Z</time>
      </trkpt>
      <trkpt lat="44.49868" lon="0.96948">
        <ele>111.17</ele>
        <time>2014-12-06T13:45:06Z</time>
      </trkpt>
      <trkpt lat="44.4987" lon="0.96951">
        <ele>111.17</ele>
        <time>2014-12-06T13:45:07Z</time>
      </trkpt>
      <trkpt lat="44.49873" lon="0.96954">
        <ele>111.17</ele>
        <time>2014-12-06T13:45:08Z</time>
      </trkpt>
      <trkpt lat="44.49875" lon="0.96957">
        <ele>111.17</ele>
        <time>2014-12-06T13:45:09Z</time>
      </trkpt>
      <trkpt lat="44.49886" lon="0.96968">
        <ele>110.69</ele>
        <time>2014-12-06T13:45:13Z</time>
      </trkpt>
      <trkpt lat="44.49889" lon="0.96968">
        <ele>110.69</ele>
        <time>2014-12-06T13:45:14Z</time>
      </trkpt>
      <trkpt lat="44.49891" lon="0.96966">
        <ele>110.69</ele>
        <time>2014-12-06T13:45:15Z</time>
      </trkpt>
      <trkpt lat="44.49893" lon="0.96963">
        <ele>110.69</ele>
        <time>2014-12-06T13:45:16Z</time>
      </trkpt>
      <trkpt lat="44.49895" lon="0.96959">
        <ele>111.17</ele>
        <time>2014-12-06T13:45:17Z</time>
      </trkpt>
      <trkpt lat="44.49897" lon="0.96956">
        <ele>111.17</ele>
        <time>2014-12-06T13:45:18Z</time>
      </trkpt>
      <trkpt lat="44.49915" lon="0.96917">
        <ele>115.5</ele>
        <time>2014-12-06T13:45:31Z</time>
      </trkpt>
      <trkpt lat="44.49917" lon="0.96917">
        <ele>115.5</ele>
        <time>2014-12-06T13:45:32Z</time>
      </trkpt>
      <trkpt lat="44.49919" lon="0.96918">
        <ele>115.98</ele>
        <time>2014-12-06T13:45:33Z</time>
      </trkpt>
      <trkpt lat="44.4992" lon="0.96919">
        <ele>116.46</ele>
        <time>2014-12-06T13:45:34Z</time>
      </trkpt>
      <trkpt lat="44.49922" lon="0.96921">
        <ele>116.94</ele>
        <time>2014-12-06T13:45:35Z</time>
      </trkpt>
      <trkpt lat="44.49941" lon="0.96937">
        <ele>120.78</ele>
        <time>2014-12-06T13:45:49Z</time>
      </trkpt>
      <trkpt lat="44.49965" lon="0.96948">
        <ele>122.22</ele>
        <time>2014-12-06T13:46:04Z</time>
      </trkpt>
      <trkpt lat="44.49976" lon="0.96951">
        <ele>123.67</ele>
        <time>2014-12-06T13:46:11Z</time>
      </trkpt>
      <trkpt lat="44.49977" lon="0.96951">
        <ele>124.15</ele>
        <time>2014-12-06T13:46:12Z</time>
      </trkpt>
      <trkpt lat="44.49979" lon="0.96951">
        <ele>124.15</ele>
        <time>2014-12-06T13:46:13Z</time>
      </trkpt>
      <trkpt lat="44.49995" lon="0.96951">
        <ele>128.95</ele>
        <time>2014-12-06T13:46:26Z</time>
      </trkpt>
      <trkpt lat="44.49996" lon="0.96954">
        <ele>129.43</ele>
        <time>2014-12-06T13:46:28Z</time>
      </trkpt>
      <trkpt lat="44.49996" lon="0.96956">
        <ele>129.92</ele>
        <time>2014-12-06T13:46:29Z</time>
      </trkpt>
      <trkpt lat="44.49996" lon="0.96958">
        <ele>130.4</ele>
        <time>2014-12-06T13:46:30Z</time>
      </trkpt>
      <trkpt lat="44.49996" lon="0.96959">
        <ele>130.4</ele>
        <time>2014-12-06T13:46:31Z</time>
      </trkpt>
      <trkpt lat="44.49996" lon="0.96961">
        <ele>131.36</ele>
        <time>2014-12-06T13:46:32Z</time>
      </trkpt>
      <trkpt lat="44.49996" lon="0.96975">
        <ele>133.76</ele>
        <time>2014-12-06T13:46:39Z</time>
      </trkpt>
      <trkpt lat="44.49996" lon="0.96976">
        <ele>133.76</ele>
        <time>2014-12-06T13:46:40Z</time>
      </trkpt>
      <trkpt lat="44.49996" lon="0.97001">
        <ele>139.05</ele>
        <time>2014-12-06T13:46:54Z</time>
      </trkpt>
      <trkpt lat="44.50007" lon="0.97026">
        <ele>141.45</ele>
        <time>2014-12-06T13:47:09Z</time>
      </trkpt>
      <trkpt lat="44.50018" lon="0.97039">
        <ele>141.45</ele>
        <time>2014-12-06T13:47:18Z</time>
      </trkpt>
      <trkpt lat="44.50018" lon="0.97041">
        <ele>141.45</ele>
        <time>2014-12-06T13:47:19Z</time>
      </trkpt>
      <trkpt lat="44.50019" lon="0.97043">
        <ele>141.45</ele>
        <time>2014-12-06T13:47:20Z</time>
      </trkpt>
      <trkpt lat="44.5002" lon="0.97044">
        <ele>141.45</ele>
        <time>2014-12-06T13:47:21Z</time>
      </trkpt>
      <trkpt lat="44.50021" lon="0.97045">
        <ele>141.45</ele>
        <time>2014-12-06T13:47:22Z</time>
      </trkpt>
      <trkpt lat="44.50022" lon="0.97045">
        <ele>141.45</ele>
        <time>2014-12-06T13:47:23Z</time>
      </trkpt>
      <trkpt lat="44.50023" lon="0.97045">
        <ele>140.97</ele>
        <time>2014-12-06T13:47:24Z</time>
      </trkpt>
      <trkpt lat="44.50024" lon="0.97046">
        <ele>140.97</ele>
        <time>2014-12-06T13:47:25Z</time>
      </trkpt>
      <trkpt lat="44.50026" lon="0.97047">
        <ele>140.97</ele>
        <time>2014-12-06T13:47:26Z</time>
      </trkpt>
      <trkpt lat="44.50027" lon="0.97048">
        <ele>140.97</ele>
        <time>2014-12-06T13:47:27Z</time>
      </trkpt>
      <trkpt lat="44.50028" lon="0.97049">
        <ele>140.97</ele>
        <time>2014-12-06T13:47:28Z</time>
      </trkpt>
      <trkpt lat="44.50037" lon="0.97058">
        <ele>140.97</ele>
        <time>2014-12-06T13:47:37Z</time>
      </trkpt>
      <trkpt lat="44.50046" lon="0.9707">
        <ele>141.93</ele>
        <time>2014-12-06T13:47:55Z</time>
      </trkpt>
      <trkpt lat="44.50046" lon="0.97069">
        <ele>141.93</ele>
        <time>2014-12-06T13:48:16Z</time>
      </trkpt>
      <trkpt lat="44.50047" lon="0.97068">
        <ele>142.89</ele>
        <time>2014-12-06T13:48:39Z</time>
      </trkpt>
      <trkpt lat="44.50047" lon="0.97068">
        <ele>142.89</ele>
        <time>2014-12-06T13:48:57Z</time>
      </trkpt>
      <trkpt lat="44.50048" lon="0.97068">
        <ele>142.89</ele>
        <time>2014-12-06T13:48:58Z</time>
      </trkpt>
      <trkpt lat="44.5005" lon="0.97068">
        <ele>142.41</ele>
        <time>2014-12-06T13:48:59Z</time>
      </trkpt>
      <trkpt lat="44.50051" lon="0.97068">
        <ele>142.41</ele>
        <time>2014-12-06T13:49:00Z</time>
      </trkpt>
      <trkpt lat="44.50053" lon="0.97069">
        <ele>142.41</ele>
        <time>2014-12-06T13:49:01Z</time>
      </trkpt>
      <trkpt lat="44.50054" lon="0.9707">
        <ele>141.93</ele>
        <time>2014-12-06T13:49:02Z</time>
      </trkpt>
      <trkpt lat="44.50056" lon="0.97071">
        <ele>141.93</ele>
        <time>2014-12-06T13:49:03Z</time>
      </trkpt>
      <trkpt lat="44.50057" lon="0.97072">
        <ele>141.93</ele>
        <time>2014-12-06T13:49:04Z</time>
      </trkpt>
      <trkpt lat="44.50059" lon="0.97072">
        <ele>141.45</ele>
        <time>2014-12-06T13:49:05Z</time>
      </trkpt>
      <trkpt lat="44.50061" lon="0.97073">
        <ele>141.93</ele>
        <time>2014-12-06T13:49:06Z</time>
      </trkpt>
      <trkpt lat="44.50063" lon="0.97073">
        <ele>141.93</ele>
        <time>2014-12-06T13:49:07Z</time>
      </trkpt>
      <trkpt lat="44.50065" lon="0.97074">
        <ele>141.93</ele>
        <time>2014-12-06T13:49:08Z</time>
      </trkpt>
      <trkpt lat="44.50092" lon="0.97079">
        <ele>144.34</ele>
        <time>2014-12-06T13:49:21Z</time>
      </trkpt>
      <trkpt lat="44.50113" lon="0.97084">
        <ele>143.37</ele>
        <time>2014-12-06T13:49:28Z</time>
      </trkpt>
      <trkpt lat="44.50182" lon="0.97104">
        <ele>138.09</ele>
        <time>2014-12-06T13:49:39Z</time>
      </trkpt>
      <trkpt lat="44.50246" lon="0.97119">
        <ele>133.76</ele>
        <time>2014-12-06T13:49:48Z</time>
      </trkpt>
      <trkpt lat="44.50266" lon="0.97126">
        <ele>133.28</ele>
        <time>2014-12-06T13:49:55Z</time>
      </trkpt>
      <trkpt lat="44.50268" lon="0.97128">
        <ele>133.28</ele>
        <time>2014-12-06T13:49:56Z</time>
      </trkpt>
      <trkpt lat="44.50299" lon="0.97129">
        <ele>131.36</ele>
        <time>2014-12-06T13:50:06Z</time>
      </trkpt>
      <trkpt lat="44.50358" lon="0.97125">
        <ele>132.8</ele>
        <time>2014-12-06T13:50:22Z</time>
      </trkpt>
      <trkpt lat="44.50388" lon="0.97126">
        <ele>133.28</ele>
        <time>2014-12-06T13:50:30Z</time>
      </trkpt>
      <trkpt lat="44.50426" lon="0.97124">
        <ele>130.88</ele>
        <time>2014-12-06T13:50:38Z</time>
      </trkpt>
      <trkpt lat="44.50462" lon="0.97126">
        <ele>131.36</ele>
        <time>2014-12-06T13:50:46Z</time>
      </trkpt>
      <trkpt lat="44.50499" lon="0.9712">
        <ele>131.36</ele>
        <time>2014-12-06T13:50:54Z</time>
      </trkpt>
      <trkpt lat="44.50504" lon="0.97121">
        <ele>131.36</ele>
        <time>2014-12-06T13:50:55Z</time>
      </trkpt>
      <trkpt lat="44.50569" lon="0.97137">
        <ele>131.36</ele>
        <time>2014-12-06T13:51:11Z</time>
      </trkpt>
      <trkpt lat="44.5062" lon="0.97169">
        <ele>133.76</ele>
        <time>2014-12-06T13:51:27Z</time>
      </trkpt>
      <trkpt lat="44.50658" lon="0.97192">
        <ele>136.16</ele>
        <time>2014-12-06T13:51:40Z</time>
      </trkpt>
      <trkpt lat="44.50683" lon="0.97197">
        <ele>138.09</ele>
        <time>2014-12-06T13:51:51Z</time>
      </trkpt>
      <trkpt lat="44.50685" lon="0.97196">
        <ele>138.09</ele>
        <time>2014-12-06T13:52:02Z</time>
      </trkpt>
      <trkpt lat="44.50686" lon="0.97196">
        <ele>139.05</ele>
        <time>2014-12-06T13:52:22Z</time>
      </trkpt>
      <trkpt lat="44.50686" lon="0.97196">
        <ele>138.57</ele>
        <time>2014-12-06T13:52:39Z</time>
      </trkpt>
      <trkpt lat="44.50687" lon="0.97196">
        <ele>138.09</ele>
        <time>2014-12-06T13:52:54Z</time>
      </trkpt>
      <trkpt lat="44.50687" lon="0.97195">
        <ele>138.09</ele>
        <time>2014-12-06T13:53:12Z</time>
      </trkpt>
      <trkpt lat="44.50688" lon="0.97196">
        <ele>139.05</ele>
        <time>2014-12-06T13:53:33Z</time>
      </trkpt>
      <trkpt lat="44.50688" lon="0.97195">
        <ele>139.53</ele>
        <time>2014-12-06T13:53:57Z</time>
      </trkpt>
      <trkpt lat="44.50689" lon="0.97196">
        <ele>140.01</ele>
        <time>2014-12-06T13:54:15Z</time>
      </trkpt>
      <trkpt lat="44.50688" lon="0.97196">
        <ele>139.53</ele>
        <time>2014-12-06T13:54:36Z</time>
      </trkpt>
      <trkpt lat="44.50688" lon="0.97195">
        <ele>139.53</ele>
        <time>2014-12-06T13:55:03Z</time>
      </trkpt>
      <trkpt lat="44.50688" lon="0.97194">
        <ele>139.53</ele>
        <time>2014-12-06T13:55:27Z</time>
      </trkpt>
      <trkpt lat="44.5069" lon="0.97195">
        <ele>139.53</ele>
        <time>2014-12-06T13:55:32Z</time>
      </trkpt>
      <trkpt lat="44.50692" lon="0.97196">
        <ele>139.53</ele>
        <time>2014-12-06T13:55:33Z</time>
      </trkpt>
      <trkpt lat="44.50699" lon="0.97201">
        <ele>140.01</ele>
        <time>2014-12-06T13:55:35Z</time>
      </trkpt>
      <trkpt lat="44.50703" lon="0.97204">
        <ele>140.01</ele>
        <time>2014-12-06T13:55:36Z</time>
      </trkpt>
      <trkpt lat="44.50707" lon="0.97207">
        <ele>140.01</ele>
        <time>2014-12-06T13:55:37Z</time>
      </trkpt>
      <trkpt lat="44.50711" lon="0.97209">
        <ele>140.49</ele>
        <time>2014-12-06T13:55:38Z</time>
      </trkpt>
      <trkpt lat="44.50715" lon="0.97211">
        <ele>140.49</ele>
        <time>2014-12-06T13:55:39Z</time>
      </trkpt>
      <trkpt lat="44.50719" lon="0.97212">
        <ele>140.49</ele>
        <time>2014-12-06T13:55:40Z</time>
      </trkpt>
      <trkpt lat="44.50731" lon="0.97216">
        <ele>140.97</ele>
        <time>2014-12-06T13:55:43Z</time>
      </trkpt>
      <trkpt lat="44.50774" lon="0.97224">
        <ele>141.93</ele>
        <time>2014-12-06T13:55:53Z</time>
      </trkpt>
      <trkpt lat="44.50787" lon="0.97227">
        <ele>141.93</ele>
        <time>2014-12-06T13:55:56Z</time>
      </trkpt>
      <trkpt lat="44.50808" lon="0.97237">
        <ele>142.89</ele>
        <time>2014-12-06T13:56:01Z</time>
      </trkpt>
      <trkpt lat="44.50811" lon="0.97239">
        <ele>142.89</ele>
        <time>2014-12-06T13:56:02Z</time>
      </trkpt>
      <trkpt lat="44.5083" lon="0.97245">
        <ele>143.37</ele>
        <time>2014-12-06T13:56:07Z</time>
      </trkpt>
      <trkpt lat="44.50834" lon="0.97243">
        <ele>143.85</ele>
        <time>2014-12-06T13:56:08Z</time>
      </trkpt>
      <trkpt lat="44.50837" lon="0.9724">
        <ele>143.85</ele>
        <time>2014-12-06T13:56:09Z</time>
      </trkpt>
      <trkpt lat="44.5084" lon="0.97236">
        <ele>144.34</ele>
        <time>2014-12-06T13:56:10Z</time>
      </trkpt>
      <trkpt lat="44.50843" lon="0.97232">
        <ele>144.34</ele>
        <time>2014-12-06T13:56:11Z</time>
      </trkpt>
      <trkpt lat="44.5088" lon="0.97187">
        <ele>145.78</ele>
        <time>2014-12-06T13:56:25Z</time>
      </trkpt>
      <trkpt lat="44.50914" lon="0.97148">
        <ele>146.74</ele>
        <time>2014-12-06T13:56:38Z</time>
      </trkpt>
      <trkpt lat="44.50918" lon="0.97144">
        <ele>146.74</ele>
        <time>2014-12-06T13:56:39Z</time>
      </trkpt>
      <trkpt lat="44.50922" lon="0.9714">
        <ele>146.26</ele>
        <time>2014-12-06T13:56:40Z</time>
      </trkpt>
      <trkpt lat="44.50996" lon="0.97081">
        <ele>140.01</ele>
        <time>2014-12-06T13:56:53Z</time>
      </trkpt>
      <trkpt lat="44.51074" lon="0.9704">
        <ele>131.84</ele>
        <time>2014-12-06T13:57:04Z</time>
      </trkpt>
      <trkpt lat="44.51081" lon="0.97036">
        <ele>130.88</ele>
        <time>2014-12-06T13:57:05Z</time>
      </trkpt>
      <trkpt lat="44.51089" lon="0.9703">
        <ele>129.92</ele>
        <time>2014-12-06T13:57:06Z</time>
      </trkpt>
      <trkpt lat="44.51095" lon="0.97023">
        <ele>128.95</ele>
        <time>2014-12-06T13:57:07Z</time>
      </trkpt>
      <trkpt lat="44.51102" lon="0.97016">
        <ele>128.47</ele>
        <time>2014-12-06T13:57:08Z</time>
      </trkpt>
      <trkpt lat="44.51108" lon="0.97008">
        <ele>127.99</ele>
        <time>2014-12-06T13:57:09Z</time>
      </trkpt>
      <trkpt lat="44.51153" lon="0.9695">
        <ele>123.67</ele>
        <time>2014-12-06T13:57:16Z</time>
      </trkpt>
      <trkpt lat="44.51157" lon="0.96943">
        <ele>123.67</ele>
        <time>2014-12-06T13:57:17Z</time>
      </trkpt>
      <trkpt lat="44.51159" lon="0.96933">
        <ele>123.19</ele>
        <time>2014-12-06T13:57:18Z</time>
      </trkpt>
      <trkpt lat="44.51159" lon="0.96923">
        <ele>122.71</ele>
        <time>2014-12-06T13:57:19Z</time>
      </trkpt>
      <trkpt lat="44.51157" lon="0.96914">
        <ele>122.71</ele>
        <time>2014-12-06T13:57:20Z</time>
      </trkpt>
      <trkpt lat="44.51155" lon="0.96905">
        <ele>122.71</ele>
        <time>2014-12-06T13:57:21Z</time>
      </trkpt>
      <trkpt lat="44.51151" lon="0.96879">
        <ele>122.71</ele>
        <time>2014-12-06T13:57:24Z</time>
      </trkpt>
      <trkpt lat="44.5115" lon="0.96871">
        <ele>122.71</ele>
        <time>2014-12-06T13:57:25Z</time>
      </trkpt>
      <trkpt lat="44.5115" lon="0.96864">
        <ele>122.71</ele>
        <time>2014-12-06T13:57:26Z</time>
      </trkpt>
      <trkpt lat="44.51151" lon="0.96856">
        <ele>122.71</ele>
        <time>2014-12-06T13:57:27Z</time>
      </trkpt>
      <trkpt lat="44.51153" lon="0.9685">
        <ele>122.71</ele>
        <time>2014-12-06T13:57:28Z</time>
      </trkpt>
      <trkpt lat="44.51156" lon="0.96843">
        <ele>122.22</ele>
        <time>2014-12-06T13:57:29Z</time>
      </trkpt>
      <trkpt lat="44.51159" lon="0.96837">
        <ele>122.22</ele>
        <time>2014-12-06T13:57:30Z</time>
      </trkpt>
      <trkpt lat="44.51162" lon="0.96832">
        <ele>122.22</ele>
        <time>2014-12-06T13:57:31Z</time>
      </trkpt>
      <trkpt lat="44.51165" lon="0.96826">
        <ele>122.22</ele>
        <time>2014-12-06T13:57:32Z</time>
      </trkpt>
      <trkpt lat="44.51202" lon="0.96767">
        <ele>119.82</ele>
        <time>2014-12-06T13:57:44Z</time>
      </trkpt>
      <trkpt lat="44.51213" lon="0.96744">
        <ele>119.34</ele>
        <time>2014-12-06T13:57:48Z</time>
      </trkpt>
      <trkpt lat="44.5125" lon="0.96658">
        <ele>115.98</ele>
        <time>2014-12-06T13:58:02Z</time>
      </trkpt>
      <trkpt lat="44.51272" lon="0.96617">
        <ele>114.05</ele>
        <time>2014-12-06T13:58:10Z</time>
      </trkpt>
      <trkpt lat="44.51299" lon="0.9657">
        <ele>110.69</ele>
        <time>2014-12-06T13:58:18Z</time>
      </trkpt>
      <trkpt lat="44.51362" lon="0.96467">
        <ele>107.81</ele>
        <time>2014-12-06T13:58:33Z</time>
      </trkpt>
      <trkpt lat="44.51416" lon="0.96385">
        <ele>106.84</ele>
        <time>2014-12-06T13:58:46Z</time>
      </trkpt>
      <trkpt lat="44.51458" lon="0.96318">
        <ele>102.52</ele>
        <time>2014-12-06T13:58:56Z</time>
      </trkpt>
      <trkpt lat="44.51473" lon="0.96293">
        <ele>101.56</ele>
        <time>2014-12-06T13:58:59Z</time>
      </trkpt>
      <trkpt lat="44.51506" lon="0.96254">
        <ele>100.6</ele>
        <time>2014-12-06T13:59:06Z</time>
      </trkpt>
      <trkpt lat="44.51529" lon="0.96222">
        <ele>99.63</ele>
        <time>2014-12-06T13:59:11Z</time>
      </trkpt>
      <trkpt lat="44.51537" lon="0.96201">
        <ele>98.67</ele>
        <time>2014-12-06T13:59:14Z</time>
      </trkpt>
      <trkpt lat="44.51541" lon="0.96169">
        <ele>99.15</ele>
        <time>2014-12-06T13:59:18Z</time>
      </trkpt>
      <trkpt lat="44.5154" lon="0.96148">
        <ele>100.11</ele>
        <time>2014-12-06T13:59:21Z</time>
      </trkpt>
      <trkpt lat="44.51526" lon="0.96093">
        <ele>105.88</ele>
        <time>2014-12-06T13:59:33Z</time>
      </trkpt>
      <trkpt lat="44.51519" lon="0.96042">
        <ele>107.81</ele>
        <time>2014-12-06T13:59:43Z</time>
      </trkpt>
      <trkpt lat="44.51522" lon="0.96019">
        <ele>107.32</ele>
        <time>2014-12-06T13:59:47Z</time>
      </trkpt>
      <trkpt lat="44.51538" lon="0.95985">
        <ele>106.84</ele>
        <time>2014-12-06T13:59:53Z</time>
      </trkpt>
      <trkpt lat="44.5156" lon="0.95968">
        <ele>104.92</ele>
        <time>2014-12-06T13:59:57Z</time>
      </trkpt>
      <trkpt lat="44.51582" lon="0.95956">
        <ele>103.48</ele>
        <time>2014-12-06T14:00:01Z</time>
      </trkpt>
      <trkpt lat="44.51615" lon="0.95934">
        <ele>101.08</ele>
        <time>2014-12-06T14:00:07Z</time>
      </trkpt>
      <trkpt lat="44.51625" lon="0.95926">
        <ele>100.6</ele>
        <time>2014-12-06T14:00:09Z</time>
      </trkpt>
      <trkpt lat="44.51635" lon="0.95916">
        <ele>100.11</ele>
        <time>2014-12-06T14:00:11Z</time>
      </trkpt>
      <trkpt lat="44.51643" lon="0.95904">
        <ele>99.63</ele>
        <time>2014-12-06T14:00:13Z</time>
      </trkpt>
      <trkpt lat="44.51649" lon="0.95859">
        <ele>100.6</ele>
        <time>2014-12-06T14:00:20Z</time>
      </trkpt>
      <trkpt lat="44.51647" lon="0.95846">
        <ele>100.6</ele>
        <time>2014-12-06T14:00:22Z</time>
      </trkpt>
      <trkpt lat="44.51644" lon="0.95825">
        <ele>100.6</ele>
        <time>2014-12-06T14:00:25Z</time>
      </trkpt>
      <trkpt lat="44.51639" lon="0.95799">
        <ele>101.56</ele>
        <time>2014-12-06T14:00:29Z</time>
      </trkpt>
      <trkpt lat="44.51631" lon="0.95768">
        <ele>102.52</ele>
        <time>2014-12-06T14:00:36Z</time>
      </trkpt>
      <trkpt lat="44.51631" lon="0.95756">
        <ele>101.56</ele>
        <time>2014-12-06T14:00:53Z</time>
      </trkpt>
      <trkpt lat="44.51633" lon="0.9575">
        <ele>101.56</ele>
        <time>2014-12-06T14:01:13Z</time>
      </trkpt>
      <trkpt lat="44.51656" lon="0.95707">
        <ele>102.52</ele>
        <time>2014-12-06T14:01:25Z</time>
      </trkpt>
      <trkpt lat="44.5166" lon="0.95697">
        <ele>102.52</ele>
        <time>2014-12-06T14:01:27Z</time>
      </trkpt>
      <trkpt lat="44.51662" lon="0.95691">
        <ele>102.52</ele>
        <time>2014-12-06T14:01:28Z</time>
      </trkpt>
      <trkpt lat="44.51664" lon="0.95686">
        <ele>102.04</ele>
        <time>2014-12-06T14:01:29Z</time>
      </trkpt>
      <trkpt lat="44.51666" lon="0.9568">
        <ele>102.04</ele>
        <time>2014-12-06T14:01:30Z</time>
      </trkpt>
      <trkpt lat="44.51667" lon="0.95674">
        <ele>102.04</ele>
        <time>2014-12-06T14:01:31Z</time>
      </trkpt>
      <trkpt lat="44.51676" lon="0.95643">
        <ele>101.56</ele>
        <time>2014-12-06T14:01:36Z</time>
      </trkpt>
      <trkpt lat="44.51678" lon="0.95637">
        <ele>101.56</ele>
        <time>2014-12-06T14:01:37Z</time>
      </trkpt>
      <trkpt lat="44.51683" lon="0.95625">
        <ele>101.56</ele>
        <time>2014-12-06T14:01:39Z</time>
      </trkpt>
      <trkpt lat="44.51686" lon="0.9562">
        <ele>101.56</ele>
        <time>2014-12-06T14:01:40Z</time>
      </trkpt>
      <trkpt lat="44.51719" lon="0.95558">
        <ele>99.15</ele>
        <time>2014-12-06T14:01:53Z</time>
      </trkpt>
      <trkpt lat="44.51742" lon="0.9552">
        <ele>98.67</ele>
        <time>2014-12-06T14:02:04Z</time>
      </trkpt>
      <trkpt lat="44.51743" lon="0.9552">
        <ele>98.67</ele>
        <time>2014-12-06T14:02:05Z</time>
      </trkpt>
      <trkpt lat="44.51745" lon="0.95521">
        <ele>98.19</ele>
        <time>2014-12-06T14:02:06Z</time>
      </trkpt>
      <trkpt lat="44.51746" lon="0.95522">
        <ele>98.19</ele>
        <time>2014-12-06T14:02:07Z</time>
      </trkpt>
      <trkpt lat="44.51748" lon="0.95525">
        <ele>98.67</ele>
        <time>2014-12-06T14:02:08Z</time>
      </trkpt>
      <trkpt lat="44.51749" lon="0.95529">
        <ele>98.67</ele>
        <time>2014-12-06T14:02:09Z</time>
      </trkpt>
      <trkpt lat="44.51751" lon="0.95533">
        <ele>98.67</ele>
        <time>2014-12-06T14:02:10Z</time>
      </trkpt>
      <trkpt lat="44.51753" lon="0.95537">
        <ele>98.19</ele>
        <time>2014-12-06T14:02:11Z</time>
      </trkpt>
      <trkpt lat="44.51756" lon="0.95542">
        <ele>98.19</ele>
        <time>2014-12-06T14:02:12Z</time>
      </trkpt>
      <trkpt lat="44.51758" lon="0.95547">
        <ele>98.19</ele>
        <time>2014-12-06T14:02:13Z</time>
      </trkpt>
      <trkpt lat="44.5176" lon="0.95554">
        <ele>97.71</ele>
        <time>2014-12-06T14:02:14Z</time>
      </trkpt>
      <trkpt lat="44.51763" lon="0.9556">
        <ele>97.71</ele>
        <time>2014-12-06T14:02:15Z</time>
      </trkpt>
      <trkpt lat="44.51808" lon="0.9566">
        <ele>91.94</ele>
        <time>2014-12-06T14:02:26Z</time>
      </trkpt>
      <trkpt lat="44.51841" lon="0.95711">
        <ele>89.06</ele>
        <time>2014-12-06T14:02:32Z</time>
      </trkpt>
      <trkpt lat="44.51847" lon="0.95717">
        <ele>88.58</ele>
        <time>2014-12-06T14:02:33Z</time>
      </trkpt>
      <trkpt lat="44.51853" lon="0.95722">
        <ele>88.58</ele>
        <time>2014-12-06T14:02:34Z</time>
      </trkpt>
      <trkpt lat="44.51866" lon="0.9573">
        <ele>88.1</ele>
        <time>2014-12-06T14:02:36Z</time>
      </trkpt>
      <trkpt lat="44.51909" lon="0.95743">
        <ele>88.58</ele>
        <time>2014-12-06T14:02:46Z</time>
      </trkpt>
      <trkpt lat="44.51912" lon="0.95742">
        <ele>89.06</ele>
        <time>2014-12-06T14:02:47Z</time>
      </trkpt>
      <trkpt lat="44.51915" lon="0.9574">
        <ele>89.06</ele>
        <time>2014-12-06T14:02:48Z</time>
      </trkpt>
      <trkpt lat="44.51917" lon="0.95737">
        <ele>89.06</ele>
        <time>2014-12-06T14:02:49Z</time>
      </trkpt>
      <trkpt lat="44.51918" lon="0.95733">
        <ele>88.58</ele>
        <time>2014-12-06T14:02:50Z</time>
      </trkpt>
      <trkpt lat="44.5192" lon="0.95729">
        <ele>88.58</ele>
        <time>2014-12-06T14:02:51Z</time>
      </trkpt>
      <trkpt lat="44.51921" lon="0.95725">
        <ele>88.58</ele>
        <time>2014-12-06T14:02:52Z</time>
      </trkpt>
      <trkpt lat="44.51936" lon="0.95698">
        <ele>89.06</ele>
        <time>2014-12-06T14:02:58Z</time>
      </trkpt>
      <trkpt lat="44.5194" lon="0.95695">
        <ele>89.06</ele>
        <time>2014-12-06T14:02:59Z</time>
      </trkpt>
      <trkpt lat="44.51943" lon="0.95693">
        <ele>89.06</ele>
        <time>2014-12-06T14:03:00Z</time>
      </trkpt>
      <trkpt lat="44.5198" lon="0.95686">
        <ele>89.06</ele>
        <time>2014-12-06T14:03:11Z</time>
      </trkpt>
      <trkpt lat="44.51997" lon="0.95668">
        <ele>89.54</ele>
        <time>2014-12-06T14:03:17Z</time>
      </trkpt>
      <trkpt lat="44.52" lon="0.95668">
        <ele>89.54</ele>
        <time>2014-12-06T14:03:18Z</time>
      </trkpt>
      <trkpt lat="44.52001" lon="0.9567">
        <ele>89.54</ele>
        <time>2014-12-06T14:03:19Z</time>
      </trkpt>
      <trkpt lat="44.52001" lon="0.95673">
        <ele>90.02</ele>
        <time>2014-12-06T14:03:20Z</time>
      </trkpt>
      <trkpt lat="44.52001" lon="0.95676">
        <ele>90.02</ele>
        <time>2014-12-06T14:03:21Z</time>
      </trkpt>
      <trkpt lat="44.52002" lon="0.9568">
        <ele>90.02</ele>
        <time>2014-12-06T14:03:22Z</time>
      </trkpt>
      <trkpt lat="44.52017" lon="0.95742">
        <ele>90.02</ele>
        <time>2014-12-06T14:03:35Z</time>
      </trkpt>
      <trkpt lat="44.52036" lon="0.95809">
        <ele>93.39</ele>
        <time>2014-12-06T14:03:49Z</time>
      </trkpt>
      <trkpt lat="44.52065" lon="0.95863">
        <ele>95.31</ele>
        <time>2014-12-06T14:04:01Z</time>
      </trkpt>
      <trkpt lat="44.52102" lon="0.9592">
        <ele>98.19</ele>
        <time>2014-12-06T14:04:17Z</time>
      </trkpt>
      <trkpt lat="44.52133" lon="0.9596">
        <ele>99.63</ele>
        <time>2014-12-06T14:04:29Z</time>
      </trkpt>
      <trkpt lat="44.52182" lon="0.96007">
        <ele>100.11</ele>
        <time>2014-12-06T14:04:45Z</time>
      </trkpt>
      <trkpt lat="44.5222" lon="0.96034">
        <ele>103</ele>
        <time>2014-12-06T14:04:57Z</time>
      </trkpt>
      <trkpt lat="44.52256" lon="0.96047">
        <ele>105.4</ele>
        <time>2014-12-06T14:05:09Z</time>
      </trkpt>
      <trkpt lat="44.52302" lon="0.96066">
        <ele>105.4</ele>
        <time>2014-12-06T14:05:22Z</time>
      </trkpt>
      <trkpt lat="44.52344" lon="0.96114">
        <ele>108.29</ele>
        <time>2014-12-06T14:05:37Z</time>
      </trkpt>
      <trkpt lat="44.52353" lon="0.96178">
        <ele>109.25</ele>
        <time>2014-12-06T14:05:50Z</time>
      </trkpt>
      <trkpt lat="44.52354" lon="0.96231">
        <ele>108.77</ele>
        <time>2014-12-06T14:06:01Z</time>
      </trkpt>
      <trkpt lat="44.52382" lon="0.96276">
        <ele>108.29</ele>
        <time>2014-12-06T14:06:15Z</time>
      </trkpt>
      <trkpt lat="44.52396" lon="0.96322">
        <ele>109.73</ele>
        <time>2014-12-06T14:06:27Z</time>
      </trkpt>
      <trkpt lat="44.52414" lon="0.96378">
        <ele>110.69</ele>
        <time>2014-12-06T14:06:39Z</time>
      </trkpt>
      <trkpt lat="44.5243" lon="0.96464">
        <ele>112.61</ele>
        <time>2014-12-06T14:06:55Z</time>
      </trkpt>
      <trkpt lat="44.52446" lon="0.96542">
        <ele>115.98</ele>
        <time>2014-12-06T14:07:10Z</time>
      </trkpt>
      <trkpt lat="44.52469" lon="0.96609">
        <ele>119.82</ele>
        <time>2014-12-06T14:07:25Z</time>
      </trkpt>
      <trkpt lat="44.52493" lon="0.9667">
        <ele>124.63</ele>
        <time>2014-12-06T14:07:40Z</time>
      </trkpt>
      <trkpt lat="44.52513" lon="0.96723">
        <ele>127.51</ele>
        <time>2014-12-06T14:07:52Z</time>
      </trkpt>
      <trkpt lat="44.52523" lon="0.96768">
        <ele>127.99</ele>
        <time>2014-12-06T14:08:02Z</time>
      </trkpt>
      <trkpt lat="44.52529" lon="0.96799">
        <ele>125.11</ele>
        <time>2014-12-06T14:08:11Z</time>
      </trkpt>
      <trkpt lat="44.52532" lon="0.96802">
        <ele>126.55</ele>
        <time>2014-12-06T14:08:21Z</time>
      </trkpt>
      <trkpt lat="44.52532" lon="0.96802">
        <ele>128.95</ele>
        <time>2014-12-06T14:08:48Z</time>
      </trkpt>
      <trkpt lat="44.52532" lon="0.96802">
        <ele>127.99</ele>
        <time>2014-12-06T14:09:05Z</time>
      </trkpt>
      <trkpt lat="44.52533" lon="0.96803">
        <ele>127.99</ele>
        <time>2014-12-06T14:09:16Z</time>
      </trkpt>
      <trkpt lat="44.52538" lon="0.96804">
        <ele>128.47</ele>
        <time>2014-12-06T14:09:20Z</time>
      </trkpt>
      <trkpt lat="44.52538" lon="0.96804">
        <ele>128.47</ele>
        <time>2014-12-06T14:09:21Z</time>
      </trkpt>
      <trkpt lat="44.52539" lon="0.96803">
        <ele>128.47</ele>
        <time>2014-12-06T14:09:22Z</time>
      </trkpt>
      <trkpt lat="44.5254" lon="0.96802">
        <ele>128.47</ele>
        <time>2014-12-06T14:09:23Z</time>
      </trkpt>
      <trkpt lat="44.52542" lon="0.96802">
        <ele>129.43</ele>
        <time>2014-12-06T14:09:25Z</time>
      </trkpt>
      <trkpt lat="44.52543" lon="0.96801">
        <ele>129.43</ele>
        <time>2014-12-06T14:09:26Z</time>
      </trkpt>
      <trkpt lat="44.5256" lon="0.96788">
        <ele>132.8</ele>
        <time>2014-12-06T14:09:40Z</time>
      </trkpt>
      <trkpt lat="44.52562" lon="0.96786">
        <ele>133.28</ele>
        <time>2014-12-06T14:09:42Z</time>
      </trkpt>
      <trkpt lat="44.52572" lon="0.96771">
        <ele>137.13</ele>
        <time>2014-12-06T14:09:55Z</time>
      </trkpt>
      <trkpt lat="44.52582" lon="0.96758">
        <ele>141.93</ele>
        <time>2014-12-06T14:10:07Z</time>
      </trkpt>
      <trkpt lat="44.52599" lon="0.96745">
        <ele>147.7</ele>
        <time>2014-12-06T14:10:19Z</time>
      </trkpt>
      <trkpt lat="44.52612" lon="0.96727">
        <ele>153.47</ele>
        <time>2014-12-06T14:10:31Z</time>
      </trkpt>
      <trkpt lat="44.52613" lon="0.96725">
        <ele>153.95</ele>
        <time>2014-12-06T14:10:32Z</time>
      </trkpt>
      <trkpt lat="44.52625" lon="0.96709">
        <ele>159.24</ele>
        <time>2014-12-06T14:10:44Z</time>
      </trkpt>
      <trkpt lat="44.5264" lon="0.96691">
        <ele>160.2</ele>
        <time>2014-12-06T14:10:58Z</time>
      </trkpt>
      <trkpt lat="44.52656" lon="0.96673">
        <ele>162.6</ele>
        <time>2014-12-06T14:11:11Z</time>
      </trkpt>
      <trkpt lat="44.52674" lon="0.96657">
        <ele>165.96</ele>
        <time>2014-12-06T14:11:25Z</time>
      </trkpt>
      <trkpt lat="44.52681" lon="0.96653">
        <ele>167.41</ele>
        <time>2014-12-06T14:11:30Z</time>
      </trkpt>
      <trkpt lat="44.52685" lon="0.96648">
        <ele>167.89</ele>
        <time>2014-12-06T14:11:34Z</time>
      </trkpt>
      <trkpt lat="44.52697" lon="0.96637">
        <ele>170.29</ele>
        <time>2014-12-06T14:11:46Z</time>
      </trkpt>
      <trkpt lat="44.52703" lon="0.96631">
        <ele>169.81</ele>
        <time>2014-12-06T14:12:04Z</time>
      </trkpt>
      <trkpt lat="44.52707" lon="0.9663">
        <ele>169.81</ele>
        <time>2014-12-06T14:12:25Z</time>
      </trkpt>
      <trkpt lat="44.52708" lon="0.96629">
        <ele>169.81</ele>
        <time>2014-12-06T14:12:46Z</time>
      </trkpt>
      <trkpt lat="44.52707" lon="0.96629">
        <ele>169.81</ele>
        <time>2014-12-06T14:13:03Z</time>
      </trkpt>
      <trkpt lat="44.52707" lon="0.96627">
        <ele>168.37</ele>
        <time>2014-12-06T14:13:24Z</time>
      </trkpt>
      <trkpt lat="44.52707" lon="0.96626">
        <ele>168.37</ele>
        <time>2014-12-06T14:13:52Z</time>
      </trkpt>
      <trkpt lat="44.52705" lon="0.96629">
        <ele>168.37</ele>
        <time>2014-12-06T14:14:20Z</time>
      </trkpt>
      <trkpt lat="44.52706" lon="0.96629">
        <ele>166.93</ele>
        <time>2014-12-06T14:14:48Z</time>
      </trkpt>
      <trkpt lat="44.52706" lon="0.96629">
        <ele>167.41</ele>
        <time>2014-12-06T14:15:04Z</time>
      </trkpt>
      <trkpt lat="44.52707" lon="0.96628">
        <ele>166.93</ele>
        <time>2014-12-06T14:15:23Z</time>
      </trkpt>
      <trkpt lat="44.52707" lon="0.96628">
        <ele>167.41</ele>
        <time>2014-12-06T14:15:47Z</time>
      </trkpt>
      <trkpt lat="44.52708" lon="0.96627">
        <ele>167.89</ele>
        <time>2014-12-06T14:16:12Z</time>
      </trkpt>
      <trkpt lat="44.52709" lon="0.96626">
        <ele>168.37</ele>
        <time>2014-12-06T14:16:35Z</time>
      </trkpt>
      <trkpt lat="44.52709" lon="0.96627">
        <ele>168.85</ele>
        <time>2014-12-06T14:16:55Z</time>
      </trkpt>
      <trkpt lat="44.52709" lon="0.96627">
        <ele>168.37</ele>
        <time>2014-12-06T14:17:15Z</time>
      </trkpt>
      <trkpt lat="44.52708" lon="0.96627">
        <ele>169.33</ele>
        <time>2014-12-06T14:17:36Z</time>
      </trkpt>
      <trkpt lat="44.52707" lon="0.96626">
        <ele>169.33</ele>
        <time>2014-12-06T14:18:02Z</time>
      </trkpt>
      <trkpt lat="44.52707" lon="0.96627">
        <ele>170.29</ele>
        <time>2014-12-06T14:18:32Z</time>
      </trkpt>
      <trkpt lat="44.52708" lon="0.96627">
        <ele>169.33</ele>
        <time>2014-12-06T14:18:50Z</time>
      </trkpt>
      <trkpt lat="44.52708" lon="0.96627">
        <ele>168.85</ele>
        <time>2014-12-06T14:19:08Z</time>
      </trkpt>
      <trkpt lat="44.5271" lon="0.96624">
        <ele>168.85</ele>
        <time>2014-12-06T14:19:26Z</time>
      </trkpt>
      <trkpt lat="44.5271" lon="0.96622">
        <ele>168.85</ele>
        <time>2014-12-06T14:19:27Z</time>
      </trkpt>
      <trkpt lat="44.5271" lon="0.9662">
        <ele>168.85</ele>
        <time>2014-12-06T14:19:28Z</time>
      </trkpt>
      <trkpt lat="44.52711" lon="0.96618">
        <ele>168.85</ele>
        <time>2014-12-06T14:19:29Z</time>
      </trkpt>
      <trkpt lat="44.52706" lon="0.96577">
        <ele>169.81</ele>
        <time>2014-12-06T14:19:40Z</time>
      </trkpt>
      <trkpt lat="44.52703" lon="0.96516">
        <ele>168.37</ele>
        <time>2014-12-06T14:19:55Z</time>
      </trkpt>
      <trkpt lat="44.52705" lon="0.96468">
        <ele>165.96</ele>
        <time>2014-12-06T14:20:05Z</time>
      </trkpt>
      <trkpt lat="44.52709" lon="0.96456">
        <ele>165.48</ele>
        <time>2014-12-06T14:20:07Z</time>
      </trkpt>
      <trkpt lat="44.52718" lon="0.96432">
        <ele>164.04</ele>
        <time>2014-12-06T14:20:11Z</time>
      </trkpt>
      <trkpt lat="44.52727" lon="0.96415">
        <ele>163.08</ele>
        <time>2014-12-06T14:20:14Z</time>
      </trkpt>
      <trkpt lat="44.52794" lon="0.96317">
        <ele>160.68</ele>
        <time>2014-12-06T14:20:30Z</time>
      </trkpt>
      <trkpt lat="44.52858" lon="0.96218">
        <ele>156.35</ele>
        <time>2014-12-06T14:20:46Z</time>
      </trkpt>
      <trkpt lat="44.52917" lon="0.96108">
        <ele>148.66</ele>
        <time>2014-12-06T14:21:01Z</time>
      </trkpt>
      <trkpt lat="44.52939" lon="0.96005">
        <ele>141.93</ele>
        <time>2014-12-06T14:21:12Z</time>
      </trkpt>
      <trkpt lat="44.52941" lon="0.95994">
        <ele>141.45</ele>
        <time>2014-12-06T14:21:13Z</time>
      </trkpt>
      <trkpt lat="44.52945" lon="0.95983">
        <ele>141.45</ele>
        <time>2014-12-06T14:21:14Z</time>
      </trkpt>
      <trkpt lat="44.52949" lon="0.95972">
        <ele>140.97</ele>
        <time>2014-12-06T14:21:15Z</time>
      </trkpt>
      <trkpt lat="44.52954" lon="0.95962">
        <ele>140.49</ele>
        <time>2014-12-06T14:21:16Z</time>
      </trkpt>
      <trkpt lat="44.52959" lon="0.95952">
        <ele>140.01</ele>
        <time>2014-12-06T14:21:17Z</time>
      </trkpt>
      <trkpt lat="44.53006" lon="0.95878">
        <ele>134.72</ele>
        <time>2014-12-06T14:21:26Z</time>
      </trkpt>
      <trkpt lat="44.53012" lon="0.95871">
        <ele>134.24</ele>
        <time>2014-12-06T14:21:27Z</time>
      </trkpt>
      <trkpt lat="44.53019" lon="0.95866">
        <ele>133.28</ele>
        <time>2014-12-06T14:21:28Z</time>
      </trkpt>
      <trkpt lat="44.53027" lon="0.95862">
        <ele>132.8</ele>
        <time>2014-12-06T14:21:29Z</time>
      </trkpt>
      <trkpt lat="44.53035" lon="0.9586">
        <ele>132.32</ele>
        <time>2014-12-06T14:21:30Z</time>
      </trkpt>
      <trkpt lat="44.53043" lon="0.95857">
        <ele>131.36</ele>
        <time>2014-12-06T14:21:31Z</time>
      </trkpt>
      <trkpt lat="44.5307" lon="0.95848">
        <ele>129.92</ele>
        <time>2014-12-06T14:21:35Z</time>
      </trkpt>
      <trkpt lat="44.53072" lon="0.95846">
        <ele>129.43</ele>
        <time>2014-12-06T14:21:36Z</time>
      </trkpt>
      <trkpt lat="44.53074" lon="0.95841">
        <ele>129.43</ele>
        <time>2014-12-06T14:21:37Z</time>
      </trkpt>
      <trkpt lat="44.53073" lon="0.95838">
        <ele>129.92</ele>
        <time>2014-12-06T14:21:38Z</time>
      </trkpt>
      <trkpt lat="44.53071" lon="0.95835">
        <ele>129.92</ele>
        <time>2014-12-06T14:21:39Z</time>
      </trkpt>
      <trkpt lat="44.53069" lon="0.95834">
        <ele>130.4</ele>
        <time>2014-12-06T14:21:40Z</time>
      </trkpt>
      <trkpt lat="44.53067" lon="0.95832">
        <ele>130.88</ele>
        <time>2014-12-06T14:21:41Z</time>
      </trkpt>
      <trkpt lat="44.53065" lon="0.95831">
        <ele>131.36</ele>
        <time>2014-12-06T14:21:42Z</time>
      </trkpt>
      <trkpt lat="44.53063" lon="0.95829">
        <ele>131.84</ele>
        <time>2014-12-06T14:21:43Z</time>
      </trkpt>
      <trkpt lat="44.5306" lon="0.95825">
        <ele>132.32</ele>
        <time>2014-12-06T14:21:44Z</time>
      </trkpt>
      <trkpt lat="44.53057" lon="0.95821">
        <ele>132.32</ele>
        <time>2014-12-06T14:21:45Z</time>
      </trkpt>
      <trkpt lat="44.53053" lon="0.95818">
        <ele>132.32</ele>
        <time>2014-12-06T14:21:46Z</time>
      </trkpt>
      <trkpt lat="44.53049" lon="0.95814">
        <ele>132.32</ele>
        <time>2014-12-06T14:21:47Z</time>
      </trkpt>
      <trkpt lat="44.53044" lon="0.95809">
        <ele>132.32</ele>
        <time>2014-12-06T14:21:48Z</time>
      </trkpt>
      <trkpt lat="44.53" lon="0.95761">
        <ele>131.36</ele>
        <time>2014-12-06T14:21:56Z</time>
      </trkpt>
      <trkpt lat="44.52995" lon="0.95754">
        <ele>130.88</ele>
        <time>2014-12-06T14:21:57Z</time>
      </trkpt>
      <trkpt lat="44.52992" lon="0.95747">
        <ele>130.88</ele>
        <time>2014-12-06T14:21:58Z</time>
      </trkpt>
      <trkpt lat="44.52989" lon="0.95739">
        <ele>130.88</ele>
        <time>2014-12-06T14:21:59Z</time>
      </trkpt>
      <trkpt lat="44.52987" lon="0.95731">
        <ele>130.88</ele>
        <time>2014-12-06T14:22:00Z</time>
      </trkpt>
      <trkpt lat="44.52987" lon="0.95723">
        <ele>130.4</ele>
        <time>2014-12-06T14:22:01Z</time>
      </trkpt>
      <trkpt lat="44.52987" lon="0.95716">
        <ele>130.4</ele>
        <time>2014-12-06T14:22:02Z</time>
      </trkpt>
      <trkpt lat="44.52988" lon="0.95709">
        <ele>130.88</ele>
        <time>2014-12-06T14:22:03Z</time>
      </trkpt>
      <trkpt lat="44.52989" lon="0.95702">
        <ele>130.88</ele>
        <time>2014-12-06T14:22:04Z</time>
      </trkpt>
      <trkpt lat="44.5299" lon="0.95695">
        <ele>130.88</ele>
        <time>2014-12-06T14:22:05Z</time>
      </trkpt>
      <trkpt lat="44.52989" lon="0.95688">
        <ele>131.36</ele>
        <time>2014-12-06T14:22:06Z</time>
      </trkpt>
      <trkpt lat="44.52988" lon="0.95681">
        <ele>132.32</ele>
        <time>2014-12-06T14:22:07Z</time>
      </trkpt>
      <trkpt lat="44.52987" lon="0.95675">
        <ele>132.8</ele>
        <time>2014-12-06T14:22:08Z</time>
      </trkpt>
      <trkpt lat="44.52984" lon="0.95669">
        <ele>133.28</ele>
        <time>2014-12-06T14:22:09Z</time>
      </trkpt>
      <trkpt lat="44.52981" lon="0.95663">
        <ele>133.76</ele>
        <time>2014-12-06T14:22:10Z</time>
      </trkpt>
      <trkpt lat="44.52972" lon="0.95645">
        <ele>133.76</ele>
        <time>2014-12-06T14:22:13Z</time>
      </trkpt>
      <trkpt lat="44.5293" lon="0.95552">
        <ele>128.47</ele>
        <time>2014-12-06T14:22:24Z</time>
      </trkpt>
      <trkpt lat="44.52923" lon="0.95545">
        <ele>127.99</ele>
        <time>2014-12-06T14:22:25Z</time>
      </trkpt>
      <trkpt lat="44.52916" lon="0.95539">
        <ele>127.51</ele>
        <time>2014-12-06T14:22:26Z</time>
      </trkpt>
      <trkpt lat="44.52908" lon="0.95533">
        <ele>127.03</ele>
        <time>2014-12-06T14:22:27Z</time>
      </trkpt>
      <trkpt lat="44.529" lon="0.95528">
        <ele>126.55</ele>
        <time>2014-12-06T14:22:28Z</time>
      </trkpt>
      <trkpt lat="44.52821" lon="0.9547">
        <ele>125.11</ele>
        <time>2014-12-06T14:22:39Z</time>
      </trkpt>
      <trkpt lat="44.52786" lon="0.95436">
        <ele>125.11</ele>
        <time>2014-12-06T14:22:45Z</time>
      </trkpt>
      <trkpt lat="44.52781" lon="0.95433">
        <ele>125.11</ele>
        <time>2014-12-06T14:22:46Z</time>
      </trkpt>
      <trkpt lat="44.52775" lon="0.9543">
        <ele>125.59</ele>
        <time>2014-12-06T14:22:47Z</time>
      </trkpt>
      <trkpt lat="44.52709" lon="0.95405">
        <ele>123.19</ele>
        <time>2014-12-06T14:22:58Z</time>
      </trkpt>
      <trkpt lat="44.5266" lon="0.95393">
        <ele>116.94</ele>
        <time>2014-12-06T14:23:03Z</time>
      </trkpt>
      <trkpt lat="44.5265" lon="0.95393">
        <ele>115.5</ele>
        <time>2014-12-06T14:23:04Z</time>
      </trkpt>
      <trkpt lat="44.52621" lon="0.95394">
        <ele>112.61</ele>
        <time>2014-12-06T14:23:07Z</time>
      </trkpt>
      <trkpt lat="44.52611" lon="0.95392">
        <ele>111.65</ele>
        <time>2014-12-06T14:23:08Z</time>
      </trkpt>
      <trkpt lat="44.52602" lon="0.95388">
        <ele>110.69</ele>
        <time>2014-12-06T14:23:09Z</time>
      </trkpt>
      <trkpt lat="44.52567" lon="0.95367">
        <ele>107.32</ele>
        <time>2014-12-06T14:23:13Z</time>
      </trkpt>
      <trkpt lat="44.5256" lon="0.9536">
        <ele>106.36</ele>
        <time>2014-12-06T14:23:14Z</time>
      </trkpt>
      <trkpt lat="44.52553" lon="0.95352">
        <ele>105.88</ele>
        <time>2014-12-06T14:23:15Z</time>
      </trkpt>
      <trkpt lat="44.52546" lon="0.95343">
        <ele>104.92</ele>
        <time>2014-12-06T14:23:16Z</time>
      </trkpt>
      <trkpt lat="44.52541" lon="0.95334">
        <ele>103.96</ele>
        <time>2014-12-06T14:23:17Z</time>
      </trkpt>
      <trkpt lat="44.52525" lon="0.95305">
        <ele>102.52</ele>
        <time>2014-12-06T14:23:20Z</time>
      </trkpt>
      <trkpt lat="44.52519" lon="0.95297">
        <ele>102.04</ele>
        <time>2014-12-06T14:23:21Z</time>
      </trkpt>
      <trkpt lat="44.52512" lon="0.95289">
        <ele>101.56</ele>
        <time>2014-12-06T14:23:22Z</time>
      </trkpt>
      <trkpt lat="44.52456" lon="0.95201">
        <ele>95.79</ele>
        <time>2014-12-06T14:23:30Z</time>
      </trkpt>
      <trkpt lat="44.5244" lon="0.95165">
        <ele>92.42</ele>
        <time>2014-12-06T14:23:34Z</time>
      </trkpt>
      <trkpt lat="44.52437" lon="0.9516">
        <ele>91.94</ele>
        <time>2014-12-06T14:23:35Z</time>
      </trkpt>
      <trkpt lat="44.52434" lon="0.95157">
        <ele>91.46</ele>
        <time>2014-12-06T14:23:36Z</time>
      </trkpt>
      <trkpt lat="44.52431" lon="0.95156">
        <ele>91.46</ele>
        <time>2014-12-06T14:23:37Z</time>
      </trkpt>
      <trkpt lat="44.52428" lon="0.95156">
        <ele>90.98</ele>
        <time>2014-12-06T14:23:38Z</time>
      </trkpt>
      <trkpt lat="44.52397" lon="0.9515">
        <ele>91.94</ele>
        <time>2014-12-06T14:23:46Z</time>
      </trkpt>
      <trkpt lat="44.52359" lon="0.95146">
        <ele>97.23</ele>
        <time>2014-12-06T14:23:57Z</time>
      </trkpt>
      <trkpt lat="44.52335" lon="0.95141">
        <ele>97.71</ele>
        <time>2014-12-06T14:24:07Z</time>
      </trkpt>
      <trkpt lat="44.52334" lon="0.95143">
        <ele>97.71</ele>
        <time>2014-12-06T14:24:08Z</time>
      </trkpt>
      <trkpt lat="44.52338" lon="0.95146">
        <ele>98.67</ele>
        <time>2014-12-06T14:24:13Z</time>
      </trkpt>
      <trkpt lat="44.52345" lon="0.95146">
        <ele>98.67</ele>
        <time>2014-12-06T14:24:18Z</time>
      </trkpt>
      <trkpt lat="44.52368" lon="0.95151">
        <ele>100.6</ele>
        <time>2014-12-06T14:24:28Z</time>
      </trkpt>
      <trkpt lat="44.524" lon="0.95153">
        <ele>101.08</ele>
        <time>2014-12-06T14:24:38Z</time>
      </trkpt>
      <trkpt lat="44.52402" lon="0.95151">
        <ele>101.08</ele>
        <time>2014-12-06T14:24:39Z</time>
      </trkpt>
      <trkpt lat="44.52404" lon="0.95147">
        <ele>101.08</ele>
        <time>2014-12-06T14:24:40Z</time>
      </trkpt>
      <trkpt lat="44.52407" lon="0.95144">
        <ele>101.56</ele>
        <time>2014-12-06T14:24:41Z</time>
      </trkpt>
      <trkpt lat="44.52409" lon="0.9514">
        <ele>101.56</ele>
        <time>2014-12-06T14:24:42Z</time>
      </trkpt>
      <trkpt lat="44.52411" lon="0.95136">
        <ele>102.04</ele>
        <time>2014-12-06T14:24:43Z</time>
      </trkpt>
      <trkpt lat="44.52413" lon="0.95133">
        <ele>102.04</ele>
        <time>2014-12-06T14:24:44Z</time>
      </trkpt>
      <trkpt lat="44.52438" lon="0.95086">
        <ele>102.52</ele>
        <time>2014-12-06T14:24:56Z</time>
      </trkpt>
      <trkpt lat="44.52456" lon="0.9504">
        <ele>103.96</ele>
        <time>2014-12-06T14:25:07Z</time>
      </trkpt>
      <trkpt lat="44.52474" lon="0.95001">
        <ele>107.81</ele>
        <time>2014-12-06T14:25:17Z</time>
      </trkpt>
      <trkpt lat="44.525" lon="0.94953">
        <ele>111.65</ele>
        <time>2014-12-06T14:25:30Z</time>
      </trkpt>
      <trkpt lat="44.52527" lon="0.94903">
        <ele>110.69</ele>
        <time>2014-12-06T14:25:43Z</time>
      </trkpt>
      <trkpt lat="44.52531" lon="0.94882">
        <ele>109.73</ele>
        <time>2014-12-06T14:25:47Z</time>
      </trkpt>
      <trkpt lat="44.52543" lon="0.94867">
        <ele>108.29</ele>
        <time>2014-12-06T14:25:51Z</time>
      </trkpt>
      <trkpt lat="44.52589" lon="0.94868">
        <ele>110.21</ele>
        <time>2014-12-06T14:26:05Z</time>
      </trkpt>
      <trkpt lat="44.52636" lon="0.94868">
        <ele>112.61</ele>
        <time>2014-12-06T14:26:20Z</time>
      </trkpt>
      <trkpt lat="44.52663" lon="0.94865">
        <ele>113.09</ele>
        <time>2014-12-06T14:26:28Z</time>
      </trkpt>
      <trkpt lat="44.52696" lon="0.94851">
        <ele>111.17</ele>
        <time>2014-12-06T14:26:34Z</time>
      </trkpt>
      <trkpt lat="44.5273" lon="0.94863">
        <ele>109.73</ele>
        <time>2014-12-06T14:26:39Z</time>
      </trkpt>
      <trkpt lat="44.52765" lon="0.94892">
        <ele>108.29</ele>
        <time>2014-12-06T14:26:46Z</time>
      </trkpt>
      <trkpt lat="44.52811" lon="0.94927">
        <ele>104.44</ele>
        <time>2014-12-06T14:26:53Z</time>
      </trkpt>
      <trkpt lat="44.52843" lon="0.94939">
        <ele>102.04</ele>
        <time>2014-12-06T14:26:58Z</time>
      </trkpt>
      <trkpt lat="44.52871" lon="0.94903">
        <ele>98.19</ele>
        <time>2014-12-06T14:27:05Z</time>
      </trkpt>
      <trkpt lat="44.52898" lon="0.94848">
        <ele>94.35</ele>
        <time>2014-12-06T14:27:11Z</time>
      </trkpt>
      <trkpt lat="44.52913" lon="0.94826">
        <ele>91.46</ele>
        <time>2014-12-06T14:27:14Z</time>
      </trkpt>
      <trkpt lat="44.52921" lon="0.94823">
        <ele>90.5</ele>
        <time>2014-12-06T14:27:15Z</time>
      </trkpt>
      <trkpt lat="44.52928" lon="0.94822">
        <ele>90.02</ele>
        <time>2014-12-06T14:27:16Z</time>
      </trkpt>
      <trkpt lat="44.52936" lon="0.94822">
        <ele>89.54</ele>
        <time>2014-12-06T14:27:17Z</time>
      </trkpt>
      <trkpt lat="44.52944" lon="0.94823">
        <ele>89.06</ele>
        <time>2014-12-06T14:27:18Z</time>
      </trkpt>
      <trkpt lat="44.5304" lon="0.94838">
        <ele>85.21</ele>
        <time>2014-12-06T14:27:33Z</time>
      </trkpt>
      <trkpt lat="44.53087" lon="0.94849">
        <ele>83.77</ele>
        <time>2014-12-06T14:27:44Z</time>
      </trkpt>
      <trkpt lat="44.53097" lon="0.9485">
        <ele>83.29</ele>
        <time>2014-12-06T14:27:49Z</time>
      </trkpt>
      <trkpt lat="44.53098" lon="0.94849">
        <ele>82.81</ele>
        <time>2014-12-06T14:27:50Z</time>
      </trkpt>
      <trkpt lat="44.531" lon="0.94849">
        <ele>83.29</ele>
        <time>2014-12-06T14:27:59Z</time>
      </trkpt>
      <trkpt lat="44.53101" lon="0.94848">
        <ele>83.77</ele>
        <time>2014-12-06T14:28:15Z</time>
      </trkpt>
      <trkpt lat="44.53102" lon="0.94847">
        <ele>83.77</ele>
        <time>2014-12-06T14:28:38Z</time>
      </trkpt>
      <trkpt lat="44.53102" lon="0.94846">
        <ele>84.73</ele>
        <time>2014-12-06T14:29:05Z</time>
      </trkpt>
      <trkpt lat="44.53102" lon="0.94847">
        <ele>85.21</ele>
        <time>2014-12-06T14:29:32Z</time>
      </trkpt>
      <trkpt lat="44.53102" lon="0.94846">
        <ele>84.73</ele>
        <time>2014-12-06T14:30:06Z</time>
      </trkpt>
      <trkpt lat="44.53101" lon="0.94847">
        <ele>84.25</ele>
        <time>2014-12-06T14:30:35Z</time>
      </trkpt>
      <trkpt lat="44.53102" lon="0.94848">
        <ele>84.25</ele>
        <time>2014-12-06T14:30:59Z</time>
      </trkpt>
      <trkpt lat="44.53102" lon="0.94847">
        <ele>84.25</ele>
        <time>2014-12-06T14:31:17Z</time>
      </trkpt>
      <trkpt lat="44.53103" lon="0.94842">
        <ele>83.77</ele>
        <time>2014-12-06T14:31:31Z</time>
      </trkpt>
      <trkpt lat="44.53103" lon="0.94837">
        <ele>83.77</ele>
        <time>2014-12-06T14:31:33Z</time>
      </trkpt>
      <trkpt lat="44.53101" lon="0.94832">
        <ele>84.25</ele>
        <time>2014-12-06T14:31:35Z</time>
      </trkpt>
      <trkpt lat="44.531" lon="0.9483">
        <ele>84.25</ele>
        <time>2014-12-06T14:31:36Z</time>
      </trkpt>
      <trkpt lat="44.531" lon="0.94828">
        <ele>84.25</ele>
        <time>2014-12-06T14:31:37Z</time>
      </trkpt>
      <trkpt lat="44.5309" lon="0.94812">
        <ele>83.29</ele>
        <time>2014-12-06T14:31:44Z</time>
      </trkpt>
      <trkpt lat="44.53086" lon="0.9481">
        <ele>83.29</ele>
        <time>2014-12-06T14:31:45Z</time>
      </trkpt>
      <trkpt lat="44.53082" lon="0.94809">
        <ele>82.81</ele>
        <time>2014-12-06T14:31:46Z</time>
      </trkpt>
      <trkpt lat="44.53041" lon="0.94797">
        <ele>84.25</ele>
        <time>2014-12-06T14:31:58Z</time>
      </trkpt>
      <trkpt lat="44.52997" lon="0.94774">
        <ele>84.73</ele>
        <time>2014-12-06T14:32:10Z</time>
      </trkpt>
      <trkpt lat="44.52985" lon="0.94765">
        <ele>84.25</ele>
        <time>2014-12-06T14:32:13Z</time>
      </trkpt>
      <trkpt lat="44.52916" lon="0.94702">
        <ele>83.29</ele>
        <time>2014-12-06T14:32:29Z</time>
      </trkpt>
      <trkpt lat="44.52902" lon="0.94689">
        <ele>83.29</ele>
        <time>2014-12-06T14:32:32Z</time>
      </trkpt>
      <trkpt lat="44.52832" lon="0.94627">
        <ele>85.21</ele>
        <time>2014-12-06T14:32:48Z</time>
      </trkpt>
      <trkpt lat="44.52787" lon="0.9458">
        <ele>89.06</ele>
        <time>2014-12-06T14:33:03Z</time>
      </trkpt>
      <trkpt lat="44.52753" lon="0.9454">
        <ele>90.5</ele>
        <time>2014-12-06T14:33:15Z</time>
      </trkpt>
      <trkpt lat="44.52716" lon="0.9451">
        <ele>93.39</ele>
        <time>2014-12-06T14:33:28Z</time>
      </trkpt>
      <trkpt lat="44.52698" lon="0.94501">
        <ele>92.9</ele>
        <time>2014-12-06T14:33:33Z</time>
      </trkpt>
      <trkpt lat="44.52686" lon="0.94498">
        <ele>92.42</ele>
        <time>2014-12-06T14:33:36Z</time>
      </trkpt>
      <trkpt lat="44.52676" lon="0.94498">
        <ele>91.94</ele>
        <time>2014-12-06T14:33:38Z</time>
      </trkpt>
      <trkpt lat="44.52662" lon="0.94501">
        <ele>91.46</ele>
        <time>2014-12-06T14:33:41Z</time>
      </trkpt>
      <trkpt lat="44.52594" lon="0.94541">
        <ele>87.14</ele>
        <time>2014-12-06T14:33:55Z</time>
      </trkpt>
      <trkpt lat="44.52571" lon="0.94557">
        <ele>86.18</ele>
        <time>2014-12-06T14:34:04Z</time>
      </trkpt>
      <trkpt lat="44.5257" lon="0.94553">
        <ele>85.21</ele>
        <time>2014-12-06T14:34:13Z</time>
      </trkpt>
      <trkpt lat="44.52571" lon="0.9455">
        <ele>85.21</ele>
        <time>2014-12-06T14:34:14Z</time>
      </trkpt>
      <trkpt lat="44.52572" lon="0.94547">
        <ele>85.21</ele>
        <time>2014-12-06T14:34:15Z</time>
      </trkpt>
      <trkpt lat="44.52575" lon="0.94543">
        <ele>84.73</ele>
        <time>2014-12-06T14:34:16Z</time>
      </trkpt>
      <trkpt lat="44.52578" lon="0.9454">
        <ele>84.73</ele>
        <time>2014-12-06T14:34:17Z</time>
      </trkpt>
      <trkpt lat="44.5259" lon="0.94524">
        <ele>84.25</ele>
        <time>2014-12-06T14:34:21Z</time>
      </trkpt>
      <trkpt lat="44.52593" lon="0.94519">
        <ele>83.77</ele>
        <time>2014-12-06T14:34:22Z</time>
      </trkpt>
      <trkpt lat="44.52644" lon="0.94425">
        <ele>79.93</ele>
        <time>2014-12-06T14:34:38Z</time>
      </trkpt>
      <trkpt lat="44.52656" lon="0.94407">
        <ele>79.93</ele>
        <time>2014-12-06T14:34:41Z</time>
      </trkpt>
      <trkpt lat="44.52674" lon="0.94385">
        <ele>79.45</ele>
        <time>2014-12-06T14:34:45Z</time>
      </trkpt>
      <trkpt lat="44.52677" lon="0.94378">
        <ele>79.45</ele>
        <time>2014-12-06T14:34:46Z</time>
      </trkpt>
      <trkpt lat="44.52681" lon="0.9437">
        <ele>78.97</ele>
        <time>2014-12-06T14:34:47Z</time>
      </trkpt>
      <trkpt lat="44.52683" lon="0.94362">
        <ele>78.97</ele>
        <time>2014-12-06T14:34:48Z</time>
      </trkpt>
      <trkpt lat="44.52686" lon="0.94354">
        <ele>78.48</ele>
        <time>2014-12-06T14:34:49Z</time>
      </trkpt>
      <trkpt lat="44.52688" lon="0.94345">
        <ele>78.48</ele>
        <time>2014-12-06T14:34:50Z</time>
      </trkpt>
      <trkpt lat="44.52702" lon="0.94238">
        <ele>75.12</ele>
        <time>2014-12-06T14:35:03Z</time>
      </trkpt>
      <trkpt lat="44.52707" lon="0.94183">
        <ele>75.12</ele>
        <time>2014-12-06T14:35:10Z</time>
      </trkpt>
      <trkpt lat="44.52706" lon="0.94175">
        <ele>75.12</ele>
        <time>2014-12-06T14:35:11Z</time>
      </trkpt>
      <trkpt lat="44.52705" lon="0.94168">
        <ele>75.12</ele>
        <time>2014-12-06T14:35:12Z</time>
      </trkpt>
      <trkpt lat="44.52703" lon="0.94153">
        <ele>75.6</ele>
        <time>2014-12-06T14:35:14Z</time>
      </trkpt>
      <trkpt lat="44.52695" lon="0.94111">
        <ele>76.56</ele>
        <time>2014-12-06T14:35:20Z</time>
      </trkpt>
      <trkpt lat="44.52695" lon="0.94104">
        <ele>76.56</ele>
        <time>2014-12-06T14:35:21Z</time>
      </trkpt>
      <trkpt lat="44.52695" lon="0.94097">
        <ele>77.04</ele>
        <time>2014-12-06T14:35:22Z</time>
      </trkpt>
      <trkpt lat="44.52696" lon="0.9409">
        <ele>77.04</ele>
        <time>2014-12-06T14:35:23Z</time>
      </trkpt>
      <trkpt lat="44.52697" lon="0.94083">
        <ele>77.52</ele>
        <time>2014-12-06T14:35:24Z</time>
      </trkpt>
      <trkpt lat="44.52699" lon="0.94077">
        <ele>77.52</ele>
        <time>2014-12-06T14:35:25Z</time>
      </trkpt>
      <trkpt lat="44.52701" lon="0.94071">
        <ele>77.52</ele>
        <time>2014-12-06T14:35:26Z</time>
      </trkpt>
      <trkpt lat="44.52721" lon="0.94017">
        <ele>78.97</ele>
        <time>2014-12-06T14:35:35Z</time>
      </trkpt>
      <trkpt lat="44.52722" lon="0.94011">
        <ele>78.97</ele>
        <time>2014-12-06T14:35:36Z</time>
      </trkpt>
      <trkpt lat="44.52734" lon="0.93933">
        <ele>82.81</ele>
        <time>2014-12-06T14:35:51Z</time>
      </trkpt>
      <trkpt lat="44.52752" lon="0.93889">
        <ele>84.73</ele>
        <time>2014-12-06T14:36:02Z</time>
      </trkpt>
      <trkpt lat="44.52755" lon="0.93888">
        <ele>85.21</ele>
        <time>2014-12-06T14:36:03Z</time>
      </trkpt>
      <trkpt lat="44.52757" lon="0.93888">
        <ele>85.21</ele>
        <time>2014-12-06T14:36:04Z</time>
      </trkpt>
      <trkpt lat="44.5276" lon="0.93889">
        <ele>85.69</ele>
        <time>2014-12-06T14:36:05Z</time>
      </trkpt>
      <trkpt lat="44.52763" lon="0.9389">
        <ele>85.69</ele>
        <time>2014-12-06T14:36:06Z</time>
      </trkpt>
      <trkpt lat="44.52817" lon="0.9391">
        <ele>88.58</ele>
        <time>2014-12-06T14:36:22Z</time>
      </trkpt>
      <trkpt lat="44.52888" lon="0.93939">
        <ele>87.62</ele>
        <time>2014-12-06T14:36:41Z</time>
      </trkpt>
      <trkpt lat="44.52895" lon="0.93941">
        <ele>87.62</ele>
        <time>2014-12-06T14:36:44Z</time>
      </trkpt>
      <trkpt lat="44.52896" lon="0.93942">
        <ele>87.62</ele>
        <time>2014-12-06T14:36:45Z</time>
      </trkpt>
      <trkpt lat="44.52939" lon="0.9396">
        <ele>86.18</ele>
        <time>2014-12-06T14:36:59Z</time>
      </trkpt>
      <trkpt lat="44.5298" lon="0.93976">
        <ele>84.73</ele>
        <time>2014-12-06T14:37:12Z</time>
      </trkpt>
      <trkpt lat="44.53022" lon="0.94002">
        <ele>84.73</ele>
        <time>2014-12-06T14:37:24Z</time>
      </trkpt>
      <trkpt lat="44.53061" lon="0.94029">
        <ele>85.21</ele>
        <time>2014-12-06T14:37:38Z</time>
      </trkpt>
      <trkpt lat="44.53063" lon="0.94029">
        <ele>85.21</ele>
        <time>2014-12-06T14:37:40Z</time>
      </trkpt>
      <trkpt lat="44.53064" lon="0.94027">
        <ele>85.21</ele>
        <time>2014-12-06T14:37:41Z</time>
      </trkpt>
      <trkpt lat="44.53064" lon="0.94025">
        <ele>85.21</ele>
        <time>2014-12-06T14:37:42Z</time>
      </trkpt>
      <trkpt lat="44.53064" lon="0.94022">
        <ele>85.21</ele>
        <time>2014-12-06T14:37:43Z</time>
      </trkpt>
      <trkpt lat="44.53064" lon="0.9402">
        <ele>85.21</ele>
        <time>2014-12-06T14:37:44Z</time>
      </trkpt>
      <trkpt lat="44.53064" lon="0.94018">
        <ele>85.69</ele>
        <time>2014-12-06T14:37:45Z</time>
      </trkpt>
      <trkpt lat="44.53065" lon="0.94016">
        <ele>86.18</ele>
        <time>2014-12-06T14:37:46Z</time>
      </trkpt>
      <trkpt lat="44.53066" lon="0.94014">
        <ele>86.18</ele>
        <time>2014-12-06T14:37:47Z</time>
      </trkpt>
      <trkpt lat="44.53066" lon="0.94011">
        <ele>86.66</ele>
        <time>2014-12-06T14:37:48Z</time>
      </trkpt>
      <trkpt lat="44.53067" lon="0.94008">
        <ele>86.66</ele>
        <time>2014-12-06T14:37:49Z</time>
      </trkpt>
      <trkpt lat="44.53082" lon="0.93968">
        <ele>88.58</ele>
        <time>2014-12-06T14:38:01Z</time>
      </trkpt>
      <trkpt lat="44.53094" lon="0.93929">
        <ele>90.98</ele>
        <time>2014-12-06T14:38:13Z</time>
      </trkpt>
      <trkpt lat="44.53103" lon="0.939">
        <ele>90.98</ele>
        <time>2014-12-06T14:38:23Z</time>
      </trkpt>
      <trkpt lat="44.53111" lon="0.93852">
        <ele>93.39</ele>
        <time>2014-12-06T14:38:38Z</time>
      </trkpt>
      <trkpt lat="44.53111" lon="0.93849">
        <ele>93.87</ele>
        <time>2014-12-06T14:38:45Z</time>
      </trkpt>
      <trkpt lat="44.53116" lon="0.93825">
        <ele>96.75</ele>
        <time>2014-12-06T14:38:56Z</time>
      </trkpt>
      <trkpt lat="44.53123" lon="0.93791">
        <ele>100.6</ele>
        <time>2014-12-06T14:39:10Z</time>
      </trkpt>
      <trkpt lat="44.53127" lon="0.93742">
        <ele>99.63</ele>
        <time>2014-12-06T14:39:24Z</time>
      </trkpt>
      <trkpt lat="44.53134" lon="0.93699">
        <ele>100.11</ele>
        <time>2014-12-06T14:39:35Z</time>
      </trkpt>
      <trkpt lat="44.53152" lon="0.93669">
        <ele>103.96</ele>
        <time>2014-12-06T14:39:47Z</time>
      </trkpt>
      <trkpt lat="44.53173" lon="0.93636">
        <ele>110.21</ele>
        <time>2014-12-06T14:40:01Z</time>
      </trkpt>
      <trkpt lat="44.53191" lon="0.93601">
        <ele>112.61</ele>
        <time>2014-12-06T14:40:15Z</time>
      </trkpt>
      <trkpt lat="44.53213" lon="0.93582">
        <ele>117.42</ele>
        <time>2014-12-06T14:40:27Z</time>
      </trkpt>
      <trkpt lat="44.53247" lon="0.93577">
        <ele>120.3</ele>
        <time>2014-12-06T14:40:40Z</time>
      </trkpt>
      <trkpt lat="44.53269" lon="0.9356">
        <ele>122.22</ele>
        <time>2014-12-06T14:40:51Z</time>
      </trkpt>
      <trkpt lat="44.53268" lon="0.93539">
        <ele>125.11</ele>
        <time>2014-12-06T14:40:59Z</time>
      </trkpt>
      <trkpt lat="44.5327" lon="0.93518">
        <ele>129.92</ele>
        <time>2014-12-06T14:41:11Z</time>
      </trkpt>
      <trkpt lat="44.53271" lon="0.9351">
        <ele>131.36</ele>
        <time>2014-12-06T14:41:15Z</time>
      </trkpt>
      <trkpt lat="44.53278" lon="0.9349">
        <ele>133.76</ele>
        <time>2014-12-06T14:41:26Z</time>
      </trkpt>
      <trkpt lat="44.53288" lon="0.93466">
        <ele>136.64</ele>
        <time>2014-12-06T14:41:39Z</time>
      </trkpt>
      <trkpt lat="44.53305" lon="0.93434">
        <ele>139.05</ele>
        <time>2014-12-06T14:41:54Z</time>
      </trkpt>
      <trkpt lat="44.53311" lon="0.9343">
        <ele>140.49</ele>
        <time>2014-12-06T14:41:58Z</time>
      </trkpt>
      <trkpt lat="44.53313" lon="0.93426">
        <ele>140.97</ele>
        <time>2014-12-06T14:42:00Z</time>
      </trkpt>
      <trkpt lat="44.53321" lon="0.93416">
        <ele>142.89</ele>
        <time>2014-12-06T14:42:06Z</time>
      </trkpt>
      <trkpt lat="44.53338" lon="0.93401">
        <ele>145.78</ele>
        <time>2014-12-06T14:42:17Z</time>
      </trkpt>
      <trkpt lat="44.53368" lon="0.93389">
        <ele>148.66</ele>
        <time>2014-12-06T14:42:34Z</time>
      </trkpt>
      <trkpt lat="44.53392" lon="0.9337">
        <ele>149.14</ele>
        <time>2014-12-06T14:42:48Z</time>
      </trkpt>
      <trkpt lat="44.53421" lon="0.93361">
        <ele>149.14</ele>
        <time>2014-12-06T14:43:03Z</time>
      </trkpt>
      <trkpt lat="44.53447" lon="0.93385">
        <ele>150.58</ele>
        <time>2014-12-06T14:43:17Z</time>
      </trkpt>
      <trkpt lat="44.53477" lon="0.93373">
        <ele>151.54</ele>
        <time>2014-12-06T14:43:30Z</time>
      </trkpt>
      <trkpt lat="44.53518" lon="0.93356">
        <ele>154.43</ele>
        <time>2014-12-06T14:43:48Z</time>
      </trkpt>
      <trkpt lat="44.53538" lon="0.93371">
        <ele>154.91</ele>
        <time>2014-12-06T14:43:57Z</time>
      </trkpt>
      <trkpt lat="44.5354" lon="0.93372">
        <ele>154.91</ele>
        <time>2014-12-06T14:43:58Z</time>
      </trkpt>
      <trkpt lat="44.53543" lon="0.93372">
        <ele>154.91</ele>
        <time>2014-12-06T14:43:59Z</time>
      </trkpt>
      <trkpt lat="44.53572" lon="0.93349">
        <ele>156.35</ele>
        <time>2014-12-06T14:44:13Z</time>
      </trkpt>
      <trkpt lat="44.53586" lon="0.93333">
        <ele>157.31</ele>
        <time>2014-12-06T14:44:22Z</time>
      </trkpt>
      <trkpt lat="44.53587" lon="0.93332">
        <ele>157.31</ele>
        <time>2014-12-06T14:44:23Z</time>
      </trkpt>
      <trkpt lat="44.53588" lon="0.93331">
        <ele>157.79</ele>
        <time>2014-12-06T14:44:34Z</time>
      </trkpt>
      <trkpt lat="44.53588" lon="0.9333">
        <ele>157.79</ele>
        <time>2014-12-06T14:44:50Z</time>
      </trkpt>
      <trkpt lat="44.53588" lon="0.93331">
        <ele>157.31</ele>
        <time>2014-12-06T14:45:09Z</time>
      </trkpt>
      <trkpt lat="44.53589" lon="0.93331">
        <ele>157.79</ele>
        <time>2014-12-06T14:45:26Z</time>
      </trkpt>
      <trkpt lat="44.53589" lon="0.93331">
        <ele>157.79</ele>
        <time>2014-12-06T14:45:44Z</time>
      </trkpt>
      <trkpt lat="44.5359" lon="0.9333">
        <ele>158.27</ele>
        <time>2014-12-06T14:46:05Z</time>
      </trkpt>
      <trkpt lat="44.5359" lon="0.9333">
        <ele>158.27</ele>
        <time>2014-12-06T14:46:26Z</time>
      </trkpt>
      <trkpt lat="44.53589" lon="0.93331">
        <ele>157.79</ele>
        <time>2014-12-06T14:46:56Z</time>
      </trkpt>
      <trkpt lat="44.53588" lon="0.93331">
        <ele>157.31</ele>
        <time>2014-12-06T14:47:11Z</time>
      </trkpt>
      <trkpt lat="44.53588" lon="0.9333">
        <ele>157.79</ele>
        <time>2014-12-06T14:47:26Z</time>
      </trkpt>
      <trkpt lat="44.53589" lon="0.93331">
        <ele>157.79</ele>
        <time>2014-12-06T14:47:47Z</time>
      </trkpt>
      <trkpt lat="44.5359" lon="0.9333">
        <ele>158.27</ele>
        <time>2014-12-06T14:47:48Z</time>
      </trkpt>
      <trkpt lat="44.5359" lon="0.9333">
        <ele>158.27</ele>
        <time>2014-12-06T14:47:49Z</time>
      </trkpt>
      <trkpt lat="44.53592" lon="0.93329">
        <ele>157.79</ele>
        <time>2014-12-06T14:47:50Z</time>
      </trkpt>
      <trkpt lat="44.53593" lon="0.93328">
        <ele>157.79</ele>
        <time>2014-12-06T14:47:51Z</time>
      </trkpt>
      <trkpt lat="44.53594" lon="0.93326">
        <ele>157.79</ele>
        <time>2014-12-06T14:47:52Z</time>
      </trkpt>
      <trkpt lat="44.53595" lon="0.93324">
        <ele>157.79</ele>
        <time>2014-12-06T14:47:53Z</time>
      </trkpt>
      <trkpt lat="44.53596" lon="0.93323">
        <ele>157.79</ele>
        <time>2014-12-06T14:47:54Z</time>
      </trkpt>
      <trkpt lat="44.53598" lon="0.93321">
        <ele>157.79</ele>
        <time>2014-12-06T14:47:55Z</time>
      </trkpt>
      <trkpt lat="44.536" lon="0.9332">
        <ele>157.79</ele>
        <time>2014-12-06T14:47:56Z</time>
      </trkpt>
      <trkpt lat="44.53602" lon="0.93319">
        <ele>157.79</ele>
        <time>2014-12-06T14:47:57Z</time>
      </trkpt>
      <trkpt lat="44.53604" lon="0.93317">
        <ele>157.31</ele>
        <time>2014-12-06T14:47:58Z</time>
      </trkpt>
      <trkpt lat="44.53606" lon="0.93314">
        <ele>157.31</ele>
        <time>2014-12-06T14:47:59Z</time>
      </trkpt>
      <trkpt lat="44.53608" lon="0.93311">
        <ele>157.31</ele>
        <time>2014-12-06T14:48:00Z</time>
      </trkpt>
      <trkpt lat="44.5361" lon="0.93309">
        <ele>156.83</ele>
        <time>2014-12-06T14:48:01Z</time>
      </trkpt>
      <trkpt lat="44.53613" lon="0.93307">
        <ele>156.83</ele>
        <time>2014-12-06T14:48:02Z</time>
      </trkpt>
      <trkpt lat="44.53615" lon="0.93304">
        <ele>156.83</ele>
        <time>2014-12-06T14:48:03Z</time>
      </trkpt>
      <trkpt lat="44.53617" lon="0.93301">
        <ele>156.83</ele>
        <time>2014-12-06T14:48:04Z</time>
      </trkpt>
      <trkpt lat="44.53619" lon="0.93299">
        <ele>156.35</ele>
        <time>2014-12-06T14:48:05Z</time>
      </trkpt>
      <trkpt lat="44.53622" lon="0.93297">
        <ele>156.35</ele>
        <time>2014-12-06T14:48:06Z</time>
      </trkpt>
      <trkpt lat="44.53651" lon="0.93306">
        <ele>155.87</ele>
        <time>2014-12-06T14:48:16Z</time>
      </trkpt>
      <trkpt lat="44.53681" lon="0.9336">
        <ele>154.43</ele>
        <time>2014-12-06T14:48:28Z</time>
      </trkpt>
      <trkpt lat="44.53698" lon="0.93395">
        <ele>151.54</ele>
        <time>2014-12-06T14:48:33Z</time>
      </trkpt>
      <trkpt lat="44.53702" lon="0.93399">
        <ele>151.06</ele>
        <time>2014-12-06T14:48:34Z</time>
      </trkpt>
      <trkpt lat="44.53707" lon="0.93399">
        <ele>151.06</ele>
        <time>2014-12-06T14:48:35Z</time>
      </trkpt>
      <trkpt lat="44.53711" lon="0.93397">
        <ele>151.06</ele>
        <time>2014-12-06T14:48:36Z</time>
      </trkpt>
      <trkpt lat="44.53714" lon="0.93393">
        <ele>151.54</ele>
        <time>2014-12-06T14:48:37Z</time>
      </trkpt>
      <trkpt lat="44.53717" lon="0.93389">
        <ele>151.54</ele>
        <time>2014-12-06T14:48:38Z</time>
      </trkpt>
      <trkpt lat="44.53719" lon="0.93384">
        <ele>151.54</ele>
        <time>2014-12-06T14:48:39Z</time>
      </trkpt>
      <trkpt lat="44.53747" lon="0.93332">
        <ele>152.51</ele>
        <time>2014-12-06T14:48:52Z</time>
      </trkpt>
      <trkpt lat="44.53764" lon="0.93281">
        <ele>152.99</ele>
        <time>2014-12-06T14:49:03Z</time>
      </trkpt>
      <trkpt lat="44.53762" lon="0.93276">
        <ele>153.47</ele>
        <time>2014-12-06T14:49:04Z</time>
      </trkpt>
      <trkpt lat="44.5376" lon="0.93271">
        <ele>153.95</ele>
        <time>2014-12-06T14:49:05Z</time>
      </trkpt>
      <trkpt lat="44.53758" lon="0.93265">
        <ele>153.95</ele>
        <time>2014-12-06T14:49:06Z</time>
      </trkpt>
      <trkpt lat="44.53756" lon="0.9326">
        <ele>154.43</ele>
        <time>2014-12-06T14:49:07Z</time>
      </trkpt>
      <trkpt lat="44.53754" lon="0.93255">
        <ele>154.91</ele>
        <time>2014-12-06T14:49:08Z</time>
      </trkpt>
      <trkpt lat="44.53752" lon="0.9325">
        <ele>154.91</ele>
        <time>2014-12-06T14:49:09Z</time>
      </trkpt>
      <trkpt lat="44.53751" lon="0.93244">
        <ele>155.39</ele>
        <time>2014-12-06T14:49:10Z</time>
      </trkpt>
      <trkpt lat="44.5375" lon="0.93233">
        <ele>155.39</ele>
        <time>2014-12-06T14:49:12Z</time>
      </trkpt>
      <trkpt lat="44.53751" lon="0.93226">
        <ele>155.87</ele>
        <time>2014-12-06T14:49:13Z</time>
      </trkpt>
      <trkpt lat="44.53751" lon="0.93221">
        <ele>155.87</ele>
        <time>2014-12-06T14:49:14Z</time>
      </trkpt>
      <trkpt lat="44.53753" lon="0.93215">
        <ele>155.87</ele>
        <time>2014-12-06T14:49:15Z</time>
      </trkpt>
      <trkpt lat="44.53754" lon="0.9321">
        <ele>155.87</ele>
        <time>2014-12-06T14:49:16Z</time>
      </trkpt>
      <trkpt lat="44.53786" lon="0.93134">
        <ele>155.39</ele>
        <time>2014-12-06T14:49:31Z</time>
      </trkpt>
      <trkpt lat="44.53824" lon="0.93053">
        <ele>154.43</ele>
        <time>2014-12-06T14:49:46Z</time>
      </trkpt>
      <trkpt lat="44.53863" lon="0.92963">
        <ele>154.43</ele>
        <time>2014-12-06T14:50:01Z</time>
      </trkpt>
      <trkpt lat="44.53902" lon="0.92893">
        <ele>156.83</ele>
        <time>2014-12-06T14:50:14Z</time>
      </trkpt>
      <trkpt lat="44.53905" lon="0.92888">
        <ele>156.83</ele>
        <time>2014-12-06T14:50:15Z</time>
      </trkpt>
      <trkpt lat="44.53913" lon="0.92873">
        <ele>157.79</ele>
        <time>2014-12-06T14:50:18Z</time>
      </trkpt>
      <trkpt lat="44.53916" lon="0.92868">
        <ele>157.79</ele>
        <time>2014-12-06T14:50:19Z</time>
      </trkpt>
      <trkpt lat="44.53919" lon="0.92863">
        <ele>157.79</ele>
        <time>2014-12-06T14:50:20Z</time>
      </trkpt>
      <trkpt lat="44.53922" lon="0.92858">
        <ele>157.79</ele>
        <time>2014-12-06T14:50:21Z</time>
      </trkpt>
      <trkpt lat="44.53925" lon="0.92853">
        <ele>158.27</ele>
        <time>2014-12-06T14:50:22Z</time>
      </trkpt>
      <trkpt lat="44.53938" lon="0.92829">
        <ele>158.27</ele>
        <time>2014-12-06T14:50:27Z</time>
      </trkpt>
      <trkpt lat="44.5394" lon="0.92824">
        <ele>158.27</ele>
        <time>2014-12-06T14:50:28Z</time>
      </trkpt>
      <trkpt lat="44.53943" lon="0.92819">
        <ele>158.27</ele>
        <time>2014-12-06T14:50:29Z</time>
      </trkpt>
      <trkpt lat="44.53997" lon="0.92722">
        <ele>158.27</ele>
        <time>2014-12-06T14:50:48Z</time>
      </trkpt>
      <trkpt lat="44.53999" lon="0.92717">
        <ele>158.27</ele>
        <time>2014-12-06T14:50:49Z</time>
      </trkpt>
      <trkpt lat="44.54003" lon="0.92705">
        <ele>158.27</ele>
        <time>2014-12-06T14:50:51Z</time>
      </trkpt>
      <trkpt lat="44.54003" lon="0.92699">
        <ele>158.27</ele>
        <time>2014-12-06T14:50:52Z</time>
      </trkpt>
      <trkpt lat="44.54002" lon="0.92694">
        <ele>158.27</ele>
        <time>2014-12-06T14:50:53Z</time>
      </trkpt>
      <trkpt lat="44.54" lon="0.92689">
        <ele>157.79</ele>
        <time>2014-12-06T14:50:54Z</time>
      </trkpt>
      <trkpt lat="44.53997" lon="0.92686">
        <ele>157.79</ele>
        <time>2014-12-06T14:50:55Z</time>
      </trkpt>
      <trkpt lat="44.53994" lon="0.92682">
        <ele>157.79</ele>
        <time>2014-12-06T14:50:56Z</time>
      </trkpt>
      <trkpt lat="44.53972" lon="0.92656">
        <ele>156.35</ele>
        <time>2014-12-06T14:51:02Z</time>
      </trkpt>
      <trkpt lat="44.5397" lon="0.92649">
        <ele>156.35</ele>
        <time>2014-12-06T14:51:03Z</time>
      </trkpt>
      <trkpt lat="44.53969" lon="0.92641">
        <ele>155.87</ele>
        <time>2014-12-06T14:51:04Z</time>
      </trkpt>
      <trkpt lat="44.53971" lon="0.92633">
        <ele>155.87</ele>
        <time>2014-12-06T14:51:05Z</time>
      </trkpt>
      <trkpt lat="44.53973" lon="0.92625">
        <ele>155.87</ele>
        <time>2014-12-06T14:51:06Z</time>
      </trkpt>
      <trkpt lat="44.54012" lon="0.9252">
        <ele>153.47</ele>
        <time>2014-12-06T14:51:19Z</time>
      </trkpt>
      <trkpt lat="44.54015" lon="0.92511">
        <ele>152.99</ele>
        <time>2014-12-06T14:51:20Z</time>
      </trkpt>
      <trkpt lat="44.54017" lon="0.92502">
        <ele>152.51</ele>
        <time>2014-12-06T14:51:21Z</time>
      </trkpt>
      <trkpt lat="44.54018" lon="0.92492">
        <ele>152.03</ele>
        <time>2014-12-06T14:51:22Z</time>
      </trkpt>
      <trkpt lat="44.54018" lon="0.92481">
        <ele>152.03</ele>
        <time>2014-12-06T14:51:23Z</time>
      </trkpt>
      <trkpt lat="44.54016" lon="0.92471">
        <ele>152.03</ele>
        <time>2014-12-06T14:51:24Z</time>
      </trkpt>
      <trkpt lat="44.54014" lon="0.92462">
        <ele>151.54</ele>
        <time>2014-12-06T14:51:25Z</time>
      </trkpt>
      <trkpt lat="44.54011" lon="0.92452">
        <ele>151.54</ele>
        <time>2014-12-06T14:51:26Z</time>
      </trkpt>
      <trkpt lat="44.54008" lon="0.92444">
        <ele>151.54</ele>
        <time>2014-12-06T14:51:27Z</time>
      </trkpt>
      <trkpt lat="44.53969" lon="0.92345">
        <ele>155.87</ele>
        <time>2014-12-06T14:51:41Z</time>
      </trkpt>
      <trkpt lat="44.53963" lon="0.92334">
        <ele>157.31</ele>
        <time>2014-12-06T14:51:43Z</time>
      </trkpt>
      <trkpt lat="44.53961" lon="0.92329">
        <ele>157.79</ele>
        <time>2014-12-06T14:51:44Z</time>
      </trkpt>
      <trkpt lat="44.53959" lon="0.92324">
        <ele>158.75</ele>
        <time>2014-12-06T14:51:45Z</time>
      </trkpt>
      <trkpt lat="44.53957" lon="0.92319">
        <ele>160.2</ele>
        <time>2014-12-06T14:51:46Z</time>
      </trkpt>
      <trkpt lat="44.53955" lon="0.92315">
        <ele>161.16</ele>
        <time>2014-12-06T14:51:47Z</time>
      </trkpt>
      <trkpt lat="44.53939" lon="0.92277">
        <ele>166.93</ele>
        <time>2014-12-06T14:51:55Z</time>
      </trkpt>
      <trkpt lat="44.53927" lon="0.92253">
        <ele>167.41</ele>
        <time>2014-12-06T14:51:59Z</time>
      </trkpt>
      <trkpt lat="44.53923" lon="0.92247">
        <ele>166.93</ele>
        <time>2014-12-06T14:52:00Z</time>
      </trkpt>
      <trkpt lat="44.53913" lon="0.92227">
        <ele>165.48</ele>
        <time>2014-12-06T14:52:03Z</time>
      </trkpt>
      <trkpt lat="44.53909" lon="0.9222">
        <ele>165</ele>
        <time>2014-12-06T14:52:04Z</time>
      </trkpt>
      <trkpt lat="44.53881" lon="0.92168">
        <ele>161.16</ele>
        <time>2014-12-06T14:52:14Z</time>
      </trkpt>
      <trkpt lat="44.5388" lon="0.92166">
        <ele>161.16</ele>
        <time>2014-12-06T14:52:15Z</time>
      </trkpt>
      <trkpt lat="44.53879" lon="0.92164">
        <ele>161.16</ele>
        <time>2014-12-06T14:52:16Z</time>
      </trkpt>
      <trkpt lat="44.53877" lon="0.92162">
        <ele>160.2</ele>
        <time>2014-12-06T14:52:28Z</time>
      </trkpt>
      <trkpt lat="44.53879" lon="0.9216">
        <ele>158.27</ele>
        <time>2014-12-06T14:52:57Z</time>
      </trkpt>
      <trkpt lat="44.53877" lon="0.92157">
        <ele>158.27</ele>
        <time>2014-12-06T14:53:13Z</time>
      </trkpt>
      <trkpt lat="44.53876" lon="0.92156">
        <ele>158.27</ele>
        <time>2014-12-06T14:53:14Z</time>
      </trkpt>
      <trkpt lat="44.53874" lon="0.92156">
        <ele>158.27</ele>
        <time>2014-12-06T14:53:15Z</time>
      </trkpt>
      <trkpt lat="44.53871" lon="0.92157">
        <ele>157.79</ele>
        <time>2014-12-06T14:53:16Z</time>
      </trkpt>
      <trkpt lat="44.53867" lon="0.92159">
        <ele>157.31</ele>
        <time>2014-12-06T14:53:17Z</time>
      </trkpt>
      <trkpt lat="44.53797" lon="0.92192">
        <ele>153.95</ele>
        <time>2014-12-06T14:53:30Z</time>
      </trkpt>
      <trkpt lat="44.53701" lon="0.92238">
        <ele>150.58</ele>
        <time>2014-12-06T14:53:45Z</time>
      </trkpt>
      <trkpt lat="44.53615" lon="0.92302">
        <ele>150.1</ele>
        <time>2014-12-06T14:53:59Z</time>
      </trkpt>
      <trkpt lat="44.53552" lon="0.92358">
        <ele>151.06</ele>
        <time>2014-12-06T14:54:13Z</time>
      </trkpt>
      <trkpt lat="44.53545" lon="0.92347">
        <ele>152.51</ele>
        <time>2014-12-06T14:54:17Z</time>
      </trkpt>
      <trkpt lat="44.5352" lon="0.92299">
        <ele>152.51</ele>
        <time>2014-12-06T14:54:32Z</time>
      </trkpt>
      <trkpt lat="44.5351" lon="0.923">
        <ele>152.03</ele>
        <time>2014-12-06T14:54:37Z</time>
      </trkpt>
      <trkpt lat="44.53472" lon="0.92342">
        <ele>151.54</ele>
        <time>2014-12-06T14:54:52Z</time>
      </trkpt>
      <trkpt lat="44.53445" lon="0.92376">
        <ele>152.03</ele>
        <time>2014-12-06T14:55:05Z</time>
      </trkpt>
      <trkpt lat="44.53445" lon="0.92378">
        <ele>152.03</ele>
        <time>2014-12-06T14:55:06Z</time>
      </trkpt>
      <trkpt lat="44.53463" lon="0.92417">
        <ele>155.87</ele>
        <time>2014-12-06T14:55:20Z</time>
      </trkpt>
      <trkpt lat="44.5347" lon="0.92431">
        <ele>154.43</ele>
        <time>2014-12-06T14:55:31Z</time>
      </trkpt>
      <trkpt lat="44.5347" lon="0.92431">
        <ele>153.47</ele>
        <time>2014-12-06T14:55:49Z</time>
      </trkpt>
      <trkpt lat="44.53469" lon="0.92431">
        <ele>153.47</ele>
        <time>2014-12-06T14:56:05Z</time>
      </trkpt>
      <trkpt lat="44.53469" lon="0.92432">
        <ele>153.95</ele>
        <time>2014-12-06T14:56:14Z</time>
      </trkpt>
      <trkpt lat="44.53467" lon="0.92435">
        <ele>153.47</ele>
        <time>2014-12-06T14:56:16Z</time>
      </trkpt>
      <trkpt lat="44.53465" lon="0.92437">
        <ele>153.47</ele>
        <time>2014-12-06T14:56:17Z</time>
      </trkpt>
      <trkpt lat="44.53462" lon="0.9244">
        <ele>152.99</ele>
        <time>2014-12-06T14:56:18Z</time>
      </trkpt>
      <trkpt lat="44.53458" lon="0.92442">
        <ele>152.99</ele>
        <time>2014-12-06T14:56:19Z</time>
      </trkpt>
      <trkpt lat="44.53406" lon="0.92487">
        <ele>152.03</ele>
        <time>2014-12-06T14:56:32Z</time>
      </trkpt>
      <trkpt lat="44.53367" lon="0.92524">
        <ele>151.06</ele>
        <time>2014-12-06T14:56:43Z</time>
      </trkpt>
      <trkpt lat="44.53286" lon="0.92602">
        <ele>149.62</ele>
        <time>2014-12-06T14:56:59Z</time>
      </trkpt>
      <trkpt lat="44.53246" lon="0.92646">
        <ele>147.22</ele>
        <time>2014-12-06T14:57:08Z</time>
      </trkpt>
      <trkpt lat="44.53242" lon="0.92646">
        <ele>147.22</ele>
        <time>2014-12-06T14:57:09Z</time>
      </trkpt>
      <trkpt lat="44.53239" lon="0.92643">
        <ele>147.22</ele>
        <time>2014-12-06T14:57:10Z</time>
      </trkpt>
      <trkpt lat="44.53237" lon="0.9264">
        <ele>147.22</ele>
        <time>2014-12-06T14:57:11Z</time>
      </trkpt>
      <trkpt lat="44.53235" lon="0.92636">
        <ele>147.22</ele>
        <time>2014-12-06T14:57:12Z</time>
      </trkpt>
      <trkpt lat="44.53233" lon="0.92632">
        <ele>147.22</ele>
        <time>2014-12-06T14:57:13Z</time>
      </trkpt>
      <trkpt lat="44.53205" lon="0.92594">
        <ele>148.18</ele>
        <time>2014-12-06T14:57:23Z</time>
      </trkpt>
      <trkpt lat="44.53201" lon="0.92592">
        <ele>148.18</ele>
        <time>2014-12-06T14:57:24Z</time>
      </trkpt>
      <trkpt lat="44.53198" lon="0.92591">
        <ele>148.18</ele>
        <time>2014-12-06T14:57:25Z</time>
      </trkpt>
      <trkpt lat="44.53194" lon="0.92591">
        <ele>148.18</ele>
        <time>2014-12-06T14:57:26Z</time>
      </trkpt>
      <trkpt lat="44.53181" lon="0.92596">
        <ele>147.7</ele>
        <time>2014-12-06T14:57:29Z</time>
      </trkpt>
      <trkpt lat="44.53128" lon="0.92629">
        <ele>145.3</ele>
        <time>2014-12-06T14:57:41Z</time>
      </trkpt>
      <trkpt lat="44.53088" lon="0.92663">
        <ele>143.85</ele>
        <time>2014-12-06T14:57:52Z</time>
      </trkpt>
      <trkpt lat="44.53074" lon="0.92669">
        <ele>144.82</ele>
        <time>2014-12-06T14:58:02Z</time>
      </trkpt>
      <trkpt lat="44.53073" lon="0.92672">
        <ele>147.7</ele>
        <time>2014-12-06T14:58:27Z</time>
      </trkpt>
      <trkpt lat="44.53072" lon="0.92672">
        <ele>148.66</ele>
        <time>2014-12-06T14:58:44Z</time>
      </trkpt>
      <trkpt lat="44.53072" lon="0.92671">
        <ele>149.14</ele>
        <time>2014-12-06T14:59:04Z</time>
      </trkpt>
      <trkpt lat="44.53071" lon="0.9267">
        <ele>148.66</ele>
        <time>2014-12-06T14:59:16Z</time>
      </trkpt>
      <trkpt lat="44.53068" lon="0.92673">
        <ele>148.18</ele>
        <time>2014-12-06T14:59:27Z</time>
      </trkpt>
      <trkpt lat="44.53065" lon="0.92672">
        <ele>146.74</ele>
        <time>2014-12-06T14:59:48Z</time>
      </trkpt>
      <trkpt lat="44.53063" lon="0.92669">
        <ele>146.26</ele>
        <time>2014-12-06T15:00:21Z</time>
      </trkpt>
      <trkpt lat="44.53064" lon="0.9267">
        <ele>145.78</ele>
        <time>2014-12-06T15:00:59Z</time>
      </trkpt>
      <trkpt lat="44.53064" lon="0.92669">
        <ele>145.78</ele>
        <time>2014-12-06T15:01:39Z</time>
      </trkpt>
      <trkpt lat="44.53063" lon="0.9267">
        <ele>146.74</ele>
        <time>2014-12-06T15:02:06Z</time>
      </trkpt>
      <trkpt lat="44.53064" lon="0.92672">
        <ele>145.78</ele>
        <time>2014-12-06T15:02:33Z</time>
      </trkpt>
      <trkpt lat="44.53064" lon="0.92672">
        <ele>145.78</ele>
        <time>2014-12-06T15:02:34Z</time>
      </trkpt>
      <trkpt lat="44.53063" lon="0.92678">
        <ele>147.22</ele>
        <time>2014-12-06T15:02:40Z</time>
      </trkpt>
      <trkpt lat="44.53063" lon="0.92679">
        <ele>147.22</ele>
        <time>2014-12-06T15:02:41Z</time>
      </trkpt>
      <trkpt lat="44.53061" lon="0.9268">
        <ele>147.22</ele>
        <time>2014-12-06T15:02:43Z</time>
      </trkpt>
      <trkpt lat="44.53058" lon="0.92681">
        <ele>146.74</ele>
        <time>2014-12-06T15:02:54Z</time>
      </trkpt>
      <trkpt lat="44.53058" lon="0.92681">
        <ele>147.22</ele>
        <time>2014-12-06T15:03:11Z</time>
      </trkpt>
      <trkpt lat="44.53058" lon="0.92681">
        <ele>147.22</ele>
        <time>2014-12-06T15:03:27Z</time>
      </trkpt>
      <trkpt lat="44.53058" lon="0.92682">
        <ele>146.74</ele>
        <time>2014-12-06T15:03:54Z</time>
      </trkpt>
      <trkpt lat="44.53055" lon="0.92682">
        <ele>146.26</ele>
        <time>2014-12-06T15:04:03Z</time>
      </trkpt>
      <trkpt lat="44.53052" lon="0.92684">
        <ele>146.26</ele>
        <time>2014-12-06T15:04:05Z</time>
      </trkpt>
      <trkpt lat="44.53049" lon="0.92684">
        <ele>146.74</ele>
        <time>2014-12-06T15:04:06Z</time>
      </trkpt>
      <trkpt lat="44.53046" lon="0.92684">
        <ele>146.74</ele>
        <time>2014-12-06T15:04:07Z</time>
      </trkpt>
      <trkpt lat="44.53043" lon="0.92685">
        <ele>146.74</ele>
        <time>2014-12-06T15:04:08Z</time>
      </trkpt>
      <trkpt lat="44.53038" lon="0.92685">
        <ele>146.26</ele>
        <time>2014-12-06T15:04:09Z</time>
      </trkpt>
      <trkpt lat="44.53034" lon="0.92686">
        <ele>146.26</ele>
        <time>2014-12-06T15:04:10Z</time>
      </trkpt>
      <trkpt lat="44.53029" lon="0.92688">
        <ele>146.26</ele>
        <time>2014-12-06T15:04:11Z</time>
      </trkpt>
      <trkpt lat="44.52954" lon="0.927">
        <ele>144.82</ele>
        <time>2014-12-06T15:04:23Z</time>
      </trkpt>
      <trkpt lat="44.52865" lon="0.92722">
        <ele>139.05</ele>
        <time>2014-12-06T15:04:33Z</time>
      </trkpt>
      <trkpt lat="44.52856" lon="0.92723">
        <ele>138.57</ele>
        <time>2014-12-06T15:04:34Z</time>
      </trkpt>
      <trkpt lat="44.52849" lon="0.92724">
        <ele>138.57</ele>
        <time>2014-12-06T15:04:35Z</time>
      </trkpt>
      <trkpt lat="44.52826" lon="0.92726">
        <ele>138.57</ele>
        <time>2014-12-06T15:04:38Z</time>
      </trkpt>
      <trkpt lat="44.52819" lon="0.92728">
        <ele>138.57</ele>
        <time>2014-12-06T15:04:39Z</time>
      </trkpt>
      <trkpt lat="44.52813" lon="0.92732">
        <ele>138.57</ele>
        <time>2014-12-06T15:04:40Z</time>
      </trkpt>
      <trkpt lat="44.52806" lon="0.92736">
        <ele>138.57</ele>
        <time>2014-12-06T15:04:41Z</time>
      </trkpt>
      <trkpt lat="44.528" lon="0.92738">
        <ele>138.09</ele>
        <time>2014-12-06T15:04:42Z</time>
      </trkpt>
      <trkpt lat="44.52793" lon="0.92738">
        <ele>138.09</ele>
        <time>2014-12-06T15:04:43Z</time>
      </trkpt>
      <trkpt lat="44.52788" lon="0.92738">
        <ele>138.09</ele>
        <time>2014-12-06T15:04:44Z</time>
      </trkpt>
      <trkpt lat="44.52724" lon="0.92735">
        <ele>137.13</ele>
        <time>2014-12-06T15:04:54Z</time>
      </trkpt>
      <trkpt lat="44.52704" lon="0.92738">
        <ele>137.13</ele>
        <time>2014-12-06T15:04:57Z</time>
      </trkpt>
      <trkpt lat="44.52697" lon="0.92741">
        <ele>137.13</ele>
        <time>2014-12-06T15:04:58Z</time>
      </trkpt>
      <trkpt lat="44.52606" lon="0.92799">
        <ele>137.13</ele>
        <time>2014-12-06T15:05:13Z</time>
      </trkpt>
      <trkpt lat="44.52558" lon="0.9285">
        <ele>138.57</ele>
        <time>2014-12-06T15:05:25Z</time>
      </trkpt>
      <trkpt lat="44.5252" lon="0.92914">
        <ele>137.61</ele>
        <time>2014-12-06T15:05:33Z</time>
      </trkpt>
      <trkpt lat="44.5244" lon="0.93008">
        <ele>134.24</ele>
        <time>2014-12-06T15:05:43Z</time>
      </trkpt>
      <trkpt lat="44.52379" lon="0.93082">
        <ele>119.82</ele>
        <time>2014-12-06T15:05:52Z</time>
      </trkpt>
      <trkpt lat="44.52371" lon="0.93088">
        <ele>117.9</ele>
        <time>2014-12-06T15:05:53Z</time>
      </trkpt>
      <trkpt lat="44.52362" lon="0.93091">
        <ele>116.46</ele>
        <time>2014-12-06T15:05:54Z</time>
      </trkpt>
      <trkpt lat="44.52353" lon="0.93093">
        <ele>115.01</ele>
        <time>2014-12-06T15:05:55Z</time>
      </trkpt>
      <trkpt lat="44.52343" lon="0.93094">
        <ele>113.57</ele>
        <time>2014-12-06T15:05:56Z</time>
      </trkpt>
      <trkpt lat="44.52296" lon="0.93099">
        <ele>105.4</ele>
        <time>2014-12-06T15:06:01Z</time>
      </trkpt>
      <trkpt lat="44.52288" lon="0.93103">
        <ele>103.96</ele>
        <time>2014-12-06T15:06:02Z</time>
      </trkpt>
      <trkpt lat="44.5228" lon="0.93107">
        <ele>102.52</ele>
        <time>2014-12-06T15:06:03Z</time>
      </trkpt>
      <trkpt lat="44.52204" lon="0.9316">
        <ele>92.42</ele>
        <time>2014-12-06T15:06:12Z</time>
      </trkpt>
      <trkpt lat="44.52165" lon="0.93176">
        <ele>88.1</ele>
        <time>2014-12-06T15:06:16Z</time>
      </trkpt>
      <trkpt lat="44.52116" lon="0.93179">
        <ele>84.73</ele>
        <time>2014-12-06T15:06:24Z</time>
      </trkpt>
      <trkpt lat="44.52115" lon="0.93181">
        <ele>84.25</ele>
        <time>2014-12-06T15:06:36Z</time>
      </trkpt>
      <trkpt lat="44.52114" lon="0.93181">
        <ele>85.21</ele>
        <time>2014-12-06T15:06:56Z</time>
      </trkpt>
      <trkpt lat="44.52114" lon="0.93181">
        <ele>84.73</ele>
        <time>2014-12-06T15:07:17Z</time>
      </trkpt>
      <trkpt lat="44.52114" lon="0.93183">
        <ele>84.25</ele>
        <time>2014-12-06T15:07:47Z</time>
      </trkpt>
      <trkpt lat="44.52112" lon="0.93183">
        <ele>84.25</ele>
        <time>2014-12-06T15:07:50Z</time>
      </trkpt>
      <trkpt lat="44.52111" lon="0.93183">
        <ele>84.25</ele>
        <time>2014-12-06T15:07:51Z</time>
      </trkpt>
      <trkpt lat="44.52098" lon="0.93182">
        <ele>84.25</ele>
        <time>2014-12-06T15:07:56Z</time>
      </trkpt>
      <trkpt lat="44.52095" lon="0.93183">
        <ele>84.73</ele>
        <time>2014-12-06T15:07:57Z</time>
      </trkpt>
      <trkpt lat="44.52065" lon="0.93196">
        <ele>85.69</ele>
        <time>2014-12-06T15:08:05Z</time>
      </trkpt>
      <trkpt lat="44.52061" lon="0.93199">
        <ele>86.18</ele>
        <time>2014-12-06T15:08:06Z</time>
      </trkpt>
      <trkpt lat="44.5204" lon="0.93208">
        <ele>85.69</ele>
        <time>2014-12-06T15:08:11Z</time>
      </trkpt>
      <trkpt lat="44.51983" lon="0.93234">
        <ele>87.14</ele>
        <time>2014-12-06T15:08:25Z</time>
      </trkpt>
      <trkpt lat="44.51931" lon="0.9327">
        <ele>86.18</ele>
        <time>2014-12-06T15:08:39Z</time>
      </trkpt>
      <trkpt lat="44.51873" lon="0.93311">
        <ele>85.69</ele>
        <time>2014-12-06T15:08:54Z</time>
      </trkpt>
      <trkpt lat="44.51819" lon="0.93333">
        <ele>91.46</ele>
        <time>2014-12-06T15:09:08Z</time>
      </trkpt>
      <trkpt lat="44.51757" lon="0.93347">
        <ele>93.39</ele>
        <time>2014-12-06T15:09:23Z</time>
      </trkpt>
      <trkpt lat="44.51697" lon="0.9333">
        <ele>97.23</ele>
        <time>2014-12-06T15:09:38Z</time>
      </trkpt>
      <trkpt lat="44.51696" lon="0.93326">
        <ele>97.23</ele>
        <time>2014-12-06T15:09:39Z</time>
      </trkpt>
      <trkpt lat="44.51695" lon="0.93322">
        <ele>97.71</ele>
        <time>2014-12-06T15:09:40Z</time>
      </trkpt>
      <trkpt lat="44.51695" lon="0.93318">
        <ele>97.71</ele>
        <time>2014-12-06T15:09:41Z</time>
      </trkpt>
      <trkpt lat="44.51692" lon="0.93257">
        <ele>101.08</ele>
        <time>2014-12-06T15:09:56Z</time>
      </trkpt>
      <trkpt lat="44.5169" lon="0.93192">
        <ele>103.48</ele>
        <time>2014-12-06T15:10:13Z</time>
      </trkpt>
      <trkpt lat="44.5169" lon="0.93133">
        <ele>105.4</ele>
        <time>2014-12-06T15:10:28Z</time>
      </trkpt>
      <trkpt lat="44.51695" lon="0.9308">
        <ele>109.25</ele>
        <time>2014-12-06T15:10:42Z</time>
      </trkpt>
      <trkpt lat="44.51694" lon="0.93077">
        <ele>109.73</ele>
        <time>2014-12-06T15:10:43Z</time>
      </trkpt>
      <trkpt lat="44.51693" lon="0.93075">
        <ele>110.21</ele>
        <time>2014-12-06T15:10:44Z</time>
      </trkpt>
      <trkpt lat="44.51691" lon="0.93074">
        <ele>110.21</ele>
        <time>2014-12-06T15:10:45Z</time>
      </trkpt>
      <trkpt lat="44.51689" lon="0.93074">
        <ele>110.69</ele>
        <time>2014-12-06T15:10:46Z</time>
      </trkpt>
      <trkpt lat="44.51687" lon="0.93074">
        <ele>110.69</ele>
        <time>2014-12-06T15:10:47Z</time>
      </trkpt>
      <trkpt lat="44.51685" lon="0.93075">
        <ele>110.69</ele>
        <time>2014-12-06T15:10:48Z</time>
      </trkpt>
      <trkpt lat="44.5166" lon="0.9309">
        <ele>113.57</ele>
        <time>2014-12-06T15:10:59Z</time>
      </trkpt>
      <trkpt lat="44.51634" lon="0.9311">
        <ele>113.09</ele>
        <time>2014-12-06T15:11:13Z</time>
      </trkpt>
      <trkpt lat="44.51605" lon="0.93127">
        <ele>110.69</ele>
        <time>2014-12-06T15:11:25Z</time>
      </trkpt>
      <trkpt lat="44.51582" lon="0.93142">
        <ele>107.81</ele>
        <time>2014-12-06T15:11:32Z</time>
      </trkpt>
      <trkpt lat="44.51567" lon="0.93151">
        <ele>107.32</ele>
        <time>2014-12-06T15:11:36Z</time>
      </trkpt>
      <trkpt lat="44.51551" lon="0.93158">
        <ele>105.4</ele>
        <time>2014-12-06T15:11:40Z</time>
      </trkpt>
      <trkpt lat="44.51526" lon="0.93173">
        <ele>103.48</ele>
        <time>2014-12-06T15:11:47Z</time>
      </trkpt>
      <trkpt lat="44.51511" lon="0.9318">
        <ele>103</ele>
        <time>2014-12-06T15:11:50Z</time>
      </trkpt>
      <trkpt lat="44.51483" lon="0.93205">
        <ele>101.56</ele>
        <time>2014-12-06T15:11:56Z</time>
      </trkpt>
      <trkpt lat="44.51459" lon="0.93256">
        <ele>97.23</ele>
        <time>2014-12-06T15:12:02Z</time>
      </trkpt>
      <trkpt lat="44.51439" lon="0.93321">
        <ele>91.94</ele>
        <time>2014-12-06T15:12:08Z</time>
      </trkpt>
      <trkpt lat="44.51433" lon="0.93333">
        <ele>90.5</ele>
        <time>2014-12-06T15:12:11Z</time>
      </trkpt>
      <trkpt lat="44.51431" lon="0.93334">
        <ele>90.5</ele>
        <time>2014-12-06T15:12:12Z</time>
      </trkpt>
      <trkpt lat="44.51426" lon="0.93336">
        <ele>90.5</ele>
        <time>2014-12-06T15:12:24Z</time>
      </trkpt>
      <trkpt lat="44.51424" lon="0.93336">
        <ele>90.5</ele>
        <time>2014-12-06T15:12:35Z</time>
      </trkpt>
      <trkpt lat="44.51423" lon="0.93335">
        <ele>90.5</ele>
        <time>2014-12-06T15:12:36Z</time>
      </trkpt>
      <trkpt lat="44.51423" lon="0.93333">
        <ele>90.5</ele>
        <time>2014-12-06T15:12:37Z</time>
      </trkpt>
      <trkpt lat="44.51422" lon="0.9333">
        <ele>90.5</ele>
        <time>2014-12-06T15:12:38Z</time>
      </trkpt>
      <trkpt lat="44.51421" lon="0.93328">
        <ele>90.5</ele>
        <time>2014-12-06T15:12:39Z</time>
      </trkpt>
      <trkpt lat="44.51413" lon="0.93307">
        <ele>91.46</ele>
        <time>2014-12-06T15:12:44Z</time>
      </trkpt>
      <trkpt lat="44.51389" lon="0.93217">
        <ele>93.87</ele>
        <time>2014-12-06T15:12:59Z</time>
      </trkpt>
      <trkpt lat="44.51379" lon="0.93147">
        <ele>96.75</ele>
        <time>2014-12-06T15:13:12Z</time>
      </trkpt>
      <trkpt lat="44.51369" lon="0.93086">
        <ele>101.08</ele>
        <time>2014-12-06T15:13:23Z</time>
      </trkpt>
      <trkpt lat="44.51362" lon="0.93028">
        <ele>105.4</ele>
        <time>2014-12-06T15:13:34Z</time>
      </trkpt>
      <trkpt lat="44.51346" lon="0.92979">
        <ele>107.32</ele>
        <time>2014-12-06T15:13:46Z</time>
      </trkpt>
      <trkpt lat="44.51327" lon="0.92927">
        <ele>107.32</ele>
        <time>2014-12-06T15:13:59Z</time>
      </trkpt>
      <trkpt lat="44.51324" lon="0.92922">
        <ele>106.84</ele>
        <time>2014-12-06T15:14:01Z</time>
      </trkpt>
      <trkpt lat="44.51323" lon="0.92921">
        <ele>106.84</ele>
        <time>2014-12-06T15:14:02Z</time>
      </trkpt>
      <trkpt lat="44.51321" lon="0.92919">
        <ele>105.4</ele>
        <time>2014-12-06T15:14:16Z</time>
      </trkpt>
      <trkpt lat="44.51321" lon="0.9292">
        <ele>105.88</ele>
        <time>2014-12-06T15:14:47Z</time>
      </trkpt>
      <trkpt lat="44.51319" lon="0.9292">
        <ele>104.92</ele>
        <time>2014-12-06T15:15:06Z</time>
      </trkpt>
      <trkpt lat="44.51317" lon="0.92921">
        <ele>104.92</ele>
        <time>2014-12-06T15:15:07Z</time>
      </trkpt>
      <trkpt lat="44.51314" lon="0.92922">
        <ele>104.92</ele>
        <time>2014-12-06T15:15:08Z</time>
      </trkpt>
      <trkpt lat="44.51265" lon="0.9296">
        <ele>99.63</ele>
        <time>2014-12-06T15:15:18Z</time>
      </trkpt>
      <trkpt lat="44.51224" lon="0.92988">
        <ele>95.31</ele>
        <time>2014-12-06T15:15:25Z</time>
      </trkpt>
      <trkpt lat="44.51219" lon="0.92986">
        <ele>94.83</ele>
        <time>2014-12-06T15:15:26Z</time>
      </trkpt>
      <trkpt lat="44.51215" lon="0.92982">
        <ele>94.35</ele>
        <time>2014-12-06T15:15:27Z</time>
      </trkpt>
      <trkpt lat="44.51212" lon="0.92977">
        <ele>94.35</ele>
        <time>2014-12-06T15:15:28Z</time>
      </trkpt>
      <trkpt lat="44.5121" lon="0.92971">
        <ele>93.87</ele>
        <time>2014-12-06T15:15:29Z</time>
      </trkpt>
      <trkpt lat="44.51208" lon="0.92966">
        <ele>93.87</ele>
        <time>2014-12-06T15:15:30Z</time>
      </trkpt>
      <trkpt lat="44.51206" lon="0.9296">
        <ele>94.35</ele>
        <time>2014-12-06T15:15:31Z</time>
      </trkpt>
      <trkpt lat="44.51196" lon="0.92938">
        <ele>95.31</ele>
        <time>2014-12-06T15:15:36Z</time>
      </trkpt>
      <trkpt lat="44.5119" lon="0.9293">
        <ele>95.79</ele>
        <time>2014-12-06T15:15:38Z</time>
      </trkpt>
      <trkpt lat="44.51187" lon="0.92926">
        <ele>95.79</ele>
        <time>2014-12-06T15:15:39Z</time>
      </trkpt>
      <trkpt lat="44.51183" lon="0.92923">
        <ele>96.27</ele>
        <time>2014-12-06T15:15:40Z</time>
      </trkpt>
      <trkpt lat="44.5118" lon="0.92921">
        <ele>96.75</ele>
        <time>2014-12-06T15:15:41Z</time>
      </trkpt>
      <trkpt lat="44.51177" lon="0.9292">
        <ele>96.75</ele>
        <time>2014-12-06T15:15:42Z</time>
      </trkpt>
      <trkpt lat="44.51174" lon="0.92918">
        <ele>97.23</ele>
        <time>2014-12-06T15:15:43Z</time>
      </trkpt>
      <trkpt lat="44.5117" lon="0.92907">
        <ele>98.19</ele>
        <time>2014-12-06T15:15:47Z</time>
      </trkpt>
      <trkpt lat="44.51168" lon="0.9287">
        <ele>99.15</ele>
        <time>2014-12-06T15:15:58Z</time>
      </trkpt>
      <trkpt lat="44.51158" lon="0.92827">
        <ele>101.56</ele>
        <time>2014-12-06T15:16:12Z</time>
      </trkpt>
      <trkpt lat="44.51144" lon="0.92782">
        <ele>103</ele>
        <time>2014-12-06T15:16:25Z</time>
      </trkpt>
      <trkpt lat="44.51124" lon="0.92743">
        <ele>105.88</ele>
        <time>2014-12-06T15:16:36Z</time>
      </trkpt>
      <trkpt lat="44.51103" lon="0.92738">
        <ele>109.73</ele>
        <time>2014-12-06T15:16:46Z</time>
      </trkpt>
      <trkpt lat="44.51073" lon="0.92717">
        <ele>113.57</ele>
        <time>2014-12-06T15:16:59Z</time>
      </trkpt>
      <trkpt lat="44.51051" lon="0.92694">
        <ele>117.42</ele>
        <time>2014-12-06T15:17:11Z</time>
      </trkpt>
      <trkpt lat="44.51029" lon="0.9268">
        <ele>118.38</ele>
        <time>2014-12-06T15:17:22Z</time>
      </trkpt>
      <trkpt lat="44.51001" lon="0.92682">
        <ele>121.26</ele>
        <time>2014-12-06T15:17:35Z</time>
      </trkpt>
      <trkpt lat="44.50971" lon="0.92674">
        <ele>122.71</ele>
        <time>2014-12-06T15:17:47Z</time>
      </trkpt>
      <trkpt lat="44.50963" lon="0.92672">
        <ele>124.15</ele>
        <time>2014-12-06T15:17:59Z</time>
      </trkpt>
      <trkpt lat="44.50963" lon="0.92673">
        <ele>125.59</ele>
        <time>2014-12-06T15:18:17Z</time>
      </trkpt>
      <trkpt lat="44.50963" lon="0.92673">
        <ele>125.11</ele>
        <time>2014-12-06T15:18:36Z</time>
      </trkpt>
      <trkpt lat="44.50963" lon="0.92673">
        <ele>124.63</ele>
        <time>2014-12-06T15:18:57Z</time>
      </trkpt>
      <trkpt lat="44.50959" lon="0.92675">
        <ele>125.11</ele>
        <time>2014-12-06T15:19:02Z</time>
      </trkpt>
      <trkpt lat="44.50958" lon="0.92676">
        <ele>125.59</ele>
        <time>2014-12-06T15:19:03Z</time>
      </trkpt>
      <trkpt lat="44.50956" lon="0.92678">
        <ele>125.59</ele>
        <time>2014-12-06T15:19:04Z</time>
      </trkpt>
      <trkpt lat="44.50954" lon="0.9268">
        <ele>125.59</ele>
        <time>2014-12-06T15:19:05Z</time>
      </trkpt>
      <trkpt lat="44.50953" lon="0.92683">
        <ele>125.59</ele>
        <time>2014-12-06T15:19:06Z</time>
      </trkpt>
      <trkpt lat="44.50951" lon="0.92686">
        <ele>125.11</ele>
        <time>2014-12-06T15:19:07Z</time>
      </trkpt>
      <trkpt lat="44.50935" lon="0.9274">
        <ele>126.55</ele>
        <time>2014-12-06T15:19:23Z</time>
      </trkpt>
      <trkpt lat="44.50924" lon="0.92782">
        <ele>126.55</ele>
        <time>2014-12-06T15:19:34Z</time>
      </trkpt>
      <trkpt lat="44.50927" lon="0.92826">
        <ele>127.99</ele>
        <time>2014-12-06T15:19:45Z</time>
      </trkpt>
      <trkpt lat="44.50933" lon="0.92866">
        <ele>127.51</ele>
        <time>2014-12-06T15:19:55Z</time>
      </trkpt>
      <trkpt lat="44.50907" lon="0.92897">
        <ele>131.36</ele>
        <time>2014-12-06T15:20:07Z</time>
      </trkpt>
      <trkpt lat="44.50881" lon="0.92922">
        <ele>133.28</ele>
        <time>2014-12-06T15:20:19Z</time>
      </trkpt>
      <trkpt lat="44.50864" lon="0.92935">
        <ele>132.8</ele>
        <time>2014-12-06T15:20:24Z</time>
      </trkpt>
      <trkpt lat="44.5086" lon="0.92937">
        <ele>132.32</ele>
        <time>2014-12-06T15:20:25Z</time>
      </trkpt>
      <trkpt lat="44.50855" lon="0.92941">
        <ele>131.84</ele>
        <time>2014-12-06T15:20:26Z</time>
      </trkpt>
      <trkpt lat="44.5085" lon="0.92947">
        <ele>130.88</ele>
        <time>2014-12-06T15:20:27Z</time>
      </trkpt>
      <trkpt lat="44.50844" lon="0.92954">
        <ele>129.92</ele>
        <time>2014-12-06T15:20:28Z</time>
      </trkpt>
      <trkpt lat="44.50838" lon="0.92962">
        <ele>128.95</ele>
        <time>2014-12-06T15:20:29Z</time>
      </trkpt>
      <trkpt lat="44.50828" lon="0.92975">
        <ele>126.55</ele>
        <time>2014-12-06T15:20:31Z</time>
      </trkpt>
      <trkpt lat="44.50821" lon="0.92979">
        <ele>125.59</ele>
        <time>2014-12-06T15:20:32Z</time>
      </trkpt>
      <trkpt lat="44.50814" lon="0.92982">
        <ele>124.63</ele>
        <time>2014-12-06T15:20:33Z</time>
      </trkpt>
      <trkpt lat="44.50795" lon="0.92991">
        <ele>121.26</ele>
        <time>2014-12-06T15:20:36Z</time>
      </trkpt>
      <trkpt lat="44.50792" lon="0.92996">
        <ele>119.82</ele>
        <time>2014-12-06T15:20:37Z</time>
      </trkpt>
      <trkpt lat="44.5079" lon="0.93003">
        <ele>118.86</ele>
        <time>2014-12-06T15:20:38Z</time>
      </trkpt>
      <trkpt lat="44.50789" lon="0.93011">
        <ele>118.38</ele>
        <time>2014-12-06T15:20:39Z</time>
      </trkpt>
      <trkpt lat="44.50789" lon="0.93018">
        <ele>117.9</ele>
        <time>2014-12-06T15:20:40Z</time>
      </trkpt>
      <trkpt lat="44.5079" lon="0.93026">
        <ele>117.42</ele>
        <time>2014-12-06T15:20:41Z</time>
      </trkpt>
      <trkpt lat="44.50791" lon="0.93048">
        <ele>117.42</ele>
        <time>2014-12-06T15:20:44Z</time>
      </trkpt>
      <trkpt lat="44.50789" lon="0.93085">
        <ele>117.42</ele>
        <time>2014-12-06T15:20:49Z</time>
      </trkpt>
      <trkpt lat="44.50788" lon="0.93103">
        <ele>116.46</ele>
        <time>2014-12-06T15:20:51Z</time>
      </trkpt>
      <trkpt lat="44.50787" lon="0.93113">
        <ele>115.98</ele>
        <time>2014-12-06T15:20:52Z</time>
      </trkpt>
      <trkpt lat="44.50785" lon="0.93122">
        <ele>115.98</ele>
        <time>2014-12-06T15:20:53Z</time>
      </trkpt>
      <trkpt lat="44.50783" lon="0.93131">
        <ele>115.5</ele>
        <time>2014-12-06T15:20:54Z</time>
      </trkpt>
      <trkpt lat="44.5078" lon="0.93139">
        <ele>115.5</ele>
        <time>2014-12-06T15:20:55Z</time>
      </trkpt>
      <trkpt lat="44.50776" lon="0.93147">
        <ele>115.5</ele>
        <time>2014-12-06T15:20:56Z</time>
      </trkpt>
      <trkpt lat="44.50773" lon="0.93154">
        <ele>115.01</ele>
        <time>2014-12-06T15:20:57Z</time>
      </trkpt>
      <trkpt lat="44.50769" lon="0.93162">
        <ele>114.53</ele>
        <time>2014-12-06T15:20:58Z</time>
      </trkpt>
      <trkpt lat="44.50767" lon="0.9317">
        <ele>114.53</ele>
        <time>2014-12-06T15:20:59Z</time>
      </trkpt>
      <trkpt lat="44.50765" lon="0.93179">
        <ele>114.05</ele>
        <time>2014-12-06T15:21:00Z</time>
      </trkpt>
      <trkpt lat="44.50752" lon="0.93233">
        <ele>113.09</ele>
        <time>2014-12-06T15:21:07Z</time>
      </trkpt>
      <trkpt lat="44.50736" lon="0.93278">
        <ele>110.69</ele>
        <time>2014-12-06T15:21:15Z</time>
      </trkpt>
      <trkpt lat="44.50736" lon="0.93284">
        <ele>110.69</ele>
        <time>2014-12-06T15:21:16Z</time>
      </trkpt>
      <trkpt lat="44.50713" lon="0.93366">
        <ele>105.4</ele>
        <time>2014-12-06T15:21:25Z</time>
      </trkpt>
      <trkpt lat="44.50665" lon="0.93541">
        <ele>96.27</ele>
        <time>2014-12-06T15:21:41Z</time>
      </trkpt>
      <trkpt lat="44.50661" lon="0.93564">
        <ele>95.79</ele>
        <time>2014-12-06T15:21:44Z</time>
      </trkpt>
      <trkpt lat="44.50659" lon="0.93569">
        <ele>95.79</ele>
        <time>2014-12-06T15:21:45Z</time>
      </trkpt>
      <trkpt lat="44.50651" lon="0.93588">
        <ele>93.87</ele>
        <time>2014-12-06T15:21:54Z</time>
      </trkpt>
      <trkpt lat="44.50651" lon="0.93587">
        <ele>94.35</ele>
        <time>2014-12-06T15:22:20Z</time>
      </trkpt>
      <trkpt lat="44.5065" lon="0.93586">
        <ele>94.35</ele>
        <time>2014-12-06T15:22:50Z</time>
      </trkpt>
      <trkpt lat="44.50649" lon="0.93587">
        <ele>94.83</ele>
        <time>2014-12-06T15:23:24Z</time>
      </trkpt>
      <trkpt lat="44.50651" lon="0.93596">
        <ele>93.39</ele>
        <time>2014-12-06T15:23:56Z</time>
      </trkpt>
      <trkpt lat="44.50656" lon="0.93666">
        <ele>91.46</ele>
        <time>2014-12-06T15:24:08Z</time>
      </trkpt>
      <trkpt lat="44.50658" lon="0.93716">
        <ele>90.02</ele>
        <time>2014-12-06T15:24:18Z</time>
      </trkpt>
      <trkpt lat="44.50658" lon="0.93721">
        <ele>89.54</ele>
        <time>2014-12-06T15:24:19Z</time>
      </trkpt>
      <trkpt lat="44.50659" lon="0.93742">
        <ele>88.58</ele>
        <time>2014-12-06T15:24:22Z</time>
      </trkpt>
      <trkpt lat="44.50665" lon="0.93868">
        <ele>86.18</ele>
        <time>2014-12-06T15:24:36Z</time>
      </trkpt>
      <trkpt lat="44.50675" lon="0.94004">
        <ele>84.25</ele>
        <time>2014-12-06T15:24:50Z</time>
      </trkpt>
      <trkpt lat="44.50678" lon="0.94013">
        <ele>83.77</ele>
        <time>2014-12-06T15:24:51Z</time>
      </trkpt>
      <trkpt lat="44.50681" lon="0.94021">
        <ele>83.29</ele>
        <time>2014-12-06T15:24:52Z</time>
      </trkpt>
      <trkpt lat="44.50713" lon="0.94109">
        <ele>85.21</ele>
        <time>2014-12-06T15:25:04Z</time>
      </trkpt>
      <trkpt lat="44.50717" lon="0.94134">
        <ele>83.77</ele>
        <time>2014-12-06T15:25:09Z</time>
      </trkpt>
      <trkpt lat="44.50715" lon="0.94138">
        <ele>83.77</ele>
        <time>2014-12-06T15:25:10Z</time>
      </trkpt>
      <trkpt lat="44.50711" lon="0.94141">
        <ele>83.29</ele>
        <time>2014-12-06T15:25:11Z</time>
      </trkpt>
      <trkpt lat="44.50707" lon="0.94143">
        <ele>82.81</ele>
        <time>2014-12-06T15:25:12Z</time>
      </trkpt>
      <trkpt lat="44.50702" lon="0.94145">
        <ele>82.81</ele>
        <time>2014-12-06T15:25:13Z</time>
      </trkpt>
      <trkpt lat="44.50697" lon="0.94146">
        <ele>82.33</ele>
        <time>2014-12-06T15:25:14Z</time>
      </trkpt>
      <trkpt lat="44.50691" lon="0.94147">
        <ele>82.33</ele>
        <time>2014-12-06T15:25:15Z</time>
      </trkpt>
      <trkpt lat="44.50685" lon="0.94148">
        <ele>81.85</ele>
        <time>2014-12-06T15:25:16Z</time>
      </trkpt>
      <trkpt lat="44.50589" lon="0.9416">
        <ele>77.52</ele>
        <time>2014-12-06T15:25:30Z</time>
      </trkpt>
      <trkpt lat="44.50484" lon="0.94172">
        <ele>76.08</ele>
        <time>2014-12-06T15:25:45Z</time>
      </trkpt>
      <trkpt lat="44.5045" lon="0.94175">
        <ele>76.08</ele>
        <time>2014-12-06T15:25:50Z</time>
      </trkpt>
      <trkpt lat="44.50415" lon="0.94177">
        <ele>75.6</ele>
        <time>2014-12-06T15:25:55Z</time>
      </trkpt>
      <trkpt lat="44.50348" lon="0.94181">
        <ele>75.12</ele>
        <time>2014-12-06T15:26:05Z</time>
      </trkpt>
      <trkpt lat="44.50257" lon="0.94186">
        <ele>76.08</ele>
        <time>2014-12-06T15:26:20Z</time>
      </trkpt>
      <trkpt lat="44.50198" lon="0.94191">
        <ele>76.08</ele>
        <time>2014-12-06T15:26:29Z</time>
      </trkpt>
      <trkpt lat="44.50136" lon="0.94205">
        <ele>79.45</ele>
        <time>2014-12-06T15:26:40Z</time>
      </trkpt>
      <trkpt lat="44.50078" lon="0.94219">
        <ele>78.97</ele>
        <time>2014-12-06T15:26:50Z</time>
      </trkpt>
      <trkpt lat="44.50034" lon="0.94216">
        <ele>76.56</ele>
        <time>2014-12-06T15:26:56Z</time>
      </trkpt>
      <trkpt lat="44.50016" lon="0.94207">
        <ele>76.56</ele>
        <time>2014-12-06T15:26:59Z</time>
      </trkpt>
      <trkpt lat="44.49983" lon="0.94204">
        <ele>75.12</ele>
        <time>2014-12-06T15:27:04Z</time>
      </trkpt>
      <trkpt lat="44.49872" lon="0.94216">
        <ele>73.2</ele>
        <time>2014-12-06T15:27:20Z</time>
      </trkpt>
      <trkpt lat="44.49834" lon="0.94219">
        <ele>72.72</ele>
        <time>2014-12-06T15:27:26Z</time>
      </trkpt>
      <trkpt lat="44.49823" lon="0.94223">
        <ele>73.2</ele>
        <time>2014-12-06T15:27:28Z</time>
      </trkpt>
      <trkpt lat="44.49798" lon="0.94235">
        <ele>74.16</ele>
        <time>2014-12-06T15:27:33Z</time>
      </trkpt>
      <trkpt lat="44.49794" lon="0.94235">
        <ele>74.16</ele>
        <time>2014-12-06T15:27:34Z</time>
      </trkpt>
      <trkpt lat="44.49791" lon="0.94234">
        <ele>74.64</ele>
        <time>2014-12-06T15:27:35Z</time>
      </trkpt>
      <trkpt lat="44.49788" lon="0.94231">
        <ele>74.64</ele>
        <time>2014-12-06T15:27:36Z</time>
      </trkpt>
      <trkpt lat="44.49787" lon="0.94228">
        <ele>74.64</ele>
        <time>2014-12-06T15:27:37Z</time>
      </trkpt>
      <trkpt lat="44.49786" lon="0.94224">
        <ele>74.64</ele>
        <time>2014-12-06T15:27:38Z</time>
      </trkpt>
      <trkpt lat="44.49785" lon="0.94221">
        <ele>74.64</ele>
        <time>2014-12-06T15:27:39Z</time>
      </trkpt>
      <trkpt lat="44.49785" lon="0.94218">
        <ele>75.12</ele>
        <time>2014-12-06T15:27:40Z</time>
      </trkpt>
      <trkpt lat="44.49781" lon="0.94191">
        <ele>76.08</ele>
        <time>2014-12-06T15:27:52Z</time>
      </trkpt>
      <trkpt lat="44.4978" lon="0.94183">
        <ele>76.08</ele>
        <time>2014-12-06T15:27:56Z</time>
      </trkpt>
      <trkpt lat="44.4978" lon="0.9418">
        <ele>76.56</ele>
        <time>2014-12-06T15:27:57Z</time>
      </trkpt>
      <trkpt lat="44.4978" lon="0.94178">
        <ele>76.56</ele>
        <time>2014-12-06T15:27:58Z</time>
      </trkpt>
      <trkpt lat="44.4978" lon="0.94175">
        <ele>77.04</ele>
        <time>2014-12-06T15:27:59Z</time>
      </trkpt>
      <trkpt lat="44.4978" lon="0.94172">
        <ele>77.04</ele>
        <time>2014-12-06T15:28:00Z</time>
      </trkpt>
      <trkpt lat="44.4978" lon="0.94167">
        <ele>78</ele>
        <time>2014-12-06T15:28:02Z</time>
      </trkpt>
      <trkpt lat="44.4978" lon="0.94165">
        <ele>78.48</ele>
        <time>2014-12-06T15:28:03Z</time>
      </trkpt>
      <trkpt lat="44.49776" lon="0.94122">
        <ele>83.29</ele>
        <time>2014-12-06T15:28:16Z</time>
      </trkpt>
      <trkpt lat="44.4976" lon="0.94075">
        <ele>85.69</ele>
        <time>2014-12-06T15:28:30Z</time>
      </trkpt>
      <trkpt lat="44.49726" lon="0.94021">
        <ele>88.58</ele>
        <time>2014-12-06T15:28:47Z</time>
      </trkpt>
      <trkpt lat="44.49702" lon="0.93986">
        <ele>92.9</ele>
        <time>2014-12-06T15:29:01Z</time>
      </trkpt>
      <trkpt lat="44.49698" lon="0.93984">
        <ele>93.39</ele>
        <time>2014-12-06T15:29:12Z</time>
      </trkpt>
      <trkpt lat="44.49698" lon="0.93984">
        <ele>93.39</ele>
        <time>2014-12-06T15:29:31Z</time>
      </trkpt>
      <trkpt lat="44.49697" lon="0.93986">
        <ele>93.87</ele>
        <time>2014-12-06T15:29:45Z</time>
      </trkpt>
      <trkpt lat="44.49696" lon="0.93988">
        <ele>94.83</ele>
        <time>2014-12-06T15:30:04Z</time>
      </trkpt>
      <trkpt lat="44.49695" lon="0.93988">
        <ele>95.31</ele>
        <time>2014-12-06T15:30:26Z</time>
      </trkpt>
      <trkpt lat="44.49695" lon="0.93988">
        <ele>96.27</ele>
        <time>2014-12-06T15:30:48Z</time>
      </trkpt>
      <trkpt lat="44.49695" lon="0.93988">
        <ele>96.75</ele>
        <time>2014-12-06T15:31:08Z</time>
      </trkpt>
      <trkpt lat="44.49695" lon="0.93988">
        <ele>96.75</ele>
        <time>2014-12-06T15:31:25Z</time>
      </trkpt>
      <trkpt lat="44.49692" lon="0.9399">
        <ele>97.23</ele>
        <time>2014-12-06T15:31:40Z</time>
      </trkpt>
      <trkpt lat="44.4968" lon="0.94">
        <ele>96.27</ele>
        <time>2014-12-06T15:31:52Z</time>
      </trkpt>
      <trkpt lat="44.49677" lon="0.94004">
        <ele>96.27</ele>
        <time>2014-12-06T15:31:53Z</time>
      </trkpt>
      <trkpt lat="44.49675" lon="0.9401">
        <ele>96.27</ele>
        <time>2014-12-06T15:31:54Z</time>
      </trkpt>
      <trkpt lat="44.49652" lon="0.94057">
        <ele>94.83</ele>
        <time>2014-12-06T15:32:01Z</time>
      </trkpt>
      <trkpt lat="44.49602" lon="0.94128">
        <ele>93.87</ele>
        <time>2014-12-06T15:32:13Z</time>
      </trkpt>
      <trkpt lat="44.49572" lon="0.9418">
        <ele>91.46</ele>
        <time>2014-12-06T15:32:21Z</time>
      </trkpt>
      <trkpt lat="44.49569" lon="0.94186">
        <ele>90.98</ele>
        <time>2014-12-06T15:32:22Z</time>
      </trkpt>
      <trkpt lat="44.49566" lon="0.94192">
        <ele>90.5</ele>
        <time>2014-12-06T15:32:23Z</time>
      </trkpt>
      <trkpt lat="44.495" lon="0.94274">
        <ele>85.21</ele>
        <time>2014-12-06T15:32:35Z</time>
      </trkpt>
      <trkpt lat="44.49424" lon="0.94314">
        <ele>89.06</ele>
        <time>2014-12-06T15:32:48Z</time>
      </trkpt>
      <trkpt lat="44.49351" lon="0.94327">
        <ele>82.81</ele>
        <time>2014-12-06T15:32:57Z</time>
      </trkpt>
      <trkpt lat="44.49344" lon="0.94331">
        <ele>82.33</ele>
        <time>2014-12-06T15:32:58Z</time>
      </trkpt>
      <trkpt lat="44.49336" lon="0.94336">
        <ele>81.37</ele>
        <time>2014-12-06T15:32:59Z</time>
      </trkpt>
      <trkpt lat="44.49329" lon="0.94343">
        <ele>80.89</ele>
        <time>2014-12-06T15:33:00Z</time>
      </trkpt>
      <trkpt lat="44.49324" lon="0.94351">
        <ele>80.41</ele>
        <time>2014-12-06T15:33:01Z</time>
      </trkpt>
      <trkpt lat="44.49319" lon="0.94361">
        <ele>79.93</ele>
        <time>2014-12-06T15:33:02Z</time>
      </trkpt>
      <trkpt lat="44.49314" lon="0.9437">
        <ele>78.97</ele>
        <time>2014-12-06T15:33:03Z</time>
      </trkpt>
      <trkpt lat="44.49274" lon="0.94436">
        <ele>74.16</ele>
        <time>2014-12-06T15:33:12Z</time>
      </trkpt>
      <trkpt lat="44.49252" lon="0.94466">
        <ele>71.76</ele>
        <time>2014-12-06T15:33:18Z</time>
      </trkpt>
      <trkpt lat="44.49251" lon="0.94472">
        <ele>71.27</ele>
        <time>2014-12-06T15:33:19Z</time>
      </trkpt>
      <trkpt lat="44.49252" lon="0.94478">
        <ele>70.79</ele>
        <time>2014-12-06T15:33:20Z</time>
      </trkpt>
      <trkpt lat="44.49254" lon="0.94483">
        <ele>70.79</ele>
        <time>2014-12-06T15:33:21Z</time>
      </trkpt>
      <trkpt lat="44.49256" lon="0.94488">
        <ele>70.79</ele>
        <time>2014-12-06T15:33:22Z</time>
      </trkpt>
      <trkpt lat="44.49257" lon="0.94494">
        <ele>70.31</ele>
        <time>2014-12-06T15:33:23Z</time>
      </trkpt>
      <trkpt lat="44.49258" lon="0.94499">
        <ele>70.31</ele>
        <time>2014-12-06T15:33:24Z</time>
      </trkpt>
      <trkpt lat="44.49259" lon="0.94503">
        <ele>69.83</ele>
        <time>2014-12-06T15:33:25Z</time>
      </trkpt>
      <trkpt lat="44.49257" lon="0.94508">
        <ele>69.83</ele>
        <time>2014-12-06T15:33:26Z</time>
      </trkpt>
      <trkpt lat="44.49253" lon="0.94513">
        <ele>69.83</ele>
        <time>2014-12-06T15:33:27Z</time>
      </trkpt>
      <trkpt lat="44.49249" lon="0.94515">
        <ele>69.83</ele>
        <time>2014-12-06T15:33:28Z</time>
      </trkpt>
      <trkpt lat="44.49244" lon="0.94516">
        <ele>69.83</ele>
        <time>2014-12-06T15:33:29Z</time>
      </trkpt>
      <trkpt lat="44.49239" lon="0.94517">
        <ele>69.35</ele>
        <time>2014-12-06T15:33:30Z</time>
      </trkpt>
      <trkpt lat="44.49224" lon="0.9452">
        <ele>68.39</ele>
        <time>2014-12-06T15:33:33Z</time>
      </trkpt>
      <trkpt lat="44.49196" lon="0.94527">
        <ele>66.47</ele>
        <time>2014-12-06T15:33:38Z</time>
      </trkpt>
      <trkpt lat="44.4919" lon="0.94528">
        <ele>66.47</ele>
        <time>2014-12-06T15:33:39Z</time>
      </trkpt>
      <trkpt lat="44.49185" lon="0.94529">
        <ele>66.47</ele>
        <time>2014-12-06T15:33:40Z</time>
      </trkpt>
      <trkpt lat="44.49145" lon="0.9454">
        <ele>65.51</ele>
        <time>2014-12-06T15:33:47Z</time>
      </trkpt>
      <trkpt lat="44.49139" lon="0.9454">
        <ele>65.99</ele>
        <time>2014-12-06T15:33:48Z</time>
      </trkpt>
      <trkpt lat="44.49133" lon="0.94539">
        <ele>65.99</ele>
        <time>2014-12-06T15:33:49Z</time>
      </trkpt>
      <trkpt lat="44.49128" lon="0.94537">
        <ele>66.47</ele>
        <time>2014-12-06T15:33:50Z</time>
      </trkpt>
      <trkpt lat="44.49122" lon="0.94536">
        <ele>66.47</ele>
        <time>2014-12-06T15:33:51Z</time>
      </trkpt>
      <trkpt lat="44.49116" lon="0.94536">
        <ele>66.95</ele>
        <time>2014-12-06T15:33:52Z</time>
      </trkpt>
      <trkpt lat="44.49111" lon="0.94536">
        <ele>66.95</ele>
        <time>2014-12-06T15:33:53Z</time>
      </trkpt>
      <trkpt lat="44.49105" lon="0.94537">
        <ele>67.43</ele>
        <time>2014-12-06T15:33:54Z</time>
      </trkpt>
      <trkpt lat="44.491" lon="0.94538">
        <ele>67.91</ele>
        <time>2014-12-06T15:33:55Z</time>
      </trkpt>
      <trkpt lat="44.49094" lon="0.94539">
        <ele>68.39</ele>
        <time>2014-12-06T15:33:56Z</time>
      </trkpt>
      <trkpt lat="44.49021" lon="0.94546">
        <ele>69.35</ele>
        <time>2014-12-06T15:34:09Z</time>
      </trkpt>
      <trkpt lat="44.4901" lon="0.94549">
        <ele>69.83</ele>
        <time>2014-12-06T15:34:11Z</time>
      </trkpt>
      <trkpt lat="44.48979" lon="0.94563">
        <ele>68.87</ele>
        <time>2014-12-06T15:34:17Z</time>
      </trkpt>
      <trkpt lat="44.48941" lon="0.94586">
        <ele>68.39</ele>
        <time>2014-12-06T15:34:25Z</time>
      </trkpt>
      <trkpt lat="44.48916" lon="0.94574">
        <ele>68.39</ele>
        <time>2014-12-06T15:34:32Z</time>
      </trkpt>
      <trkpt lat="44.48909" lon="0.94552">
        <ele>71.76</ele>
        <time>2014-12-06T15:34:37Z</time>
      </trkpt>
      <trkpt lat="44.48907" lon="0.9455">
        <ele>72.24</ele>
        <time>2014-12-06T15:34:38Z</time>
      </trkpt>
      <trkpt lat="44.48904" lon="0.94549">
        <ele>72.72</ele>
        <time>2014-12-06T15:34:39Z</time>
      </trkpt>
      <trkpt lat="44.48902" lon="0.94549">
        <ele>73.68</ele>
        <time>2014-12-06T15:34:40Z</time>
      </trkpt>
      <trkpt lat="44.48899" lon="0.94549">
        <ele>74.16</ele>
        <time>2014-12-06T15:34:41Z</time>
      </trkpt>
      <trkpt lat="44.48894" lon="0.9455">
        <ele>74.64</ele>
        <time>2014-12-06T15:34:42Z</time>
      </trkpt>
      <trkpt lat="44.48872" lon="0.94559">
        <ele>75.6</ele>
        <time>2014-12-06T15:34:47Z</time>
      </trkpt>
      <trkpt lat="44.4887" lon="0.94563">
        <ele>75.6</ele>
        <time>2014-12-06T15:34:48Z</time>
      </trkpt>
      <trkpt lat="44.48867" lon="0.94566">
        <ele>75.6</ele>
        <time>2014-12-06T15:34:49Z</time>
      </trkpt>
      <trkpt lat="44.48864" lon="0.9457">
        <ele>75.12</ele>
        <time>2014-12-06T15:34:50Z</time>
      </trkpt>
      <trkpt lat="44.4886" lon="0.94571">
        <ele>74.64</ele>
        <time>2014-12-06T15:34:51Z</time>
      </trkpt>
      <trkpt lat="44.48857" lon="0.94573">
        <ele>74.16</ele>
        <time>2014-12-06T15:34:52Z</time>
      </trkpt>
      <trkpt lat="44.48854" lon="0.94575">
        <ele>74.16</ele>
        <time>2014-12-06T15:34:53Z</time>
      </trkpt>
      <trkpt lat="44.48829" lon="0.94592">
        <ele>71.76</ele>
        <time>2014-12-06T15:35:01Z</time>
      </trkpt>
      <trkpt lat="44.48824" lon="0.94592">
        <ele>71.76</ele>
        <time>2014-12-06T15:35:02Z</time>
      </trkpt>
      <trkpt lat="44.48808" lon="0.94592">
        <ele>71.27</ele>
        <time>2014-12-06T15:35:05Z</time>
      </trkpt>
      <trkpt lat="44.48798" lon="0.94588">
        <ele>70.79</ele>
        <time>2014-12-06T15:35:07Z</time>
      </trkpt>
      <trkpt lat="44.48773" lon="0.94571">
        <ele>70.31</ele>
        <time>2014-12-06T15:35:12Z</time>
      </trkpt>
      <trkpt lat="44.48765" lon="0.94561">
        <ele>70.31</ele>
        <time>2014-12-06T15:35:14Z</time>
      </trkpt>
      <trkpt lat="44.48755" lon="0.94545">
        <ele>70.31</ele>
        <time>2014-12-06T15:35:17Z</time>
      </trkpt>
      <trkpt lat="44.48749" lon="0.94534">
        <ele>70.31</ele>
        <time>2014-12-06T15:35:19Z</time>
      </trkpt>
      <trkpt lat="44.48739" lon="0.94524">
        <ele>70.31</ele>
        <time>2014-12-06T15:35:22Z</time>
      </trkpt>
      <trkpt lat="44.48735" lon="0.94523">
        <ele>70.31</ele>
        <time>2014-12-06T15:35:23Z</time>
      </trkpt>
      <trkpt lat="44.48731" lon="0.94522">
        <ele>70.31</ele>
        <time>2014-12-06T15:35:24Z</time>
      </trkpt>
      <trkpt lat="44.48725" lon="0.94525">
        <ele>70.31</ele>
        <time>2014-12-06T15:35:27Z</time>
      </trkpt>
      <trkpt lat="44.48723" lon="0.94531">
        <ele>70.31</ele>
        <time>2014-12-06T15:35:29Z</time>
      </trkpt>
      <trkpt lat="44.48713" lon="0.94532">
        <ele>69.83</ele>
        <time>2014-12-06T15:35:33Z</time>
      </trkpt>
      <trkpt lat="44.48679" lon="0.94538">
        <ele>70.31</ele>
        <time>2014-12-06T15:35:43Z</time>
      </trkpt>
      <trkpt lat="44.48672" lon="0.94533">
        <ele>70.31</ele>
        <time>2014-12-06T15:35:45Z</time>
      </trkpt>
      <trkpt lat="44.48631" lon="0.94491">
        <ele>71.76</ele>
        <time>2014-12-06T15:35:58Z</time>
      </trkpt>
      <trkpt lat="44.48625" lon="0.94483">
        <ele>71.27</ele>
        <time>2014-12-06T15:36:00Z</time>
      </trkpt>
      <trkpt lat="44.48621" lon="0.94481">
        <ele>71.27</ele>
        <time>2014-12-06T15:36:01Z</time>
      </trkpt>
      <trkpt lat="44.48617" lon="0.9448">
        <ele>71.27</ele>
        <time>2014-12-06T15:36:02Z</time>
      </trkpt>
      <trkpt lat="44.48613" lon="0.9448">
        <ele>70.79</ele>
        <time>2014-12-06T15:36:03Z</time>
      </trkpt>
      <trkpt lat="44.48608" lon="0.94481">
        <ele>70.79</ele>
        <time>2014-12-06T15:36:04Z</time>
      </trkpt>
      <trkpt lat="44.48604" lon="0.94481">
        <ele>70.79</ele>
        <time>2014-12-06T15:36:05Z</time>
      </trkpt>
      <trkpt lat="44.48599" lon="0.94481">
        <ele>70.79</ele>
        <time>2014-12-06T15:36:06Z</time>
      </trkpt>
      <trkpt lat="44.48594" lon="0.9448">
        <ele>70.79</ele>
        <time>2014-12-06T15:36:07Z</time>
      </trkpt>
      <trkpt lat="44.4859" lon="0.94479">
        <ele>70.79</ele>
        <time>2014-12-06T15:36:08Z</time>
      </trkpt>
      <trkpt lat="44.48585" lon="0.94477">
        <ele>70.79</ele>
        <time>2014-12-06T15:36:09Z</time>
      </trkpt>
      <trkpt lat="44.4857" lon="0.94471">
        <ele>70.31</ele>
        <time>2014-12-06T15:36:12Z</time>
      </trkpt>
      <trkpt lat="44.48561" lon="0.94466">
        <ele>69.83</ele>
        <time>2014-12-06T15:36:14Z</time>
      </trkpt>
      <trkpt lat="44.48558" lon="0.94463">
        <ele>70.31</ele>
        <time>2014-12-06T15:36:15Z</time>
      </trkpt>
      <trkpt lat="44.48555" lon="0.9446">
        <ele>70.31</ele>
        <time>2014-12-06T15:36:16Z</time>
      </trkpt>
      <trkpt lat="44.48553" lon="0.94455">
        <ele>69.83</ele>
        <time>2014-12-06T15:36:17Z</time>
      </trkpt>
      <trkpt lat="44.48551" lon="0.9445">
        <ele>69.83</ele>
        <time>2014-12-06T15:36:18Z</time>
      </trkpt>
      <trkpt lat="44.48549" lon="0.94446">
        <ele>69.35</ele>
        <time>2014-12-06T15:36:19Z</time>
      </trkpt>
      <trkpt lat="44.48547" lon="0.94443">
        <ele>69.35</ele>
        <time>2014-12-06T15:36:20Z</time>
      </trkpt>
      <trkpt lat="44.48542" lon="0.94436">
        <ele>68.87</ele>
        <time>2014-12-06T15:36:22Z</time>
      </trkpt>
      <trkpt lat="44.48525" lon="0.94416">
        <ele>67.91</ele>
        <time>2014-12-06T15:36:28Z</time>
      </trkpt>
      <trkpt lat="44.48471" lon="0.94436">
        <ele>67.91</ele>
        <time>2014-12-06T15:36:39Z</time>
      </trkpt>
      <trkpt lat="44.4844" lon="0.94447">
        <ele>68.39</ele>
        <time>2014-12-06T15:36:49Z</time>
      </trkpt>
      <trkpt lat="44.48439" lon="0.94451">
        <ele>69.35</ele>
        <time>2014-12-06T15:37:01Z</time>
      </trkpt>
      <trkpt lat="44.48439" lon="0.94453">
        <ele>69.83</ele>
        <time>2014-12-06T15:37:13Z</time>
      </trkpt>
      <trkpt lat="44.4844" lon="0.94456">
        <ele>68.87</ele>
        <time>2014-12-06T15:37:18Z</time>
      </trkpt>
      <trkpt lat="44.48438" lon="0.94474">
        <ele>68.87</ele>
        <time>2014-12-06T15:37:26Z</time>
      </trkpt>
      <trkpt lat="44.48435" lon="0.94478">
        <ele>69.35</ele>
        <time>2014-12-06T15:37:30Z</time>
      </trkpt>
      <trkpt lat="44.48429" lon="0.94479">
        <ele>69.35</ele>
        <time>2014-12-06T15:37:35Z</time>
      </trkpt>
      <trkpt lat="44.48413" lon="0.94477">
        <ele>67.43</ele>
        <time>2014-12-06T15:37:47Z</time>
      </trkpt>
      <trkpt lat="44.48404" lon="0.94472">
        <ele>67.91</ele>
        <time>2014-12-06T15:37:56Z</time>
      </trkpt>
      <trkpt lat="44.48402" lon="0.94468">
        <ele>67.91</ele>
        <time>2014-12-06T15:37:59Z</time>
      </trkpt>
      <trkpt lat="44.48395" lon="0.94429">
        <ele>67.91</ele>
        <time>2014-12-06T15:38:12Z</time>
      </trkpt>
      <trkpt lat="44.48391" lon="0.94407">
        <ele>66.95</ele>
        <time>2014-12-06T15:38:19Z</time>
      </trkpt>
      <trkpt lat="44.4839" lon="0.94404">
        <ele>66.95</ele>
        <time>2014-12-06T15:38:20Z</time>
      </trkpt>
      <trkpt lat="44.48389" lon="0.94402">
        <ele>66.95</ele>
        <time>2014-12-06T15:38:21Z</time>
      </trkpt>
      <trkpt lat="44.48388" lon="0.94399">
        <ele>67.43</ele>
        <time>2014-12-06T15:38:22Z</time>
      </trkpt>
      <trkpt lat="44.48388" lon="0.94397">
        <ele>67.43</ele>
        <time>2014-12-06T15:38:23Z</time>
      </trkpt>
      <trkpt lat="44.48387" lon="0.94397">
        <ele>67.91</ele>
        <time>2014-12-06T15:38:31Z</time>
      </trkpt>
      <trkpt lat="44.48386" lon="0.94397">
        <ele>68.39</ele>
        <time>2014-12-06T15:38:32Z</time>
      </trkpt>
      <trkpt lat="44.48384" lon="0.94393">
        <ele>68.39</ele>
        <time>2014-12-06T15:38:43Z</time>
      </trkpt>
      <trkpt lat="44.48379" lon="0.9439">
        <ele>67.91</ele>
        <time>2014-12-06T15:38:56Z</time>
      </trkpt>
      <trkpt lat="44.48326" lon="0.94404">
        <ele>68.39</ele>
        <time>2014-12-06T15:39:10Z</time>
      </trkpt>
      <trkpt lat="44.48309" lon="0.9441">
        <ele>69.83</ele>
        <time>2014-12-06T15:39:19Z</time>
      </trkpt>
      <trkpt lat="44.4827" lon="0.9442">
        <ele>71.27</ele>
        <time>2014-12-06T15:39:29Z</time>
      </trkpt>
      <trkpt lat="44.48245" lon="0.9443">
        <ele>71.27</ele>
        <time>2014-12-06T15:39:37Z</time>
      </trkpt>
      <trkpt lat="44.48243" lon="0.94436">
        <ele>71.27</ele>
        <time>2014-12-06T15:39:38Z</time>
      </trkpt>
      <trkpt lat="44.48242" lon="0.94442">
        <ele>71.27</ele>
        <time>2014-12-06T15:39:39Z</time>
      </trkpt>
      <trkpt lat="44.48242" lon="0.94449">
        <ele>71.27</ele>
        <time>2014-12-06T15:39:40Z</time>
      </trkpt>
      <trkpt lat="44.48243" lon="0.94455">
        <ele>71.27</ele>
        <time>2014-12-06T15:39:41Z</time>
      </trkpt>
      <trkpt lat="44.48244" lon="0.94462">
        <ele>71.27</ele>
        <time>2014-12-06T15:39:42Z</time>
      </trkpt>
      <trkpt lat="44.48243" lon="0.94468">
        <ele>71.27</ele>
        <time>2014-12-06T15:39:43Z</time>
      </trkpt>
      <trkpt lat="44.48241" lon="0.94474">
        <ele>71.27</ele>
        <time>2014-12-06T15:39:44Z</time>
      </trkpt>
      <trkpt lat="44.48238" lon="0.94478">
        <ele>71.27</ele>
        <time>2014-12-06T15:39:45Z</time>
      </trkpt>
      <trkpt lat="44.48234" lon="0.94481">
        <ele>71.27</ele>
        <time>2014-12-06T15:39:46Z</time>
      </trkpt>
      <trkpt lat="44.4823" lon="0.94483">
        <ele>71.27</ele>
        <time>2014-12-06T15:39:47Z</time>
      </trkpt>
      <trkpt lat="44.48207" lon="0.94494">
        <ele>70.31</ele>
        <time>2014-12-06T15:39:52Z</time>
      </trkpt>
      <trkpt lat="44.48143" lon="0.94522">
        <ele>67.91</ele>
        <time>2014-12-06T15:40:07Z</time>
      </trkpt>
      <trkpt lat="44.48127" lon="0.94533">
        <ele>69.35</ele>
        <time>2014-12-06T15:40:18Z</time>
      </trkpt>
      <trkpt lat="44.48095" lon="0.94568">
        <ele>68.87</ele>
        <time>2014-12-06T15:40:30Z</time>
      </trkpt>
      <trkpt lat="44.48103" lon="0.94591">
        <ele>69.35</ele>
        <time>2014-12-06T15:40:34Z</time>
      </trkpt>
      <trkpt lat="44.48105" lon="0.94596">
        <ele>69.35</ele>
        <time>2014-12-06T15:40:35Z</time>
      </trkpt>
      <trkpt lat="44.48107" lon="0.94602">
        <ele>69.35</ele>
        <time>2014-12-06T15:40:36Z</time>
      </trkpt>
      <trkpt lat="44.4812" lon="0.94633">
        <ele>69.35</ele>
        <time>2014-12-06T15:40:41Z</time>
      </trkpt>
      <trkpt lat="44.48122" lon="0.94639">
        <ele>68.87</ele>
        <time>2014-12-06T15:40:42Z</time>
      </trkpt>
      <trkpt lat="44.48132" lon="0.94669">
        <ele>67.43</ele>
        <time>2014-12-06T15:40:47Z</time>
      </trkpt>
      <trkpt lat="44.48131" lon="0.94675">
        <ele>67.43</ele>
        <time>2014-12-06T15:40:48Z</time>
      </trkpt>
      <trkpt lat="44.48128" lon="0.9468">
        <ele>67.43</ele>
        <time>2014-12-06T15:40:49Z</time>
      </trkpt>
      <trkpt lat="44.48124" lon="0.94683">
        <ele>67.43</ele>
        <time>2014-12-06T15:40:50Z</time>
      </trkpt>
      <trkpt lat="44.4812" lon="0.94686">
        <ele>67.43</ele>
        <time>2014-12-06T15:40:51Z</time>
      </trkpt>
      <trkpt lat="44.48116" lon="0.94688">
        <ele>67.43</ele>
        <time>2014-12-06T15:40:52Z</time>
      </trkpt>
      <trkpt lat="44.48111" lon="0.94691">
        <ele>67.91</ele>
        <time>2014-12-06T15:40:53Z</time>
      </trkpt>
      <trkpt lat="44.48041" lon="0.9475">
        <ele>68.87</ele>
        <time>2014-12-06T15:41:09Z</time>
      </trkpt>
      <trkpt lat="44.48013" lon="0.94771">
        <ele>67.43</ele>
        <time>2014-12-06T15:41:16Z</time>
      </trkpt>
      <trkpt lat="44.4801" lon="0.94769">
        <ele>66.95</ele>
        <time>2014-12-06T15:41:17Z</time>
      </trkpt>
      <trkpt lat="44.48007" lon="0.94764">
        <ele>66.47</ele>
        <time>2014-12-06T15:41:18Z</time>
      </trkpt>
      <trkpt lat="44.48004" lon="0.94759">
        <ele>65.99</ele>
        <time>2014-12-06T15:41:19Z</time>
      </trkpt>
      <trkpt lat="44.48002" lon="0.94753">
        <ele>65.51</ele>
        <time>2014-12-06T15:41:20Z</time>
      </trkpt>
      <trkpt lat="44.48" lon="0.94748">
        <ele>65.03</ele>
        <time>2014-12-06T15:41:21Z</time>
      </trkpt>
      <trkpt lat="44.4799" lon="0.94721">
        <ele>63.1</ele>
        <time>2014-12-06T15:41:26Z</time>
      </trkpt>
      <trkpt lat="44.47988" lon="0.94716">
        <ele>63.58</ele>
        <time>2014-12-06T15:41:27Z</time>
      </trkpt>
      <trkpt lat="44.47986" lon="0.9471">
        <ele>63.58</ele>
        <time>2014-12-06T15:41:28Z</time>
      </trkpt>
      <trkpt lat="44.47961" lon="0.94638">
        <ele>65.03</ele>
        <time>2014-12-06T15:41:41Z</time>
      </trkpt>
      <trkpt lat="44.47959" lon="0.94633">
        <ele>65.51</ele>
        <time>2014-12-06T15:41:42Z</time>
      </trkpt>
      <trkpt lat="44.47958" lon="0.94627">
        <ele>65.51</ele>
        <time>2014-12-06T15:41:43Z</time>
      </trkpt>
      <trkpt lat="44.47954" lon="0.94616">
        <ele>65.99</ele>
        <time>2014-12-06T15:41:45Z</time>
      </trkpt>
      <trkpt lat="44.47934" lon="0.94547">
        <ele>66.47</ele>
        <time>2014-12-06T15:41:57Z</time>
      </trkpt>
      <trkpt lat="44.47932" lon="0.94541">
        <ele>66.47</ele>
        <time>2014-12-06T15:41:58Z</time>
      </trkpt>
      <trkpt lat="44.47923" lon="0.94512">
        <ele>65.99</ele>
        <time>2014-12-06T15:42:03Z</time>
      </trkpt>
      <trkpt lat="44.47907" lon="0.94465">
        <ele>65.03</ele>
        <time>2014-12-06T15:42:15Z</time>
      </trkpt>
      <trkpt lat="44.47897" lon="0.94431">
        <ele>64.55</ele>
        <time>2014-12-06T15:42:26Z</time>
      </trkpt>
      <trkpt lat="44.47892" lon="0.94411">
        <ele>64.07</ele>
        <time>2014-12-06T15:42:37Z</time>
      </trkpt>
      <trkpt lat="44.47871" lon="0.94356">
        <ele>63.58</ele>
        <time>2014-12-06T15:42:51Z</time>
      </trkpt>
      <trkpt lat="44.47855" lon="0.94314">
        <ele>63.58</ele>
        <time>2014-12-06T15:43:01Z</time>
      </trkpt>
      <trkpt lat="44.47844" lon="0.94287">
        <ele>63.1</ele>
        <time>2014-12-06T15:43:07Z</time>
      </trkpt>
      <trkpt lat="44.47824" lon="0.94232">
        <ele>62.14</ele>
        <time>2014-12-06T15:43:17Z</time>
      </trkpt>
      <trkpt lat="44.4781" lon="0.94219">
        <ele>61.66</ele>
        <time>2014-12-06T15:43:21Z</time>
      </trkpt>
      <trkpt lat="44.478" lon="0.942">
        <ele>61.18</ele>
        <time>2014-12-06T15:43:25Z</time>
      </trkpt>
      <trkpt lat="44.47792" lon="0.94181">
        <ele>60.7</ele>
        <time>2014-12-06T15:43:28Z</time>
      </trkpt>
      <trkpt lat="44.47774" lon="0.94149">
        <ele>61.18</ele>
        <time>2014-12-06T15:43:34Z</time>
      </trkpt>
      <trkpt lat="44.47737" lon="0.94114">
        <ele>61.18</ele>
        <time>2014-12-06T15:43:44Z</time>
      </trkpt>
      <trkpt lat="44.47721" lon="0.94101">
        <ele>60.7</ele>
        <time>2014-12-06T15:43:48Z</time>
      </trkpt>
      <trkpt lat="44.47705" lon="0.94087">
        <ele>60.22</ele>
        <time>2014-12-06T15:43:52Z</time>
      </trkpt>
      <trkpt lat="44.47662" lon="0.94051">
        <ele>60.7</ele>
        <time>2014-12-06T15:44:05Z</time>
      </trkpt>
      <trkpt lat="44.47631" lon="0.94033">
        <ele>58.3</ele>
        <time>2014-12-06T15:44:14Z</time>
      </trkpt>
      <trkpt lat="44.47623" lon="0.94026">
        <ele>57.82</ele>
        <time>2014-12-06T15:44:16Z</time>
      </trkpt>
      <trkpt lat="44.47593" lon="0.94001">
        <ele>57.34</ele>
        <time>2014-12-06T15:44:23Z</time>
      </trkpt>
      <trkpt lat="44.47581" lon="0.93993">
        <ele>58.3</ele>
        <time>2014-12-06T15:44:26Z</time>
      </trkpt>
      <trkpt lat="44.47577" lon="0.93989">
        <ele>58.78</ele>
        <time>2014-12-06T15:44:27Z</time>
      </trkpt>
      <trkpt lat="44.47574" lon="0.93986">
        <ele>58.78</ele>
        <time>2014-12-06T15:44:28Z</time>
      </trkpt>
      <trkpt lat="44.47546" lon="0.93965">
        <ele>60.7</ele>
        <time>2014-12-06T15:44:36Z</time>
      </trkpt>
      <trkpt lat="44.47543" lon="0.93964">
        <ele>61.18</ele>
        <time>2014-12-06T15:44:37Z</time>
      </trkpt>
      <trkpt lat="44.4754" lon="0.93964">
        <ele>61.18</ele>
        <time>2014-12-06T15:44:38Z</time>
      </trkpt>
      <trkpt lat="44.47518" lon="0.93952">
        <ele>61.66</ele>
        <time>2014-12-06T15:44:48Z</time>
      </trkpt>
      <trkpt lat="44.47496" lon="0.93911">
        <ele>61.18</ele>
        <time>2014-12-06T15:44:59Z</time>
      </trkpt>
      <trkpt lat="44.47489" lon="0.93899">
        <ele>61.18</ele>
        <time>2014-12-06T15:45:04Z</time>
      </trkpt>
      <trkpt lat="44.47488" lon="0.93898">
        <ele>61.18</ele>
        <time>2014-12-06T15:45:05Z</time>
      </trkpt>
      <trkpt lat="44.4748" lon="0.93897">
        <ele>61.66</ele>
        <time>2014-12-06T15:45:10Z</time>
      </trkpt>
      <trkpt lat="44.47477" lon="0.93898">
        <ele>62.14</ele>
        <time>2014-12-06T15:45:11Z</time>
      </trkpt>
      <trkpt lat="44.47476" lon="0.93899">
        <ele>62.14</ele>
        <time>2014-12-06T15:45:12Z</time>
      </trkpt>
      <trkpt lat="44.47436" lon="0.93927">
        <ele>65.03</ele>
        <time>2014-12-06T15:45:26Z</time>
      </trkpt>
      <trkpt lat="44.47404" lon="0.9395">
        <ele>66.95</ele>
        <time>2014-12-06T15:45:36Z</time>
      </trkpt>
      <trkpt lat="44.47401" lon="0.93951">
        <ele>67.43</ele>
        <time>2014-12-06T15:45:37Z</time>
      </trkpt>
      <trkpt lat="44.47399" lon="0.93952">
        <ele>67.43</ele>
        <time>2014-12-06T15:45:38Z</time>
      </trkpt>
      <trkpt lat="44.4739" lon="0.93956">
        <ele>68.39</ele>
        <time>2014-12-06T15:45:42Z</time>
      </trkpt>
      <trkpt lat="44.47389" lon="0.93955">
        <ele>68.87</ele>
        <time>2014-12-06T15:45:43Z</time>
      </trkpt>
      <trkpt lat="44.47388" lon="0.93951">
        <ele>68.87</ele>
        <time>2014-12-06T15:45:44Z</time>
      </trkpt>
      <trkpt lat="44.47375" lon="0.93878">
        <ele>66.95</ele>
        <time>2014-12-06T15:45:59Z</time>
      </trkpt>
      <trkpt lat="44.47369" lon="0.93843">
        <ele>66.47</ele>
        <time>2014-12-06T15:46:05Z</time>
      </trkpt>
      <trkpt lat="44.47367" lon="0.93838">
        <ele>66.47</ele>
        <time>2014-12-06T15:46:06Z</time>
      </trkpt>
      <trkpt lat="44.47365" lon="0.93833">
        <ele>66.47</ele>
        <time>2014-12-06T15:46:07Z</time>
      </trkpt>
      <trkpt lat="44.47363" lon="0.93828">
        <ele>65.99</ele>
        <time>2014-12-06T15:46:08Z</time>
      </trkpt>
      <trkpt lat="44.47361" lon="0.93824">
        <ele>66.47</ele>
        <time>2014-12-06T15:46:09Z</time>
      </trkpt>
      <trkpt lat="44.47359" lon="0.93822">
        <ele>66.95</ele>
        <time>2014-12-06T15:46:10Z</time>
      </trkpt>
      <trkpt lat="44.47343" lon="0.93793">
        <ele>68.39</ele>
        <time>2014-12-06T15:46:19Z</time>
      </trkpt>
      <trkpt lat="44.47326" lon="0.93745">
        <ele>69.35</ele>
        <time>2014-12-06T15:46:32Z</time>
      </trkpt>
      <trkpt lat="44.47303" lon="0.93705">
        <ele>69.35</ele>
        <time>2014-12-06T15:46:44Z</time>
      </trkpt>
      <trkpt lat="44.47292" lon="0.93676">
        <ele>69.35</ele>
        <time>2014-12-06T15:46:52Z</time>
      </trkpt>
      <trkpt lat="44.4729" lon="0.93675">
        <ele>69.35</ele>
        <time>2014-12-06T15:46:53Z</time>
      </trkpt>
      <trkpt lat="44.47284" lon="0.93672">
        <ele>70.31</ele>
        <time>2014-12-06T15:46:56Z</time>
      </trkpt>
      <trkpt lat="44.47281" lon="0.93666">
        <ele>70.79</ele>
        <time>2014-12-06T15:47:02Z</time>
      </trkpt>
      <trkpt lat="44.47268" lon="0.93636">
        <ele>71.27</ele>
        <time>2014-12-06T15:47:18Z</time>
      </trkpt>
      <trkpt lat="44.47245" lon="0.93608">
        <ele>69.83</ele>
        <time>2014-12-06T15:47:32Z</time>
      </trkpt>
      <trkpt lat="44.47228" lon="0.93555">
        <ele>68.39</ele>
        <time>2014-12-06T15:47:44Z</time>
      </trkpt>
      <trkpt lat="44.47224" lon="0.93512">
        <ele>68.39</ele>
        <time>2014-12-06T15:47:52Z</time>
      </trkpt>
      <trkpt lat="44.47223" lon="0.93506">
        <ele>68.39</ele>
        <time>2014-12-06T15:47:53Z</time>
      </trkpt>
      <trkpt lat="44.47222" lon="0.93501">
        <ele>68.39</ele>
        <time>2014-12-06T15:47:54Z</time>
      </trkpt>
      <trkpt lat="44.47221" lon="0.93496">
        <ele>68.39</ele>
        <time>2014-12-06T15:47:55Z</time>
      </trkpt>
      <trkpt lat="44.4722" lon="0.9349">
        <ele>68.39</ele>
        <time>2014-12-06T15:47:56Z</time>
      </trkpt>
      <trkpt lat="44.4722" lon="0.93485">
        <ele>67.91</ele>
        <time>2014-12-06T15:47:57Z</time>
      </trkpt>
      <trkpt lat="44.4722" lon="0.93479">
        <ele>67.91</ele>
        <time>2014-12-06T15:47:58Z</time>
      </trkpt>
      <trkpt lat="44.47218" lon="0.93474">
        <ele>67.91</ele>
        <time>2014-12-06T15:47:59Z</time>
      </trkpt>
      <trkpt lat="44.47217" lon="0.93469">
        <ele>68.39</ele>
        <time>2014-12-06T15:48:00Z</time>
      </trkpt>
      <trkpt lat="44.47217" lon="0.93464">
        <ele>68.39</ele>
        <time>2014-12-06T15:48:01Z</time>
      </trkpt>
      <trkpt lat="44.47216" lon="0.9346">
        <ele>68.39</ele>
        <time>2014-12-06T15:48:02Z</time>
      </trkpt>
      <trkpt lat="44.47215" lon="0.93455">
        <ele>68.39</ele>
        <time>2014-12-06T15:48:03Z</time>
      </trkpt>
      <trkpt lat="44.47215" lon="0.93451">
        <ele>68.39</ele>
        <time>2014-12-06T15:48:04Z</time>
      </trkpt>
      <trkpt lat="44.47213" lon="0.9344">
        <ele>68.39</ele>
        <time>2014-12-06T15:48:07Z</time>
      </trkpt>
      <trkpt lat="44.47212" lon="0.93437">
        <ele>68.39</ele>
        <time>2014-12-06T15:48:08Z</time>
      </trkpt>
      <trkpt lat="44.47211" lon="0.93435">
        <ele>68.39</ele>
        <time>2014-12-06T15:48:09Z</time>
      </trkpt>
      <trkpt lat="44.4721" lon="0.93433">
        <ele>68.39</ele>
        <time>2014-12-06T15:48:10Z</time>
      </trkpt>
      <trkpt lat="44.4721" lon="0.9343">
        <ele>68.87</ele>
        <time>2014-12-06T15:48:11Z</time>
      </trkpt>
      <trkpt lat="44.4721" lon="0.93428">
        <ele>68.87</ele>
        <time>2014-12-06T15:48:12Z</time>
      </trkpt>
      <trkpt lat="44.4721" lon="0.93425">
        <ele>68.87</ele>
        <time>2014-12-06T15:48:13Z</time>
      </trkpt>
      <trkpt lat="44.47208" lon="0.93423">
        <ele>68.87</ele>
        <time>2014-12-06T15:48:14Z</time>
      </trkpt>
      <trkpt lat="44.47207" lon="0.93421">
        <ele>68.87</ele>
        <time>2014-12-06T15:48:15Z</time>
      </trkpt>
      <trkpt lat="44.47206" lon="0.93419">
        <ele>68.87</ele>
        <time>2014-12-06T15:48:16Z</time>
      </trkpt>
      <trkpt lat="44.47206" lon="0.93417">
        <ele>68.87</ele>
        <time>2014-12-06T15:48:17Z</time>
      </trkpt>
      <trkpt lat="44.47205" lon="0.93416">
        <ele>67.91</ele>
        <time>2014-12-06T15:48:26Z</time>
      </trkpt>
      <trkpt lat="44.47205" lon="0.93414">
        <ele>66.95</ele>
        <time>2014-12-06T15:48:54Z</time>
      </trkpt>
    </trkseg>
  </trk>
</gpx>